<?xml version="1.0" encoding="UTF-8" standalone="no" ?>
<gpx xmlns="http://www.topografix.com/GPX/1/1" xmlns:xsi="http://www.w3.org/2001/XMLSchema-instance" xsi:schemaLocation="http://www.topografix.com/GPX/1/1 http://www.topografix.com/GPX/1/1/gpx.xsd" version="1.1" creator="VisuGPX - https://www.visugpx.com">
  <metadata>
    <name>Sortie VTT du 19 juin 2010</name>
    <desc><![CDATA[Boucle de 24 km au déàart de Saverne]]></desc>
  </metadata>
  <trk>
    <name><![CDATA[ADi2010/06/19_00:26]]></name>
    <trkseg>
      <trkpt lat="48.73132" lon="7.3523">
        <ele>255.729614</ele>
        <time>2010-06-19T11:58:35Z</time>
      </trkpt>
      <trkpt lat="48.73137" lon="7.35213">
        <ele>244.510864</ele>
        <time>2010-06-19T11:58:35Z</time>
      </trkpt>
      <trkpt lat="48.73141" lon="7.3521">
        <ele>248.288208</ele>
        <time>2010-06-19T12:00:57Z</time>
      </trkpt>
      <trkpt lat="48.73147" lon="7.35208">
        <ele>242.506958</ele>
        <time>2010-06-19T12:23:00Z</time>
      </trkpt>
      <trkpt lat="48.73158" lon="7.35192">
        <ele>244.831177</ele>
        <time>2010-06-19T12:23:05Z</time>
      </trkpt>
      <trkpt lat="48.73164" lon="7.35172">
        <ele>246.292114</ele>
        <time>2010-06-19T12:23:09Z</time>
      </trkpt>
      <trkpt lat="48.7317" lon="7.35151">
        <ele>247.725708</ele>
        <time>2010-06-19T12:23:14Z</time>
      </trkpt>
      <trkpt lat="48.7318" lon="7.35132">
        <ele>248.620239</ele>
        <time>2010-06-19T12:23:20Z</time>
      </trkpt>
      <trkpt lat="48.73191" lon="7.35121">
        <ele>249.112427</ele>
        <time>2010-06-19T12:23:26Z</time>
      </trkpt>
      <trkpt lat="48.73204" lon="7.35128">
        <ele>251.206177</ele>
        <time>2010-06-19T12:23:33Z</time>
      </trkpt>
      <trkpt lat="48.73218" lon="7.35132">
        <ele>253.057739</ele>
        <time>2010-06-19T12:23:40Z</time>
      </trkpt>
      <trkpt lat="48.73226" lon="7.35115">
        <ele>253.596802</ele>
        <time>2010-06-19T12:23:46Z</time>
      </trkpt>
      <trkpt lat="48.7323" lon="7.35093">
        <ele>254.706177</ele>
        <time>2010-06-19T12:23:54Z</time>
      </trkpt>
      <trkpt lat="48.73237" lon="7.35074">
        <ele>257.467041</ele>
        <time>2010-06-19T12:24:03Z</time>
      </trkpt>
      <trkpt lat="48.73243" lon="7.35055">
        <ele>257.404541</ele>
        <time>2010-06-19T12:24:10Z</time>
      </trkpt>
      <trkpt lat="48.73249" lon="7.35034">
        <ele>258.599854</ele>
        <time>2010-06-19T12:24:17Z</time>
      </trkpt>
      <trkpt lat="48.73256" lon="7.35016">
        <ele>259.763916</ele>
        <time>2010-06-19T12:24:24Z</time>
      </trkpt>
      <trkpt lat="48.73259" lon="7.34997">
        <ele>262.435791</ele>
        <time>2010-06-19T12:24:39Z</time>
      </trkpt>
      <trkpt lat="48.73264" lon="7.34978">
        <ele>265.287354</ele>
        <time>2010-06-19T12:24:48Z</time>
      </trkpt>
      <trkpt lat="48.73273" lon="7.34962">
        <ele>264.537354</ele>
        <time>2010-06-19T12:24:54Z</time>
      </trkpt>
      <trkpt lat="48.73279" lon="7.34941">
        <ele>265.060791</ele>
        <time>2010-06-19T12:25:02Z</time>
      </trkpt>
      <trkpt lat="48.73291" lon="7.34928">
        <ele>265.092041</ele>
        <time>2010-06-19T12:25:08Z</time>
      </trkpt>
      <trkpt lat="48.73302" lon="7.34914">
        <ele>265.724854</ele>
        <time>2010-06-19T12:25:14Z</time>
      </trkpt>
      <trkpt lat="48.73312" lon="7.34898">
        <ele>268.498291</ele>
        <time>2010-06-19T12:25:21Z</time>
      </trkpt>
      <trkpt lat="48.73321" lon="7.34882">
        <ele>270.170166</ele>
        <time>2010-06-19T12:25:27Z</time>
      </trkpt>
      <trkpt lat="48.73331" lon="7.34865">
        <ele>271.217041</ele>
        <time>2010-06-19T12:25:33Z</time>
      </trkpt>
      <trkpt lat="48.73342" lon="7.34847">
        <ele>273.287354</ele>
        <time>2010-06-19T12:25:39Z</time>
      </trkpt>
      <trkpt lat="48.73348" lon="7.34827">
        <ele>273.842041</ele>
        <time>2010-06-19T12:25:49Z</time>
      </trkpt>
      <trkpt lat="48.73358" lon="7.34812">
        <ele>273.982666</ele>
        <time>2010-06-19T12:25:56Z</time>
      </trkpt>
      <trkpt lat="48.73363" lon="7.34793">
        <ele>274.552979</ele>
        <time>2010-06-19T12:28:00Z</time>
      </trkpt>
      <trkpt lat="48.73356" lon="7.34773">
        <ele>275.506104</ele>
        <time>2010-06-19T12:28:05Z</time>
      </trkpt>
      <trkpt lat="48.73346" lon="7.34756">
        <ele>276.232666</ele>
        <time>2010-06-19T12:28:11Z</time>
      </trkpt>
      <trkpt lat="48.73335" lon="7.34741">
        <ele>277.052979</ele>
        <time>2010-06-19T12:28:17Z</time>
      </trkpt>
      <trkpt lat="48.73323" lon="7.34724">
        <ele>277.217041</ele>
        <time>2010-06-19T12:28:23Z</time>
      </trkpt>
      <trkpt lat="48.73315" lon="7.34708">
        <ele>275.990479</ele>
        <time>2010-06-19T12:28:29Z</time>
      </trkpt>
      <trkpt lat="48.73303" lon="7.34693">
        <ele>275.881104</ele>
        <time>2010-06-19T12:28:36Z</time>
      </trkpt>
      <trkpt lat="48.73294" lon="7.34674">
        <ele>276.990479</ele>
        <time>2010-06-19T12:28:42Z</time>
      </trkpt>
      <trkpt lat="48.73285" lon="7.34657">
        <ele>278.670166</ele>
        <time>2010-06-19T12:28:48Z</time>
      </trkpt>
      <trkpt lat="48.73275" lon="7.3464">
        <ele>280.177979</ele>
        <time>2010-06-19T12:28:54Z</time>
      </trkpt>
      <trkpt lat="48.73267" lon="7.34624">
        <ele>282.709229</ele>
        <time>2010-06-19T12:29:00Z</time>
      </trkpt>
      <trkpt lat="48.73258" lon="7.34608">
        <ele>283.982666</ele>
        <time>2010-06-19T12:29:06Z</time>
      </trkpt>
      <trkpt lat="48.73249" lon="7.34592">
        <ele>285.490479</ele>
        <time>2010-06-19T12:29:12Z</time>
      </trkpt>
      <trkpt lat="48.73239" lon="7.34574">
        <ele>287.615479</ele>
        <time>2010-06-19T12:29:19Z</time>
      </trkpt>
      <trkpt lat="48.73233" lon="7.34556">
        <ele>293.513916</ele>
        <time>2010-06-19T12:29:29Z</time>
      </trkpt>
      <trkpt lat="48.73224" lon="7.34538">
        <ele>293.865479</ele>
        <time>2010-06-19T12:29:35Z</time>
      </trkpt>
      <trkpt lat="48.73214" lon="7.34519">
        <ele>294.998291</ele>
        <time>2010-06-19T12:29:41Z</time>
      </trkpt>
      <trkpt lat="48.73204" lon="7.34504">
        <ele>295.490479</ele>
        <time>2010-06-19T12:29:47Z</time>
      </trkpt>
      <trkpt lat="48.73195" lon="7.34487">
        <ele>296.474854</ele>
        <time>2010-06-19T12:29:54Z</time>
      </trkpt>
      <trkpt lat="48.73184" lon="7.34471">
        <ele>297.943604</ele>
        <time>2010-06-19T12:30:00Z</time>
      </trkpt>
      <trkpt lat="48.73174" lon="7.34454">
        <ele>299.584229</ele>
        <time>2010-06-19T12:30:06Z</time>
      </trkpt>
      <trkpt lat="48.73161" lon="7.3444">
        <ele>299.951416</ele>
        <time>2010-06-19T12:30:12Z</time>
      </trkpt>
      <trkpt lat="48.7315" lon="7.34425">
        <ele>302.146729</ele>
        <time>2010-06-19T12:30:18Z</time>
      </trkpt>
      <trkpt lat="48.7314" lon="7.34409">
        <ele>303.131104</ele>
        <time>2010-06-19T12:30:24Z</time>
      </trkpt>
      <trkpt lat="48.73129" lon="7.34396">
        <ele>303.795166</ele>
        <time>2010-06-19T12:30:29Z</time>
      </trkpt>
      <trkpt lat="48.73118" lon="7.34384">
        <ele>305.146729</ele>
        <time>2010-06-19T12:30:35Z</time>
      </trkpt>
      <trkpt lat="48.73108" lon="7.34367">
        <ele>305.279541</ele>
        <time>2010-06-19T12:30:41Z</time>
      </trkpt>
      <trkpt lat="48.73097" lon="7.34352">
        <ele>305.451416</ele>
        <time>2010-06-19T12:30:46Z</time>
      </trkpt>
      <trkpt lat="48.73085" lon="7.34337">
        <ele>305.724854</ele>
        <time>2010-06-19T12:30:51Z</time>
      </trkpt>
      <trkpt lat="48.73073" lon="7.34323">
        <ele>305.373291</ele>
        <time>2010-06-19T12:30:55Z</time>
      </trkpt>
      <trkpt lat="48.73062" lon="7.3431">
        <ele>306.732666</ele>
        <time>2010-06-19T12:31:00Z</time>
      </trkpt>
      <trkpt lat="48.73046" lon="7.343">
        <ele>307.732666</ele>
        <time>2010-06-19T12:31:03Z</time>
      </trkpt>
      <trkpt lat="48.73034" lon="7.3429">
        <ele>308.748291</ele>
        <time>2010-06-19T12:31:07Z</time>
      </trkpt>
      <trkpt lat="48.73023" lon="7.34274">
        <ele>308.459229</ele>
        <time>2010-06-19T12:31:11Z</time>
      </trkpt>
      <trkpt lat="48.73011" lon="7.3426">
        <ele>307.873291</ele>
        <time>2010-06-19T12:31:15Z</time>
      </trkpt>
      <trkpt lat="48.73" lon="7.34249">
        <ele>308.170166</ele>
        <time>2010-06-19T12:31:18Z</time>
      </trkpt>
      <trkpt lat="48.72989" lon="7.34232">
        <ele>308.068604</ele>
        <time>2010-06-19T12:31:23Z</time>
      </trkpt>
      <trkpt lat="48.72978" lon="7.34218">
        <ele>303.599854</ele>
        <time>2010-06-19T12:31:28Z</time>
      </trkpt>
      <trkpt lat="48.72968" lon="7.34202">
        <ele>304.045166</ele>
        <time>2010-06-19T12:31:33Z</time>
      </trkpt>
      <trkpt lat="48.72955" lon="7.34185">
        <ele>304.592041</ele>
        <time>2010-06-19T12:31:39Z</time>
      </trkpt>
      <trkpt lat="48.72946" lon="7.3417">
        <ele>305.631104</ele>
        <time>2010-06-19T12:31:44Z</time>
      </trkpt>
      <trkpt lat="48.72935" lon="7.34154">
        <ele>306.912354</ele>
        <time>2010-06-19T12:31:49Z</time>
      </trkpt>
      <trkpt lat="48.72926" lon="7.34136">
        <ele>306.998291</ele>
        <time>2010-06-19T12:31:55Z</time>
      </trkpt>
      <trkpt lat="48.72917" lon="7.34118">
        <ele>308.802979</ele>
        <time>2010-06-19T12:32:00Z</time>
      </trkpt>
      <trkpt lat="48.72908" lon="7.34101">
        <ele>309.888916</ele>
        <time>2010-06-19T12:32:05Z</time>
      </trkpt>
      <trkpt lat="48.72899" lon="7.34087">
        <ele>308.404541</ele>
        <time>2010-06-19T12:32:54Z</time>
      </trkpt>
      <trkpt lat="48.72892" lon="7.34068">
        <ele>308.701416</ele>
        <time>2010-06-19T12:32:58Z</time>
      </trkpt>
      <trkpt lat="48.72884" lon="7.34046">
        <ele>310.521729</ele>
        <time>2010-06-19T12:33:02Z</time>
      </trkpt>
      <trkpt lat="48.72878" lon="7.34027">
        <ele>311.443604</ele>
        <time>2010-06-19T12:33:05Z</time>
      </trkpt>
      <trkpt lat="48.72871" lon="7.34006">
        <ele>312.670166</ele>
        <time>2010-06-19T12:33:08Z</time>
      </trkpt>
      <trkpt lat="48.72867" lon="7.33983">
        <ele>314.740479</ele>
        <time>2010-06-19T12:33:12Z</time>
      </trkpt>
      <trkpt lat="48.7286" lon="7.33964">
        <ele>317.888916</ele>
        <time>2010-06-19T12:34:01Z</time>
      </trkpt>
      <trkpt lat="48.72856" lon="7.33943">
        <ele>318.279541</ele>
        <time>2010-06-19T12:34:07Z</time>
      </trkpt>
      <trkpt lat="48.72848" lon="7.33922">
        <ele>317.748291</ele>
        <time>2010-06-19T12:34:11Z</time>
      </trkpt>
      <trkpt lat="48.72842" lon="7.33899">
        <ele>317.248291</ele>
        <time>2010-06-19T12:34:15Z</time>
      </trkpt>
      <trkpt lat="48.72834" lon="7.33876">
        <ele>317.037354</ele>
        <time>2010-06-19T12:34:19Z</time>
      </trkpt>
      <trkpt lat="48.72827" lon="7.33852">
        <ele>317.724854</ele>
        <time>2010-06-19T12:34:23Z</time>
      </trkpt>
      <trkpt lat="48.7282" lon="7.33829">
        <ele>318.935791</ele>
        <time>2010-06-19T12:34:27Z</time>
      </trkpt>
      <trkpt lat="48.72812" lon="7.33807">
        <ele>318.701416</ele>
        <time>2010-06-19T12:34:31Z</time>
      </trkpt>
      <trkpt lat="48.72804" lon="7.33789">
        <ele>317.334229</ele>
        <time>2010-06-19T12:34:35Z</time>
      </trkpt>
      <trkpt lat="48.72798" lon="7.33771">
        <ele>321.318604</ele>
        <time>2010-06-19T12:34:39Z</time>
      </trkpt>
      <trkpt lat="48.72789" lon="7.33754">
        <ele>323.177979</ele>
        <time>2010-06-19T12:34:45Z</time>
      </trkpt>
      <trkpt lat="48.72783" lon="7.33736">
        <ele>324.263916</ele>
        <time>2010-06-19T12:34:50Z</time>
      </trkpt>
      <trkpt lat="48.72772" lon="7.33717">
        <ele>323.099854</ele>
        <time>2010-06-19T12:34:55Z</time>
      </trkpt>
      <trkpt lat="48.72764" lon="7.337">
        <ele>324.115479</ele>
        <time>2010-06-19T12:35:22Z</time>
      </trkpt>
      <trkpt lat="48.72755" lon="7.33683">
        <ele>327.717041</ele>
        <time>2010-06-19T12:36:18Z</time>
      </trkpt>
      <trkpt lat="48.72743" lon="7.3367">
        <ele>326.185791</ele>
        <time>2010-06-19T12:36:22Z</time>
      </trkpt>
      <trkpt lat="48.72731" lon="7.33659">
        <ele>326.131104</ele>
        <time>2010-06-19T12:36:26Z</time>
      </trkpt>
      <trkpt lat="48.72722" lon="7.33644">
        <ele>327.756104</ele>
        <time>2010-06-19T12:36:31Z</time>
      </trkpt>
      <trkpt lat="48.72714" lon="7.33627">
        <ele>328.896729</ele>
        <time>2010-06-19T12:36:36Z</time>
      </trkpt>
      <trkpt lat="48.72702" lon="7.33613">
        <ele>329.974854</ele>
        <time>2010-06-19T12:36:41Z</time>
      </trkpt>
      <trkpt lat="48.72689" lon="7.33598">
        <ele>330.545166</ele>
        <time>2010-06-19T12:36:46Z</time>
      </trkpt>
      <trkpt lat="48.72676" lon="7.33585">
        <ele>330.131104</ele>
        <time>2010-06-19T12:36:51Z</time>
      </trkpt>
      <trkpt lat="48.72664" lon="7.33572">
        <ele>328.920166</ele>
        <time>2010-06-19T12:36:56Z</time>
      </trkpt>
      <trkpt lat="48.7265" lon="7.3356">
        <ele>328.615479</ele>
        <time>2010-06-19T12:37:01Z</time>
      </trkpt>
      <trkpt lat="48.72637" lon="7.33548">
        <ele>328.795166</ele>
        <time>2010-06-19T12:37:06Z</time>
      </trkpt>
      <trkpt lat="48.72623" lon="7.33536">
        <ele>328.365479</ele>
        <time>2010-06-19T12:37:12Z</time>
      </trkpt>
      <trkpt lat="48.72611" lon="7.33523">
        <ele>329.826416</ele>
        <time>2010-06-19T12:37:17Z</time>
      </trkpt>
      <trkpt lat="48.72598" lon="7.33513">
        <ele>330.146729</ele>
        <time>2010-06-19T12:37:21Z</time>
      </trkpt>
      <trkpt lat="48.72586" lon="7.33503">
        <ele>331.138916</ele>
        <time>2010-06-19T12:37:25Z</time>
      </trkpt>
      <trkpt lat="48.72574" lon="7.33494">
        <ele>330.998291</ele>
        <time>2010-06-19T12:37:29Z</time>
      </trkpt>
      <trkpt lat="48.7256" lon="7.33484">
        <ele>330.576416</ele>
        <time>2010-06-19T12:37:34Z</time>
      </trkpt>
      <trkpt lat="48.72547" lon="7.33475">
        <ele>328.677979</ele>
        <time>2010-06-19T12:37:39Z</time>
      </trkpt>
      <trkpt lat="48.72534" lon="7.33465">
        <ele>328.045166</ele>
        <time>2010-06-19T12:37:44Z</time>
      </trkpt>
      <trkpt lat="48.7252" lon="7.33459">
        <ele>327.357666</ele>
        <time>2010-06-19T12:37:49Z</time>
      </trkpt>
      <trkpt lat="48.72507" lon="7.33451">
        <ele>327.334229</ele>
        <time>2010-06-19T12:37:54Z</time>
      </trkpt>
      <trkpt lat="48.72493" lon="7.33441">
        <ele>326.904541</ele>
        <time>2010-06-19T12:38:01Z</time>
      </trkpt>
      <trkpt lat="48.7248" lon="7.33432">
        <ele>327.013916</ele>
        <time>2010-06-19T12:38:07Z</time>
      </trkpt>
      <trkpt lat="48.72466" lon="7.33422">
        <ele>327.670166</ele>
        <time>2010-06-19T12:38:11Z</time>
      </trkpt>
      <trkpt lat="48.72453" lon="7.3341">
        <ele>328.131104</ele>
        <time>2010-06-19T12:38:18Z</time>
      </trkpt>
      <trkpt lat="48.7244" lon="7.33403">
        <ele>325.693604</ele>
        <time>2010-06-19T12:38:23Z</time>
      </trkpt>
      <trkpt lat="48.72427" lon="7.33392">
        <ele>325.420166</ele>
        <time>2010-06-19T12:38:28Z</time>
      </trkpt>
      <trkpt lat="48.72416" lon="7.33384">
        <ele>321.482666</ele>
        <time>2010-06-19T12:38:36Z</time>
      </trkpt>
      <trkpt lat="48.72401" lon="7.33369">
        <ele>320.818604</ele>
        <time>2010-06-19T12:38:42Z</time>
      </trkpt>
      <trkpt lat="48.7239" lon="7.33357">
        <ele>321.302979</ele>
        <time>2010-06-19T12:38:46Z</time>
      </trkpt>
      <trkpt lat="48.72379" lon="7.33345">
        <ele>321.740479</ele>
        <time>2010-06-19T12:38:51Z</time>
      </trkpt>
      <trkpt lat="48.72368" lon="7.33329">
        <ele>321.123291</ele>
        <time>2010-06-19T12:38:56Z</time>
      </trkpt>
      <trkpt lat="48.72356" lon="7.33319">
        <ele>319.763916</ele>
        <time>2010-06-19T12:39:00Z</time>
      </trkpt>
      <trkpt lat="48.72344" lon="7.33306">
        <ele>320.646729</ele>
        <time>2010-06-19T12:39:05Z</time>
      </trkpt>
      <trkpt lat="48.72329" lon="7.33293">
        <ele>320.631104</ele>
        <time>2010-06-19T12:39:11Z</time>
      </trkpt>
      <trkpt lat="48.72317" lon="7.33283">
        <ele>321.295166</ele>
        <time>2010-06-19T12:39:16Z</time>
      </trkpt>
      <trkpt lat="48.72305" lon="7.33275">
        <ele>322.084229</ele>
        <time>2010-06-19T12:39:22Z</time>
      </trkpt>
      <trkpt lat="48.7229" lon="7.3327">
        <ele>321.904541</ele>
        <time>2010-06-19T12:39:28Z</time>
      </trkpt>
      <trkpt lat="48.72275" lon="7.33267">
        <ele>324.974854</ele>
        <time>2010-06-19T12:39:36Z</time>
      </trkpt>
      <trkpt lat="48.7226" lon="7.33264">
        <ele>326.029541</ele>
        <time>2010-06-19T12:39:42Z</time>
      </trkpt>
      <trkpt lat="48.72246" lon="7.3326">
        <ele>327.388916</ele>
        <time>2010-06-19T12:39:49Z</time>
      </trkpt>
      <trkpt lat="48.72232" lon="7.33255">
        <ele>329.631104</ele>
        <time>2010-06-19T12:39:55Z</time>
      </trkpt>
      <trkpt lat="48.72218" lon="7.33251">
        <ele>334.732666</ele>
        <time>2010-06-19T12:40:01Z</time>
      </trkpt>
      <trkpt lat="48.72208" lon="7.33238">
        <ele>338.756104</ele>
        <time>2010-06-19T12:40:07Z</time>
      </trkpt>
      <trkpt lat="48.72195" lon="7.33224">
        <ele>341.623291</ele>
        <time>2010-06-19T12:40:13Z</time>
      </trkpt>
      <trkpt lat="48.72184" lon="7.33206">
        <ele>345.576416</ele>
        <time>2010-06-19T12:40:19Z</time>
      </trkpt>
      <trkpt lat="48.72175" lon="7.33188">
        <ele>348.552979</ele>
        <time>2010-06-19T12:40:24Z</time>
      </trkpt>
      <trkpt lat="48.72166" lon="7.33172">
        <ele>351.482666</ele>
        <time>2010-06-19T12:40:30Z</time>
      </trkpt>
      <trkpt lat="48.72154" lon="7.33158">
        <ele>351.263916</ele>
        <time>2010-06-19T12:43:36Z</time>
      </trkpt>
      <trkpt lat="48.72148" lon="7.33136">
        <ele>349.584229</ele>
        <time>2010-06-19T12:43:43Z</time>
      </trkpt>
      <trkpt lat="48.72144" lon="7.33113">
        <ele>348.920166</ele>
        <time>2010-06-19T12:43:47Z</time>
      </trkpt>
      <trkpt lat="48.72142" lon="7.33089">
        <ele>350.013916</ele>
        <time>2010-06-19T12:43:52Z</time>
      </trkpt>
      <trkpt lat="48.72143" lon="7.33066">
        <ele>351.943604</ele>
        <time>2010-06-19T12:44:00Z</time>
      </trkpt>
      <trkpt lat="48.72141" lon="7.33044">
        <ele>349.904541</ele>
        <time>2010-06-19T12:44:08Z</time>
      </trkpt>
      <trkpt lat="48.7214" lon="7.33021">
        <ele>348.310791</ele>
        <time>2010-06-19T12:44:15Z</time>
      </trkpt>
      <trkpt lat="48.7214" lon="7.33">
        <ele>348.443604</ele>
        <time>2010-06-19T12:44:21Z</time>
      </trkpt>
      <trkpt lat="48.72141" lon="7.32978">
        <ele>348.162354</ele>
        <time>2010-06-19T12:44:27Z</time>
      </trkpt>
      <trkpt lat="48.72141" lon="7.32956">
        <ele>348.381104</ele>
        <time>2010-06-19T12:44:33Z</time>
      </trkpt>
      <trkpt lat="48.72141" lon="7.32933">
        <ele>348.420166</ele>
        <time>2010-06-19T12:44:39Z</time>
      </trkpt>
      <trkpt lat="48.7214" lon="7.32913">
        <ele>347.646729</ele>
        <time>2010-06-19T12:44:44Z</time>
      </trkpt>
      <trkpt lat="48.7214" lon="7.3289">
        <ele>347.021729</ele>
        <time>2010-06-19T12:44:49Z</time>
      </trkpt>
      <trkpt lat="48.72137" lon="7.32868">
        <ele>345.740479</ele>
        <time>2010-06-19T12:44:54Z</time>
      </trkpt>
      <trkpt lat="48.72133" lon="7.32849">
        <ele>344.521729</ele>
        <time>2010-06-19T12:44:59Z</time>
      </trkpt>
      <trkpt lat="48.72129" lon="7.32828">
        <ele>347.248291</ele>
        <time>2010-06-19T12:45:04Z</time>
      </trkpt>
      <trkpt lat="48.72126" lon="7.32807">
        <ele>347.740479</ele>
        <time>2010-06-19T12:45:10Z</time>
      </trkpt>
      <trkpt lat="48.72118" lon="7.32787">
        <ele>347.748291</ele>
        <time>2010-06-19T12:45:17Z</time>
      </trkpt>
      <trkpt lat="48.7211" lon="7.32768">
        <ele>349.131104</ele>
        <time>2010-06-19T12:45:24Z</time>
      </trkpt>
      <trkpt lat="48.72099" lon="7.32753">
        <ele>351.974854</ele>
        <time>2010-06-19T12:45:35Z</time>
      </trkpt>
      <trkpt lat="48.72091" lon="7.32731">
        <ele>350.935791</ele>
        <time>2010-06-19T12:46:09Z</time>
      </trkpt>
      <trkpt lat="48.72082" lon="7.32708">
        <ele>348.373291</ele>
        <time>2010-06-19T12:46:13Z</time>
      </trkpt>
      <trkpt lat="48.72076" lon="7.32687">
        <ele>348.443604</ele>
        <time>2010-06-19T12:46:19Z</time>
      </trkpt>
      <trkpt lat="48.72068" lon="7.32664">
        <ele>350.013916</ele>
        <time>2010-06-19T12:46:23Z</time>
      </trkpt>
      <trkpt lat="48.72057" lon="7.32647">
        <ele>352.435791</ele>
        <time>2010-06-19T12:46:27Z</time>
      </trkpt>
      <trkpt lat="48.72042" lon="7.32633">
        <ele>354.842041</ele>
        <time>2010-06-19T12:46:31Z</time>
      </trkpt>
      <trkpt lat="48.72029" lon="7.32619">
        <ele>356.701416</ele>
        <time>2010-06-19T12:46:35Z</time>
      </trkpt>
      <trkpt lat="48.72016" lon="7.32603">
        <ele>357.560791</ele>
        <time>2010-06-19T12:46:41Z</time>
      </trkpt>
      <trkpt lat="48.72005" lon="7.32591">
        <ele>355.224854</ele>
        <time>2010-06-19T12:46:47Z</time>
      </trkpt>
      <trkpt lat="48.71992" lon="7.32584">
        <ele>355.513916</ele>
        <time>2010-06-19T12:46:54Z</time>
      </trkpt>
      <trkpt lat="48.71977" lon="7.32575">
        <ele>354.076416</ele>
        <time>2010-06-19T12:46:58Z</time>
      </trkpt>
      <trkpt lat="48.71962" lon="7.32567">
        <ele>354.607666</ele>
        <time>2010-06-19T12:47:02Z</time>
      </trkpt>
      <trkpt lat="48.71949" lon="7.32562">
        <ele>351.482666</ele>
        <time>2010-06-19T12:47:05Z</time>
      </trkpt>
      <trkpt lat="48.71935" lon="7.32563">
        <ele>346.318604</ele>
        <time>2010-06-19T12:47:08Z</time>
      </trkpt>
      <trkpt lat="48.71918" lon="7.32562">
        <ele>344.857666</ele>
        <time>2010-06-19T12:47:12Z</time>
      </trkpt>
      <trkpt lat="48.71901" lon="7.32565">
        <ele>343.498291</ele>
        <time>2010-06-19T12:47:16Z</time>
      </trkpt>
      <trkpt lat="48.71883" lon="7.32573">
        <ele>335.763916</ele>
        <time>2010-06-19T12:47:21Z</time>
      </trkpt>
      <trkpt lat="48.7187" lon="7.32582">
        <ele>330.732666</ele>
        <time>2010-06-19T12:47:24Z</time>
      </trkpt>
      <trkpt lat="48.71856" lon="7.32591">
        <ele>322.131104</ele>
        <time>2010-06-19T12:47:26Z</time>
      </trkpt>
      <trkpt lat="48.71844" lon="7.32602">
        <ele>319.506104</ele>
        <time>2010-06-19T12:47:29Z</time>
      </trkpt>
      <trkpt lat="48.7183" lon="7.32614">
        <ele>317.802979</ele>
        <time>2010-06-19T12:47:33Z</time>
      </trkpt>
      <trkpt lat="48.71817" lon="7.32613">
        <ele>317.842041</ele>
        <time>2010-06-19T12:47:37Z</time>
      </trkpt>
      <trkpt lat="48.71805" lon="7.326">
        <ele>316.810791</ele>
        <time>2010-06-19T12:47:40Z</time>
      </trkpt>
      <trkpt lat="48.71795" lon="7.32586">
        <ele>315.467041</ele>
        <time>2010-06-19T12:47:42Z</time>
      </trkpt>
      <trkpt lat="48.71784" lon="7.3257">
        <ele>314.521729</ele>
        <time>2010-06-19T12:47:45Z</time>
      </trkpt>
      <trkpt lat="48.71773" lon="7.32553">
        <ele>313.545166</ele>
        <time>2010-06-19T12:47:49Z</time>
      </trkpt>
      <trkpt lat="48.7176" lon="7.32537">
        <ele>313.920166</ele>
        <time>2010-06-19T12:47:53Z</time>
      </trkpt>
      <trkpt lat="48.71748" lon="7.32528">
        <ele>314.529541</ele>
        <time>2010-06-19T12:47:57Z</time>
      </trkpt>
      <trkpt lat="48.71731" lon="7.32521">
        <ele>314.709229</ele>
        <time>2010-06-19T12:48:04Z</time>
      </trkpt>
      <trkpt lat="48.71714" lon="7.32516">
        <ele>313.662354</ele>
        <time>2010-06-19T12:48:08Z</time>
      </trkpt>
      <trkpt lat="48.71694" lon="7.32517">
        <ele>311.935791</ele>
        <time>2010-06-19T12:48:14Z</time>
      </trkpt>
      <trkpt lat="48.71676" lon="7.32513">
        <ele>309.568604</ele>
        <time>2010-06-19T12:48:17Z</time>
      </trkpt>
      <trkpt lat="48.71657" lon="7.32506">
        <ele>308.342041</ele>
        <time>2010-06-19T12:48:20Z</time>
      </trkpt>
      <trkpt lat="48.71644" lon="7.32498">
        <ele>305.967041</ele>
        <time>2010-06-19T12:48:23Z</time>
      </trkpt>
      <trkpt lat="48.71626" lon="7.32498">
        <ele>300.599854</ele>
        <time>2010-06-19T12:48:28Z</time>
      </trkpt>
      <trkpt lat="48.71611" lon="7.32494">
        <ele>293.912354</ele>
        <time>2010-06-19T12:48:31Z</time>
      </trkpt>
      <trkpt lat="48.71597" lon="7.32492">
        <ele>289.638916</ele>
        <time>2010-06-19T12:48:34Z</time>
      </trkpt>
      <trkpt lat="48.71584" lon="7.32505">
        <ele>286.646729</ele>
        <time>2010-06-19T12:50:19Z</time>
      </trkpt>
      <trkpt lat="48.71567" lon="7.32511">
        <ele>286.076416</ele>
        <time>2010-06-19T12:50:24Z</time>
      </trkpt>
      <trkpt lat="48.71552" lon="7.32516">
        <ele>285.787354</ele>
        <time>2010-06-19T12:50:28Z</time>
      </trkpt>
      <trkpt lat="48.71536" lon="7.32503">
        <ele>285.467041</ele>
        <time>2010-06-19T12:50:31Z</time>
      </trkpt>
      <trkpt lat="48.71525" lon="7.32487">
        <ele>275.552979</ele>
        <time>2010-06-19T12:50:34Z</time>
      </trkpt>
      <trkpt lat="48.71536" lon="7.32477">
        <ele>270.381104</ele>
        <time>2010-06-19T12:50:37Z</time>
      </trkpt>
      <trkpt lat="48.71554" lon="7.32471">
        <ele>268.060791</ele>
        <time>2010-06-19T12:50:40Z</time>
      </trkpt>
      <trkpt lat="48.71568" lon="7.32466">
        <ele>266.756104</ele>
        <time>2010-06-19T12:50:42Z</time>
      </trkpt>
      <trkpt lat="48.71585" lon="7.32461">
        <ele>265.959229</ele>
        <time>2010-06-19T12:50:44Z</time>
      </trkpt>
      <trkpt lat="48.71601" lon="7.32455">
        <ele>265.224854</ele>
        <time>2010-06-19T12:50:46Z</time>
      </trkpt>
      <trkpt lat="48.71617" lon="7.32451">
        <ele>264.537354</ele>
        <time>2010-06-19T12:50:48Z</time>
      </trkpt>
      <trkpt lat="48.71631" lon="7.32446">
        <ele>263.560791</ele>
        <time>2010-06-19T12:50:50Z</time>
      </trkpt>
      <trkpt lat="48.71646" lon="7.3244">
        <ele>262.920166</ele>
        <time>2010-06-19T12:50:52Z</time>
      </trkpt>
      <trkpt lat="48.7166" lon="7.32437">
        <ele>262.849854</ele>
        <time>2010-06-19T12:50:54Z</time>
      </trkpt>
      <trkpt lat="48.71675" lon="7.32434">
        <ele>263.076416</ele>
        <time>2010-06-19T12:50:56Z</time>
      </trkpt>
      <trkpt lat="48.71688" lon="7.32433">
        <ele>263.826416</ele>
        <time>2010-06-19T12:50:59Z</time>
      </trkpt>
      <trkpt lat="48.71703" lon="7.32428">
        <ele>263.013916</ele>
        <time>2010-06-19T12:51:02Z</time>
      </trkpt>
      <trkpt lat="48.71719" lon="7.3242">
        <ele>260.279541</ele>
        <time>2010-06-19T12:51:05Z</time>
      </trkpt>
      <trkpt lat="48.71735" lon="7.32411">
        <ele>259.646729</ele>
        <time>2010-06-19T12:51:08Z</time>
      </trkpt>
      <trkpt lat="48.71755" lon="7.32402">
        <ele>259.427979</ele>
        <time>2010-06-19T12:51:11Z</time>
      </trkpt>
      <trkpt lat="48.7177" lon="7.32391">
        <ele>258.623291</ele>
        <time>2010-06-19T12:51:13Z</time>
      </trkpt>
      <trkpt lat="48.71784" lon="7.3238">
        <ele>257.521729</ele>
        <time>2010-06-19T12:51:15Z</time>
      </trkpt>
      <trkpt lat="48.71795" lon="7.32365">
        <ele>254.987427</ele>
        <time>2010-06-19T12:51:18Z</time>
      </trkpt>
      <trkpt lat="48.718" lon="7.32345">
        <ele>249.241333</ele>
        <time>2010-06-19T12:51:23Z</time>
      </trkpt>
      <trkpt lat="48.71809" lon="7.32323">
        <ele>248.182739</ele>
        <time>2010-06-19T12:51:27Z</time>
      </trkpt>
      <trkpt lat="48.71816" lon="7.32303">
        <ele>246.585083</ele>
        <time>2010-06-19T12:51:30Z</time>
      </trkpt>
      <trkpt lat="48.71823" lon="7.32286">
        <ele>242.327271</ele>
        <time>2010-06-19T12:51:33Z</time>
      </trkpt>
      <trkpt lat="48.71833" lon="7.32271">
        <ele>242.366333</ele>
        <time>2010-06-19T12:51:45Z</time>
      </trkpt>
      <trkpt lat="48.71841" lon="7.32253">
        <ele>241.924927</ele>
        <time>2010-06-19T12:51:51Z</time>
      </trkpt>
      <trkpt lat="48.71852" lon="7.32238">
        <ele>243.124146</ele>
        <time>2010-06-19T12:51:57Z</time>
      </trkpt>
      <trkpt lat="48.71863" lon="7.32221">
        <ele>243.424927</ele>
        <time>2010-06-19T12:52:02Z</time>
      </trkpt>
      <trkpt lat="48.71874" lon="7.32206">
        <ele>244.671021</ele>
        <time>2010-06-19T12:52:08Z</time>
      </trkpt>
      <trkpt lat="48.71884" lon="7.32193">
        <ele>245.135864</ele>
        <time>2010-06-19T12:52:14Z</time>
      </trkpt>
      <trkpt lat="48.71898" lon="7.32181">
        <ele>245.905396</ele>
        <time>2010-06-19T12:52:21Z</time>
      </trkpt>
      <trkpt lat="48.71912" lon="7.32171">
        <ele>246.338989</ele>
        <time>2010-06-19T12:52:27Z</time>
      </trkpt>
      <trkpt lat="48.71923" lon="7.32155">
        <ele>245.362427</ele>
        <time>2010-06-19T12:52:34Z</time>
      </trkpt>
      <trkpt lat="48.71933" lon="7.32141">
        <ele>245.655396</ele>
        <time>2010-06-19T12:52:39Z</time>
      </trkpt>
      <trkpt lat="48.71944" lon="7.32125">
        <ele>245.436646</ele>
        <time>2010-06-19T12:52:44Z</time>
      </trkpt>
      <trkpt lat="48.71952" lon="7.32105">
        <ele>245.803833</ele>
        <time>2010-06-19T12:52:50Z</time>
      </trkpt>
      <trkpt lat="48.71962" lon="7.32088">
        <ele>246.014771</ele>
        <time>2010-06-19T12:52:57Z</time>
      </trkpt>
      <trkpt lat="48.7197" lon="7.3207">
        <ele>246.292114</ele>
        <time>2010-06-19T12:53:05Z</time>
      </trkpt>
      <trkpt lat="48.7198" lon="7.32054">
        <ele>246.967896</ele>
        <time>2010-06-19T12:53:13Z</time>
      </trkpt>
      <trkpt lat="48.71987" lon="7.3203">
        <ele>245.690552</ele>
        <time>2010-06-19T12:53:51Z</time>
      </trkpt>
      <trkpt lat="48.72" lon="7.32014">
        <ele>245.585083</ele>
        <time>2010-06-19T12:53:55Z</time>
      </trkpt>
      <trkpt lat="48.7201" lon="7.31995">
        <ele>244.409302</ele>
        <time>2010-06-19T12:53:58Z</time>
      </trkpt>
      <trkpt lat="48.72015" lon="7.31974">
        <ele>242.592896</ele>
        <time>2010-06-19T12:54:01Z</time>
      </trkpt>
      <trkpt lat="48.72017" lon="7.31952">
        <ele>241.682739</ele>
        <time>2010-06-19T12:54:04Z</time>
      </trkpt>
      <trkpt lat="48.72023" lon="7.3193">
        <ele>240.753052</ele>
        <time>2010-06-19T12:54:07Z</time>
      </trkpt>
      <trkpt lat="48.72022" lon="7.31903">
        <ele>238.338989</ele>
        <time>2010-06-19T12:54:11Z</time>
      </trkpt>
      <trkpt lat="48.72023" lon="7.31878">
        <ele>236.253052</ele>
        <time>2010-06-19T12:54:15Z</time>
      </trkpt>
      <trkpt lat="48.7202" lon="7.31852">
        <ele>234.838989</ele>
        <time>2010-06-19T12:54:19Z</time>
      </trkpt>
      <trkpt lat="48.72011" lon="7.31836">
        <ele>234.186646</ele>
        <time>2010-06-19T12:54:23Z</time>
      </trkpt>
      <trkpt lat="48.72004" lon="7.31811">
        <ele>233.592896</ele>
        <time>2010-06-19T12:54:27Z</time>
      </trkpt>
      <trkpt lat="48.72007" lon="7.31785">
        <ele>232.901489</ele>
        <time>2010-06-19T12:54:30Z</time>
      </trkpt>
      <trkpt lat="48.72013" lon="7.31766">
        <ele>232.065552</ele>
        <time>2010-06-19T12:54:32Z</time>
      </trkpt>
      <trkpt lat="48.7202" lon="7.31746">
        <ele>230.338989</ele>
        <time>2010-06-19T12:54:34Z</time>
      </trkpt>
      <trkpt lat="48.72022" lon="7.31721">
        <ele>227.378052</ele>
        <time>2010-06-19T12:54:37Z</time>
      </trkpt>
      <trkpt lat="48.72022" lon="7.31697">
        <ele>226.850708</ele>
        <time>2010-06-19T12:54:40Z</time>
      </trkpt>
      <trkpt lat="48.72024" lon="7.31675">
        <ele>225.319458</ele>
        <time>2010-06-19T12:54:43Z</time>
      </trkpt>
      <trkpt lat="48.72021" lon="7.31655">
        <ele>223.003052</ele>
        <time>2010-06-19T12:54:46Z</time>
      </trkpt>
      <trkpt lat="48.72018" lon="7.31633">
        <ele>219.018677</ele>
        <time>2010-06-19T12:54:50Z</time>
      </trkpt>
      <trkpt lat="48.72018" lon="7.31611">
        <ele>217.694458</ele>
        <time>2010-06-19T12:54:53Z</time>
      </trkpt>
      <trkpt lat="48.72011" lon="7.31589">
        <ele>216.971802</ele>
        <time>2010-06-19T12:54:56Z</time>
      </trkpt>
      <trkpt lat="48.72004" lon="7.31563">
        <ele>215.206177</ele>
        <time>2010-06-19T12:54:59Z</time>
      </trkpt>
      <trkpt lat="48.71994" lon="7.3154">
        <ele>215.225708</ele>
        <time>2010-06-19T12:55:02Z</time>
      </trkpt>
      <trkpt lat="48.7199" lon="7.31514">
        <ele>214.405396</ele>
        <time>2010-06-19T12:55:05Z</time>
      </trkpt>
      <trkpt lat="48.71983" lon="7.31492">
        <ele>214.995239</ele>
        <time>2010-06-19T12:55:08Z</time>
      </trkpt>
      <trkpt lat="48.7198" lon="7.3147">
        <ele>213.163208</ele>
        <time>2010-06-19T12:56:19Z</time>
      </trkpt>
      <trkpt lat="48.71973" lon="7.31449">
        <ele>213.335083</ele>
        <time>2010-06-19T12:56:24Z</time>
      </trkpt>
      <trkpt lat="48.71961" lon="7.31433">
        <ele>214.210083</ele>
        <time>2010-06-19T12:56:28Z</time>
      </trkpt>
      <trkpt lat="48.71949" lon="7.31418">
        <ele>213.514771</ele>
        <time>2010-06-19T12:56:31Z</time>
      </trkpt>
      <trkpt lat="48.71933" lon="7.31418">
        <ele>213.131958</ele>
        <time>2010-06-19T12:56:34Z</time>
      </trkpt>
      <trkpt lat="48.7192" lon="7.31435">
        <ele>212.706177</ele>
        <time>2010-06-19T12:56:38Z</time>
      </trkpt>
      <trkpt lat="48.71908" lon="7.31459">
        <ele>212.010864</ele>
        <time>2010-06-19T12:56:41Z</time>
      </trkpt>
      <trkpt lat="48.71896" lon="7.31479">
        <ele>211.065552</ele>
        <time>2010-06-19T12:56:44Z</time>
      </trkpt>
      <trkpt lat="48.71885" lon="7.31495">
        <ele>208.542114</ele>
        <time>2010-06-19T12:56:47Z</time>
      </trkpt>
      <trkpt lat="48.71869" lon="7.31502">
        <ele>208.534302</ele>
        <time>2010-06-19T12:56:51Z</time>
      </trkpt>
      <trkpt lat="48.71859" lon="7.31489">
        <ele>208.108521</ele>
        <time>2010-06-19T12:56:57Z</time>
      </trkpt>
      <trkpt lat="48.71847" lon="7.31481">
        <ele>213.881958</ele>
        <time>2010-06-19T12:57:29Z</time>
      </trkpt>
      <trkpt lat="48.71857" lon="7.31496">
        <ele>211.948364</ele>
        <time>2010-06-19T12:57:49Z</time>
      </trkpt>
      <trkpt lat="48.71843" lon="7.31497">
        <ele>211.253052</ele>
        <time>2010-06-19T12:57:59Z</time>
      </trkpt>
      <trkpt lat="48.7183" lon="7.31492">
        <ele>216.932739</ele>
        <time>2010-06-19T12:59:57Z</time>
      </trkpt>
      <trkpt lat="48.71816" lon="7.31495">
        <ele>216.167114</ele>
        <time>2010-06-19T13:00:03Z</time>
      </trkpt>
      <trkpt lat="48.71802" lon="7.31502">
        <ele>216.827271</ele>
        <time>2010-06-19T13:00:19Z</time>
      </trkpt>
      <trkpt lat="48.71807" lon="7.31523">
        <ele>215.366333</ele>
        <time>2010-06-19T13:01:09Z</time>
      </trkpt>
      <trkpt lat="48.71793" lon="7.31532">
        <ele>216.491333</ele>
        <time>2010-06-19T13:01:27Z</time>
      </trkpt>
      <trkpt lat="48.71779" lon="7.3153">
        <ele>217.909302</ele>
        <time>2010-06-19T13:01:31Z</time>
      </trkpt>
      <trkpt lat="48.71765" lon="7.31531">
        <ele>219.905396</ele>
        <time>2010-06-19T13:01:36Z</time>
      </trkpt>
      <trkpt lat="48.71749" lon="7.31525">
        <ele>222.671021</ele>
        <time>2010-06-19T13:01:41Z</time>
      </trkpt>
      <trkpt lat="48.71736" lon="7.31521">
        <ele>225.581177</ele>
        <time>2010-06-19T13:01:45Z</time>
      </trkpt>
      <trkpt lat="48.71726" lon="7.31506">
        <ele>228.577271</ele>
        <time>2010-06-19T13:01:49Z</time>
      </trkpt>
      <trkpt lat="48.71714" lon="7.31492">
        <ele>231.311646</ele>
        <time>2010-06-19T13:01:53Z</time>
      </trkpt>
      <trkpt lat="48.71702" lon="7.31476">
        <ele>237.631958</ele>
        <time>2010-06-19T13:01:59Z</time>
      </trkpt>
      <trkpt lat="48.71691" lon="7.31462">
        <ele>241.143677</ele>
        <time>2010-06-19T13:02:03Z</time>
      </trkpt>
      <trkpt lat="48.71681" lon="7.31444">
        <ele>245.217896</ele>
        <time>2010-06-19T13:02:07Z</time>
      </trkpt>
      <trkpt lat="48.71673" lon="7.31427">
        <ele>249.846802</ele>
        <time>2010-06-19T13:02:13Z</time>
      </trkpt>
      <trkpt lat="48.71662" lon="7.31415">
        <ele>255.280396</ele>
        <time>2010-06-19T13:02:20Z</time>
      </trkpt>
      <trkpt lat="48.71656" lon="7.31397">
        <ele>257.177979</ele>
        <time>2010-06-19T13:02:25Z</time>
      </trkpt>
      <trkpt lat="48.71647" lon="7.31381">
        <ele>263.506104</ele>
        <time>2010-06-19T13:02:33Z</time>
      </trkpt>
      <trkpt lat="48.71638" lon="7.31366">
        <ele>268.396729</ele>
        <time>2010-06-19T13:02:40Z</time>
      </trkpt>
      <trkpt lat="48.71627" lon="7.3135">
        <ele>273.084229</ele>
        <time>2010-06-19T13:02:48Z</time>
      </trkpt>
      <trkpt lat="48.71617" lon="7.31333">
        <ele>272.951416</ele>
        <time>2010-06-19T13:02:53Z</time>
      </trkpt>
      <trkpt lat="48.7161" lon="7.31317">
        <ele>273.881104</ele>
        <time>2010-06-19T13:03:00Z</time>
      </trkpt>
      <trkpt lat="48.716" lon="7.313">
        <ele>274.388916</ele>
        <time>2010-06-19T13:03:12Z</time>
      </trkpt>
      <trkpt lat="48.71588" lon="7.31283">
        <ele>274.912354</ele>
        <time>2010-06-19T13:03:17Z</time>
      </trkpt>
      <trkpt lat="48.71575" lon="7.31273">
        <ele>276.162354</ele>
        <time>2010-06-19T13:03:22Z</time>
      </trkpt>
      <trkpt lat="48.71563" lon="7.31265">
        <ele>279.857666</ele>
        <time>2010-06-19T13:03:27Z</time>
      </trkpt>
      <trkpt lat="48.7155" lon="7.31251">
        <ele>283.193604</ele>
        <time>2010-06-19T13:03:33Z</time>
      </trkpt>
      <trkpt lat="48.71541" lon="7.31235">
        <ele>286.623291</ele>
        <time>2010-06-19T13:03:38Z</time>
      </trkpt>
      <trkpt lat="48.71529" lon="7.31222">
        <ele>287.193604</ele>
        <time>2010-06-19T13:03:41Z</time>
      </trkpt>
      <trkpt lat="48.71514" lon="7.31213">
        <ele>288.763916</ele>
        <time>2010-06-19T13:03:47Z</time>
      </trkpt>
      <trkpt lat="48.71497" lon="7.31209">
        <ele>286.052979</ele>
        <time>2010-06-19T13:03:51Z</time>
      </trkpt>
      <trkpt lat="48.71483" lon="7.31205">
        <ele>284.131104</ele>
        <time>2010-06-19T13:03:56Z</time>
      </trkpt>
      <trkpt lat="48.71469" lon="7.31199">
        <ele>282.193604</ele>
        <time>2010-06-19T13:04:01Z</time>
      </trkpt>
      <trkpt lat="48.71455" lon="7.31197">
        <ele>279.646729</ele>
        <time>2010-06-19T13:04:14Z</time>
      </trkpt>
      <trkpt lat="48.7144" lon="7.31187">
        <ele>279.154541</ele>
        <time>2010-06-19T13:04:20Z</time>
      </trkpt>
      <trkpt lat="48.71429" lon="7.31175">
        <ele>275.709229</ele>
        <time>2010-06-19T13:04:35Z</time>
      </trkpt>
      <trkpt lat="48.71417" lon="7.31173">
        <ele>267.881104</ele>
        <time>2010-06-19T13:04:47Z</time>
      </trkpt>
      <trkpt lat="48.71406" lon="7.31161">
        <ele>267.271729</ele>
        <time>2010-06-19T13:05:06Z</time>
      </trkpt>
      <trkpt lat="48.71392" lon="7.31152">
        <ele>265.943604</ele>
        <time>2010-06-19T13:05:21Z</time>
      </trkpt>
      <trkpt lat="48.7138" lon="7.31133">
        <ele>265.529541</ele>
        <time>2010-06-19T13:05:30Z</time>
      </trkpt>
      <trkpt lat="48.71367" lon="7.31123">
        <ele>267.459229</ele>
        <time>2010-06-19T13:05:34Z</time>
      </trkpt>
      <trkpt lat="48.7136" lon="7.31106">
        <ele>268.810791</ele>
        <time>2010-06-19T13:05:39Z</time>
      </trkpt>
      <trkpt lat="48.71352" lon="7.31087">
        <ele>268.701416</ele>
        <time>2010-06-19T13:05:44Z</time>
      </trkpt>
      <trkpt lat="48.71344" lon="7.3107">
        <ele>269.482666</ele>
        <time>2010-06-19T13:05:48Z</time>
      </trkpt>
      <trkpt lat="48.71333" lon="7.31055">
        <ele>272.779541</ele>
        <time>2010-06-19T13:05:54Z</time>
      </trkpt>
      <trkpt lat="48.71321" lon="7.3104">
        <ele>276.912354</ele>
        <time>2010-06-19T13:06:00Z</time>
      </trkpt>
      <trkpt lat="48.7131" lon="7.31025">
        <ele>280.334229</ele>
        <time>2010-06-19T13:06:06Z</time>
      </trkpt>
      <trkpt lat="48.71302" lon="7.31008">
        <ele>281.217041</ele>
        <time>2010-06-19T13:06:13Z</time>
      </trkpt>
      <trkpt lat="48.71289" lon="7.30998">
        <ele>281.162354</ele>
        <time>2010-06-19T13:06:19Z</time>
      </trkpt>
      <trkpt lat="48.7128" lon="7.30984">
        <ele>284.693604</ele>
        <time>2010-06-19T13:06:25Z</time>
      </trkpt>
      <trkpt lat="48.71263" lon="7.30969">
        <ele>287.615479</ele>
        <time>2010-06-19T13:06:29Z</time>
      </trkpt>
      <trkpt lat="48.71254" lon="7.30953">
        <ele>291.068604</ele>
        <time>2010-06-19T13:06:36Z</time>
      </trkpt>
      <trkpt lat="48.71243" lon="7.30939">
        <ele>293.076416</ele>
        <time>2010-06-19T13:06:55Z</time>
      </trkpt>
      <trkpt lat="48.7123" lon="7.30932">
        <ele>290.357666</ele>
        <time>2010-06-19T13:07:03Z</time>
      </trkpt>
      <trkpt lat="48.71214" lon="7.30929">
        <ele>288.006104</ele>
        <time>2010-06-19T13:07:10Z</time>
      </trkpt>
      <trkpt lat="48.71199" lon="7.30927">
        <ele>285.865479</ele>
        <time>2010-06-19T13:07:15Z</time>
      </trkpt>
      <trkpt lat="48.71184" lon="7.30924">
        <ele>283.881104</ele>
        <time>2010-06-19T13:07:19Z</time>
      </trkpt>
      <trkpt lat="48.71174" lon="7.30925">
        <ele>273.771729</ele>
        <time>2010-06-19T13:07:29Z</time>
      </trkpt>
      <trkpt lat="48.71161" lon="7.30924">
        <ele>269.396729</ele>
        <time>2010-06-19T13:07:35Z</time>
      </trkpt>
      <trkpt lat="48.71146" lon="7.30924">
        <ele>266.701416</ele>
        <time>2010-06-19T13:07:39Z</time>
      </trkpt>
      <trkpt lat="48.71132" lon="7.3092">
        <ele>260.498291</ele>
        <time>2010-06-19T13:07:49Z</time>
      </trkpt>
      <trkpt lat="48.71118" lon="7.30919">
        <ele>256.802979</ele>
        <time>2010-06-19T13:08:02Z</time>
      </trkpt>
      <trkpt lat="48.71108" lon="7.30904">
        <ele>259.459229</ele>
        <time>2010-06-19T13:10:32Z</time>
      </trkpt>
      <trkpt lat="48.71097" lon="7.30892">
        <ele>260.326416</ele>
        <time>2010-06-19T13:12:48Z</time>
      </trkpt>
      <trkpt lat="48.71083" lon="7.30889">
        <ele>259.318604</ele>
        <time>2010-06-19T13:13:15Z</time>
      </trkpt>
      <trkpt lat="48.71066" lon="7.3089">
        <ele>258.107666</ele>
        <time>2010-06-19T13:13:21Z</time>
      </trkpt>
      <trkpt lat="48.71052" lon="7.3088">
        <ele>257.271729</ele>
        <time>2010-06-19T13:13:23Z</time>
      </trkpt>
      <trkpt lat="48.71036" lon="7.30876">
        <ele>256.334229</ele>
        <time>2010-06-19T13:13:26Z</time>
      </trkpt>
      <trkpt lat="48.71022" lon="7.30878">
        <ele>255.686646</ele>
        <time>2010-06-19T13:13:29Z</time>
      </trkpt>
      <trkpt lat="48.71009" lon="7.30879">
        <ele>254.878052</ele>
        <time>2010-06-19T13:13:32Z</time>
      </trkpt>
      <trkpt lat="48.70992" lon="7.30882">
        <ele>253.878052</ele>
        <time>2010-06-19T13:13:35Z</time>
      </trkpt>
      <trkpt lat="48.70977" lon="7.3088">
        <ele>253.085083</ele>
        <time>2010-06-19T13:13:38Z</time>
      </trkpt>
      <trkpt lat="48.70963" lon="7.30881">
        <ele>251.448364</ele>
        <time>2010-06-19T13:13:41Z</time>
      </trkpt>
      <trkpt lat="48.70948" lon="7.30882">
        <ele>249.131958</ele>
        <time>2010-06-19T13:13:45Z</time>
      </trkpt>
      <trkpt lat="48.70934" lon="7.30887">
        <ele>247.569458</ele>
        <time>2010-06-19T13:13:51Z</time>
      </trkpt>
      <trkpt lat="48.70919" lon="7.30893">
        <ele>245.874146</ele>
        <time>2010-06-19T13:13:57Z</time>
      </trkpt>
      <trkpt lat="48.70905" lon="7.30896">
        <ele>243.530396</ele>
        <time>2010-06-19T13:14:02Z</time>
      </trkpt>
      <trkpt lat="48.7089" lon="7.30899">
        <ele>242.620239</ele>
        <time>2010-06-19T13:14:07Z</time>
      </trkpt>
      <trkpt lat="48.70877" lon="7.30903">
        <ele>242.128052</ele>
        <time>2010-06-19T13:14:12Z</time>
      </trkpt>
      <trkpt lat="48.70862" lon="7.30909">
        <ele>239.014771</ele>
        <time>2010-06-19T13:14:17Z</time>
      </trkpt>
      <trkpt lat="48.70849" lon="7.30913">
        <ele>237.327271</ele>
        <time>2010-06-19T13:14:22Z</time>
      </trkpt>
      <trkpt lat="48.70833" lon="7.30916">
        <ele>234.893677</ele>
        <time>2010-06-19T13:14:29Z</time>
      </trkpt>
      <trkpt lat="48.70818" lon="7.30917">
        <ele>234.174927</ele>
        <time>2010-06-19T13:14:36Z</time>
      </trkpt>
      <trkpt lat="48.70804" lon="7.30922">
        <ele>233.163208</ele>
        <time>2010-06-19T13:14:42Z</time>
      </trkpt>
      <trkpt lat="48.7079" lon="7.30926">
        <ele>231.706177</ele>
        <time>2010-06-19T13:14:49Z</time>
      </trkpt>
      <trkpt lat="48.70773" lon="7.30926">
        <ele>227.608521</ele>
        <time>2010-06-19T13:15:32Z</time>
      </trkpt>
      <trkpt lat="48.70761" lon="7.30927">
        <ele>234.038208</ele>
        <time>2010-06-19T13:15:55Z</time>
      </trkpt>
      <trkpt lat="48.70749" lon="7.3094">
        <ele>239.546021</ele>
        <time>2010-06-19T13:16:05Z</time>
      </trkpt>
      <trkpt lat="48.70737" lon="7.30951">
        <ele>244.085083</ele>
        <time>2010-06-19T13:16:13Z</time>
      </trkpt>
      <trkpt lat="48.70723" lon="7.30961">
        <ele>247.034302</ele>
        <time>2010-06-19T13:16:18Z</time>
      </trkpt>
      <trkpt lat="48.70711" lon="7.30972">
        <ele>249.303833</ele>
        <time>2010-06-19T13:16:23Z</time>
      </trkpt>
      <trkpt lat="48.70699" lon="7.30987">
        <ele>251.053833</ele>
        <time>2010-06-19T13:16:29Z</time>
      </trkpt>
      <trkpt lat="48.70687" lon="7.31003">
        <ele>252.600708</ele>
        <time>2010-06-19T13:16:36Z</time>
      </trkpt>
      <trkpt lat="48.70684" lon="7.31021">
        <ele>241.620239</ele>
        <time>2010-06-19T13:16:41Z</time>
      </trkpt>
      <trkpt lat="48.70675" lon="7.31039">
        <ele>239.374146</ele>
        <time>2010-06-19T13:16:49Z</time>
      </trkpt>
      <trkpt lat="48.70665" lon="7.31055">
        <ele>242.436646</ele>
        <time>2010-06-19T13:16:59Z</time>
      </trkpt>
      <trkpt lat="48.70652" lon="7.31063">
        <ele>245.014771</ele>
        <time>2010-06-19T13:17:06Z</time>
      </trkpt>
      <trkpt lat="48.70637" lon="7.31066">
        <ele>247.092896</ele>
        <time>2010-06-19T13:17:12Z</time>
      </trkpt>
      <trkpt lat="48.70622" lon="7.31064">
        <ele>248.350708</ele>
        <time>2010-06-19T13:17:17Z</time>
      </trkpt>
      <trkpt lat="48.70607" lon="7.31066">
        <ele>250.206177</ele>
        <time>2010-06-19T13:17:22Z</time>
      </trkpt>
      <trkpt lat="48.70594" lon="7.31073">
        <ele>252.049927</ele>
        <time>2010-06-19T13:17:26Z</time>
      </trkpt>
      <trkpt lat="48.70578" lon="7.31088">
        <ele>253.901489</ele>
        <time>2010-06-19T13:17:30Z</time>
      </trkpt>
      <trkpt lat="48.70564" lon="7.31093">
        <ele>255.991333</ele>
        <time>2010-06-19T13:17:34Z</time>
      </trkpt>
      <trkpt lat="48.70548" lon="7.31097">
        <ele>258.881104</ele>
        <time>2010-06-19T13:17:39Z</time>
      </trkpt>
      <trkpt lat="48.70534" lon="7.31103">
        <ele>260.748291</ele>
        <time>2010-06-19T13:17:43Z</time>
      </trkpt>
      <trkpt lat="48.70522" lon="7.31113">
        <ele>262.295166</ele>
        <time>2010-06-19T13:17:47Z</time>
      </trkpt>
      <trkpt lat="48.70509" lon="7.31121">
        <ele>264.427979</ele>
        <time>2010-06-19T13:17:51Z</time>
      </trkpt>
      <trkpt lat="48.70496" lon="7.3113">
        <ele>265.943604</ele>
        <time>2010-06-19T13:17:56Z</time>
      </trkpt>
      <trkpt lat="48.70483" lon="7.31137">
        <ele>267.287354</ele>
        <time>2010-06-19T13:18:02Z</time>
      </trkpt>
      <trkpt lat="48.70469" lon="7.31142">
        <ele>267.584229</ele>
        <time>2010-06-19T13:18:07Z</time>
      </trkpt>
      <trkpt lat="48.70453" lon="7.31142">
        <ele>269.107666</ele>
        <time>2010-06-19T13:18:13Z</time>
      </trkpt>
      <trkpt lat="48.7044" lon="7.31137">
        <ele>270.693604</ele>
        <time>2010-06-19T13:18:20Z</time>
      </trkpt>
      <trkpt lat="48.70427" lon="7.31127">
        <ele>268.326416</ele>
        <time>2010-06-19T13:18:32Z</time>
      </trkpt>
      <trkpt lat="48.70417" lon="7.31113">
        <ele>268.177979</ele>
        <time>2010-06-19T13:18:39Z</time>
      </trkpt>
      <trkpt lat="48.70404" lon="7.31101">
        <ele>268.021729</ele>
        <time>2010-06-19T13:18:46Z</time>
      </trkpt>
      <trkpt lat="48.70391" lon="7.31092">
        <ele>267.162354</ele>
        <time>2010-06-19T13:18:53Z</time>
      </trkpt>
      <trkpt lat="48.7038" lon="7.31078">
        <ele>267.818604</ele>
        <time>2010-06-19T13:19:00Z</time>
      </trkpt>
      <trkpt lat="48.70368" lon="7.31067">
        <ele>268.326416</ele>
        <time>2010-06-19T13:19:07Z</time>
      </trkpt>
      <trkpt lat="48.70354" lon="7.31061">
        <ele>270.381104</ele>
        <time>2010-06-19T13:19:14Z</time>
      </trkpt>
      <trkpt lat="48.7034" lon="7.31059">
        <ele>272.256104</ele>
        <time>2010-06-19T13:19:21Z</time>
      </trkpt>
      <trkpt lat="48.70326" lon="7.31059">
        <ele>274.521729</ele>
        <time>2010-06-19T13:19:29Z</time>
      </trkpt>
      <trkpt lat="48.70312" lon="7.31063">
        <ele>276.724854</ele>
        <time>2010-06-19T13:19:36Z</time>
      </trkpt>
      <trkpt lat="48.70298" lon="7.31065">
        <ele>278.084229</ele>
        <time>2010-06-19T13:19:43Z</time>
      </trkpt>
      <trkpt lat="48.70284" lon="7.31064">
        <ele>280.170166</ele>
        <time>2010-06-19T13:19:51Z</time>
      </trkpt>
      <trkpt lat="48.7027" lon="7.3106">
        <ele>282.670166</ele>
        <time>2010-06-19T13:19:59Z</time>
      </trkpt>
      <trkpt lat="48.70255" lon="7.31061">
        <ele>285.662354</ele>
        <time>2010-06-19T13:20:06Z</time>
      </trkpt>
      <trkpt lat="48.70242" lon="7.31062">
        <ele>290.045166</ele>
        <time>2010-06-19T13:20:13Z</time>
      </trkpt>
      <trkpt lat="48.70226" lon="7.31054">
        <ele>293.256104</ele>
        <time>2010-06-19T13:20:19Z</time>
      </trkpt>
      <trkpt lat="48.7021" lon="7.31046">
        <ele>297.810791</ele>
        <time>2010-06-19T13:20:26Z</time>
      </trkpt>
      <trkpt lat="48.70196" lon="7.31039">
        <ele>299.334229</ele>
        <time>2010-06-19T13:20:32Z</time>
      </trkpt>
      <trkpt lat="48.70182" lon="7.31033">
        <ele>301.248291</ele>
        <time>2010-06-19T13:20:39Z</time>
      </trkpt>
      <trkpt lat="48.70169" lon="7.31028">
        <ele>303.209229</ele>
        <time>2010-06-19T13:20:45Z</time>
      </trkpt>
      <trkpt lat="48.70155" lon="7.31023">
        <ele>305.209229</ele>
        <time>2010-06-19T13:20:53Z</time>
      </trkpt>
      <trkpt lat="48.70142" lon="7.31019">
        <ele>307.271729</ele>
        <time>2010-06-19T13:21:01Z</time>
      </trkpt>
      <trkpt lat="48.70128" lon="7.31022">
        <ele>308.724854</ele>
        <time>2010-06-19T13:21:09Z</time>
      </trkpt>
      <trkpt lat="48.70119" lon="7.31007">
        <ele>310.482666</ele>
        <time>2010-06-19T13:21:17Z</time>
      </trkpt>
      <trkpt lat="48.70105" lon="7.30998">
        <ele>310.396729</ele>
        <time>2010-06-19T13:21:26Z</time>
      </trkpt>
      <trkpt lat="48.70091" lon="7.30999">
        <ele>310.607666</ele>
        <time>2010-06-19T13:21:32Z</time>
      </trkpt>
      <trkpt lat="48.70076" lon="7.31003">
        <ele>312.052979</ele>
        <time>2010-06-19T13:21:40Z</time>
      </trkpt>
      <trkpt lat="48.70063" lon="7.31005">
        <ele>311.787354</ele>
        <time>2010-06-19T13:21:47Z</time>
      </trkpt>
      <trkpt lat="48.70048" lon="7.31007">
        <ele>310.888916</ele>
        <time>2010-06-19T13:21:54Z</time>
      </trkpt>
      <trkpt lat="48.70034" lon="7.31003">
        <ele>309.318604</ele>
        <time>2010-06-19T13:22:02Z</time>
      </trkpt>
      <trkpt lat="48.7002" lon="7.31003">
        <ele>308.107666</ele>
        <time>2010-06-19T13:22:09Z</time>
      </trkpt>
      <trkpt lat="48.70006" lon="7.31003">
        <ele>307.451416</ele>
        <time>2010-06-19T13:22:15Z</time>
      </trkpt>
      <trkpt lat="48.69992" lon="7.31004">
        <ele>306.990479</ele>
        <time>2010-06-19T13:22:21Z</time>
      </trkpt>
      <trkpt lat="48.69977" lon="7.31003">
        <ele>308.162354</ele>
        <time>2010-06-19T13:22:29Z</time>
      </trkpt>
      <trkpt lat="48.69963" lon="7.31006">
        <ele>307.896729</ele>
        <time>2010-06-19T13:22:35Z</time>
      </trkpt>
      <trkpt lat="48.69948" lon="7.31007">
        <ele>307.881104</ele>
        <time>2010-06-19T13:22:42Z</time>
      </trkpt>
      <trkpt lat="48.69933" lon="7.31008">
        <ele>308.029541</ele>
        <time>2010-06-19T13:22:49Z</time>
      </trkpt>
      <trkpt lat="48.69919" lon="7.31004">
        <ele>309.232666</ele>
        <time>2010-06-19T13:22:57Z</time>
      </trkpt>
      <trkpt lat="48.69906" lon="7.30995">
        <ele>310.099854</ele>
        <time>2010-06-19T13:23:05Z</time>
      </trkpt>
      <trkpt lat="48.69891" lon="7.30994">
        <ele>309.592041</ele>
        <time>2010-06-19T13:23:12Z</time>
      </trkpt>
      <trkpt lat="48.69876" lon="7.30992">
        <ele>309.623291</ele>
        <time>2010-06-19T13:23:18Z</time>
      </trkpt>
      <trkpt lat="48.69862" lon="7.30993">
        <ele>309.615479</ele>
        <time>2010-06-19T13:23:24Z</time>
      </trkpt>
      <trkpt lat="48.69849" lon="7.30996">
        <ele>310.256104</ele>
        <time>2010-06-19T13:23:31Z</time>
      </trkpt>
      <trkpt lat="48.69835" lon="7.30995">
        <ele>310.709229</ele>
        <time>2010-06-19T13:23:38Z</time>
      </trkpt>
      <trkpt lat="48.69821" lon="7.30994">
        <ele>311.326416</ele>
        <time>2010-06-19T13:23:45Z</time>
      </trkpt>
      <trkpt lat="48.69807" lon="7.30995">
        <ele>311.092041</ele>
        <time>2010-06-19T13:23:51Z</time>
      </trkpt>
      <trkpt lat="48.69794" lon="7.30998">
        <ele>306.396729</ele>
        <time>2010-06-19T13:24:03Z</time>
      </trkpt>
      <trkpt lat="48.69779" lon="7.30998">
        <ele>307.756104</ele>
        <time>2010-06-19T13:24:58Z</time>
      </trkpt>
      <trkpt lat="48.69766" lon="7.30995">
        <ele>307.287354</ele>
        <time>2010-06-19T13:25:05Z</time>
      </trkpt>
      <trkpt lat="48.69751" lon="7.30996">
        <ele>306.217041</ele>
        <time>2010-06-19T13:25:13Z</time>
      </trkpt>
      <trkpt lat="48.69736" lon="7.30995">
        <ele>307.357666</ele>
        <time>2010-06-19T13:25:21Z</time>
      </trkpt>
      <trkpt lat="48.69721" lon="7.30995">
        <ele>307.435791</ele>
        <time>2010-06-19T13:25:28Z</time>
      </trkpt>
      <trkpt lat="48.69708" lon="7.30995">
        <ele>307.748291</ele>
        <time>2010-06-19T13:25:35Z</time>
      </trkpt>
      <trkpt lat="48.69694" lon="7.30993">
        <ele>307.076416</ele>
        <time>2010-06-19T13:25:42Z</time>
      </trkpt>
      <trkpt lat="48.69681" lon="7.30982">
        <ele>307.615479</ele>
        <time>2010-06-19T13:25:50Z</time>
      </trkpt>
      <trkpt lat="48.6967" lon="7.30965">
        <ele>308.490479</ele>
        <time>2010-06-19T13:25:58Z</time>
      </trkpt>
      <trkpt lat="48.69658" lon="7.3095">
        <ele>309.302979</ele>
        <time>2010-06-19T13:26:06Z</time>
      </trkpt>
      <trkpt lat="48.69646" lon="7.30938">
        <ele>310.420166</ele>
        <time>2010-06-19T13:26:14Z</time>
      </trkpt>
      <trkpt lat="48.69635" lon="7.30925">
        <ele>311.670166</ele>
        <time>2010-06-19T13:26:22Z</time>
      </trkpt>
      <trkpt lat="48.69631" lon="7.30905">
        <ele>311.990479</ele>
        <time>2010-06-19T13:26:28Z</time>
      </trkpt>
      <trkpt lat="48.69618" lon="7.30895">
        <ele>313.693604</ele>
        <time>2010-06-19T13:26:36Z</time>
      </trkpt>
      <trkpt lat="48.69604" lon="7.30891">
        <ele>312.623291</ele>
        <time>2010-06-19T13:26:43Z</time>
      </trkpt>
      <trkpt lat="48.69589" lon="7.30887">
        <ele>314.677979</ele>
        <time>2010-06-19T13:26:50Z</time>
      </trkpt>
      <trkpt lat="48.69575" lon="7.30878">
        <ele>316.084229</ele>
        <time>2010-06-19T13:26:58Z</time>
      </trkpt>
      <trkpt lat="48.6956" lon="7.30878">
        <ele>316.732666</ele>
        <time>2010-06-19T13:27:05Z</time>
      </trkpt>
      <trkpt lat="48.69547" lon="7.30869">
        <ele>316.177979</ele>
        <time>2010-06-19T13:27:13Z</time>
      </trkpt>
      <trkpt lat="48.69532" lon="7.30863">
        <ele>315.287354</ele>
        <time>2010-06-19T13:27:22Z</time>
      </trkpt>
      <trkpt lat="48.69523" lon="7.30848">
        <ele>316.787354</ele>
        <time>2010-06-19T13:27:32Z</time>
      </trkpt>
      <trkpt lat="48.6951" lon="7.30841">
        <ele>318.818604</ele>
        <time>2010-06-19T13:27:40Z</time>
      </trkpt>
      <trkpt lat="48.69495" lon="7.30836">
        <ele>319.951416</ele>
        <time>2010-06-19T13:27:48Z</time>
      </trkpt>
      <trkpt lat="48.6948" lon="7.30829">
        <ele>320.396729</ele>
        <time>2010-06-19T13:27:55Z</time>
      </trkpt>
      <trkpt lat="48.69466" lon="7.30823">
        <ele>320.920166</ele>
        <time>2010-06-19T13:28:01Z</time>
      </trkpt>
      <trkpt lat="48.69452" lon="7.30814">
        <ele>321.185791</ele>
        <time>2010-06-19T13:28:07Z</time>
      </trkpt>
      <trkpt lat="48.69439" lon="7.30806">
        <ele>324.201416</ele>
        <time>2010-06-19T13:28:13Z</time>
      </trkpt>
      <trkpt lat="48.69426" lon="7.30797">
        <ele>324.404541</ele>
        <time>2010-06-19T13:32:33Z</time>
      </trkpt>
      <trkpt lat="48.69412" lon="7.30788">
        <ele>325.123291</ele>
        <time>2010-06-19T13:32:39Z</time>
      </trkpt>
      <trkpt lat="48.69399" lon="7.30781">
        <ele>326.365479</ele>
        <time>2010-06-19T13:32:44Z</time>
      </trkpt>
      <trkpt lat="48.69384" lon="7.30773">
        <ele>327.552979</ele>
        <time>2010-06-19T13:32:51Z</time>
      </trkpt>
      <trkpt lat="48.69371" lon="7.30768">
        <ele>328.037354</ele>
        <time>2010-06-19T13:32:58Z</time>
      </trkpt>
      <trkpt lat="48.69357" lon="7.3076">
        <ele>330.240479</ele>
        <time>2010-06-19T13:33:07Z</time>
      </trkpt>
      <trkpt lat="48.69342" lon="7.30756">
        <ele>330.904541</ele>
        <time>2010-06-19T13:33:14Z</time>
      </trkpt>
      <trkpt lat="48.69329" lon="7.30751">
        <ele>332.263916</ele>
        <time>2010-06-19T13:33:21Z</time>
      </trkpt>
      <trkpt lat="48.69314" lon="7.30745">
        <ele>332.607666</ele>
        <time>2010-06-19T13:33:29Z</time>
      </trkpt>
      <trkpt lat="48.69301" lon="7.30738">
        <ele>334.052979</ele>
        <time>2010-06-19T13:33:36Z</time>
      </trkpt>
      <trkpt lat="48.69288" lon="7.30733">
        <ele>335.998291</ele>
        <time>2010-06-19T13:33:43Z</time>
      </trkpt>
      <trkpt lat="48.69273" lon="7.30737">
        <ele>336.552979</ele>
        <time>2010-06-19T13:33:51Z</time>
      </trkpt>
      <trkpt lat="48.6926" lon="7.30747">
        <ele>335.974854</ele>
        <time>2010-06-19T13:33:58Z</time>
      </trkpt>
      <trkpt lat="48.69248" lon="7.30756">
        <ele>331.990479</ele>
        <time>2010-06-19T13:34:06Z</time>
      </trkpt>
      <trkpt lat="48.69236" lon="7.30768">
        <ele>331.951416</ele>
        <time>2010-06-19T13:34:15Z</time>
      </trkpt>
      <trkpt lat="48.69225" lon="7.3078">
        <ele>333.834229</ele>
        <time>2010-06-19T13:34:24Z</time>
      </trkpt>
      <trkpt lat="48.69212" lon="7.30791">
        <ele>335.873291</ele>
        <time>2010-06-19T13:34:33Z</time>
      </trkpt>
      <trkpt lat="48.69199" lon="7.30798">
        <ele>338.732666</ele>
        <time>2010-06-19T13:34:42Z</time>
      </trkpt>
      <trkpt lat="48.69186" lon="7.30805">
        <ele>338.021729</ele>
        <time>2010-06-19T13:34:51Z</time>
      </trkpt>
      <trkpt lat="48.69172" lon="7.30812">
        <ele>338.662354</ele>
        <time>2010-06-19T13:35:01Z</time>
      </trkpt>
      <trkpt lat="48.69158" lon="7.30817">
        <ele>340.170166</ele>
        <time>2010-06-19T13:35:12Z</time>
      </trkpt>
      <trkpt lat="48.69144" lon="7.30821">
        <ele>341.193604</ele>
        <time>2010-06-19T13:35:22Z</time>
      </trkpt>
      <trkpt lat="48.6913" lon="7.30825">
        <ele>342.107666</ele>
        <time>2010-06-19T13:35:32Z</time>
      </trkpt>
      <trkpt lat="48.69115" lon="7.30826">
        <ele>342.818604</ele>
        <time>2010-06-19T13:35:42Z</time>
      </trkpt>
      <trkpt lat="48.69101" lon="7.30827">
        <ele>344.193604</ele>
        <time>2010-06-19T13:35:52Z</time>
      </trkpt>
      <trkpt lat="48.69088" lon="7.30829">
        <ele>344.427979</ele>
        <time>2010-06-19T13:36:01Z</time>
      </trkpt>
      <trkpt lat="48.69074" lon="7.30831">
        <ele>344.701416</ele>
        <time>2010-06-19T13:36:09Z</time>
      </trkpt>
      <trkpt lat="48.6906" lon="7.30831">
        <ele>345.795166</ele>
        <time>2010-06-19T13:36:18Z</time>
      </trkpt>
      <trkpt lat="48.69046" lon="7.30832">
        <ele>344.521729</ele>
        <time>2010-06-19T13:36:26Z</time>
      </trkpt>
      <trkpt lat="48.69031" lon="7.30829">
        <ele>345.763916</ele>
        <time>2010-06-19T13:36:35Z</time>
      </trkpt>
      <trkpt lat="48.69017" lon="7.3083">
        <ele>345.779541</ele>
        <time>2010-06-19T13:36:43Z</time>
      </trkpt>
      <trkpt lat="48.69003" lon="7.30828">
        <ele>348.537354</ele>
        <time>2010-06-19T13:37:01Z</time>
      </trkpt>
      <trkpt lat="48.68988" lon="7.30827">
        <ele>351.646729</ele>
        <time>2010-06-19T13:37:13Z</time>
      </trkpt>
      <trkpt lat="48.68974" lon="7.30827">
        <ele>353.552979</ele>
        <time>2010-06-19T13:37:20Z</time>
      </trkpt>
      <trkpt lat="48.68961" lon="7.30822">
        <ele>356.248291</ele>
        <time>2010-06-19T13:37:27Z</time>
      </trkpt>
      <trkpt lat="48.68948" lon="7.3082">
        <ele>360.295166</ele>
        <time>2010-06-19T13:37:34Z</time>
      </trkpt>
      <trkpt lat="48.68934" lon="7.3082">
        <ele>362.084229</ele>
        <time>2010-06-19T13:37:41Z</time>
      </trkpt>
      <trkpt lat="48.6892" lon="7.3082">
        <ele>365.185791</ele>
        <time>2010-06-19T13:37:48Z</time>
      </trkpt>
      <trkpt lat="48.68906" lon="7.30815">
        <ele>364.568604</ele>
        <time>2010-06-19T13:37:55Z</time>
      </trkpt>
      <trkpt lat="48.68893" lon="7.30809">
        <ele>365.162354</ele>
        <time>2010-06-19T13:38:02Z</time>
      </trkpt>
      <trkpt lat="48.68879" lon="7.30803">
        <ele>365.967041</ele>
        <time>2010-06-19T13:38:10Z</time>
      </trkpt>
      <trkpt lat="48.68864" lon="7.30799">
        <ele>365.701416</ele>
        <time>2010-06-19T13:38:18Z</time>
      </trkpt>
      <trkpt lat="48.68849" lon="7.30797">
        <ele>364.693604</ele>
        <time>2010-06-19T13:38:26Z</time>
      </trkpt>
      <trkpt lat="48.68834" lon="7.30798">
        <ele>364.037354</ele>
        <time>2010-06-19T13:38:34Z</time>
      </trkpt>
      <trkpt lat="48.6882" lon="7.30797">
        <ele>362.592041</ele>
        <time>2010-06-19T13:38:42Z</time>
      </trkpt>
      <trkpt lat="48.68806" lon="7.30797">
        <ele>364.795166</ele>
        <time>2010-06-19T13:38:51Z</time>
      </trkpt>
      <trkpt lat="48.68792" lon="7.308">
        <ele>365.771729</ele>
        <time>2010-06-19T13:38:58Z</time>
      </trkpt>
      <trkpt lat="48.68776" lon="7.30803">
        <ele>365.576416</ele>
        <time>2010-06-19T13:39:07Z</time>
      </trkpt>
      <trkpt lat="48.68763" lon="7.30802">
        <ele>368.107666</ele>
        <time>2010-06-19T13:39:15Z</time>
      </trkpt>
      <trkpt lat="48.68749" lon="7.30802">
        <ele>372.412354</ele>
        <time>2010-06-19T13:39:21Z</time>
      </trkpt>
      <trkpt lat="48.68734" lon="7.30802">
        <ele>372.677979</ele>
        <time>2010-06-19T13:39:29Z</time>
      </trkpt>
      <trkpt lat="48.68719" lon="7.30802">
        <ele>372.560791</ele>
        <time>2010-06-19T13:39:37Z</time>
      </trkpt>
      <trkpt lat="48.68705" lon="7.30801">
        <ele>372.185791</ele>
        <time>2010-06-19T13:39:45Z</time>
      </trkpt>
      <trkpt lat="48.68691" lon="7.30798">
        <ele>373.107666</ele>
        <time>2010-06-19T13:39:53Z</time>
      </trkpt>
      <trkpt lat="48.68676" lon="7.30796">
        <ele>375.162354</ele>
        <time>2010-06-19T13:40:00Z</time>
      </trkpt>
      <trkpt lat="48.68662" lon="7.30793">
        <ele>377.631104</ele>
        <time>2010-06-19T13:40:08Z</time>
      </trkpt>
      <trkpt lat="48.6865" lon="7.30782">
        <ele>380.842041</ele>
        <time>2010-06-19T13:40:19Z</time>
      </trkpt>
      <trkpt lat="48.68639" lon="7.30773">
        <ele>384.865479</ele>
        <time>2010-06-19T13:40:30Z</time>
      </trkpt>
      <trkpt lat="48.68626" lon="7.30763">
        <ele>388.732666</ele>
        <time>2010-06-19T13:40:38Z</time>
      </trkpt>
      <trkpt lat="48.68612" lon="7.30759">
        <ele>391.162354</ele>
        <time>2010-06-19T13:40:45Z</time>
      </trkpt>
      <trkpt lat="48.68599" lon="7.30759">
        <ele>396.342041</ele>
        <time>2010-06-19T13:40:52Z</time>
      </trkpt>
      <trkpt lat="48.68586" lon="7.30764">
        <ele>400.224854</ele>
        <time>2010-06-19T13:40:59Z</time>
      </trkpt>
      <trkpt lat="48.68571" lon="7.30767">
        <ele>402.474854</ele>
        <time>2010-06-19T13:41:07Z</time>
      </trkpt>
      <trkpt lat="48.68556" lon="7.30769">
        <ele>405.459229</ele>
        <time>2010-06-19T13:41:15Z</time>
      </trkpt>
      <trkpt lat="48.68543" lon="7.30761">
        <ele>406.357666</ele>
        <time>2010-06-19T13:41:24Z</time>
      </trkpt>
      <trkpt lat="48.6853" lon="7.30753">
        <ele>410.756104</ele>
        <time>2010-06-19T13:41:36Z</time>
      </trkpt>
      <trkpt lat="48.6852" lon="7.30737">
        <ele>410.568604</ele>
        <time>2010-06-19T13:41:48Z</time>
      </trkpt>
      <trkpt lat="48.68508" lon="7.30728">
        <ele>410.240479</ele>
        <time>2010-06-19T13:41:55Z</time>
      </trkpt>
      <trkpt lat="48.68497" lon="7.30716">
        <ele>411.373291</ele>
        <time>2010-06-19T13:42:02Z</time>
      </trkpt>
      <trkpt lat="48.68484" lon="7.30705">
        <ele>412.162354</ele>
        <time>2010-06-19T13:42:10Z</time>
      </trkpt>
      <trkpt lat="48.68471" lon="7.30696">
        <ele>414.107666</ele>
        <time>2010-06-19T13:42:19Z</time>
      </trkpt>
      <trkpt lat="48.68458" lon="7.307">
        <ele>414.388916</ele>
        <time>2010-06-19T13:42:29Z</time>
      </trkpt>
      <trkpt lat="48.6846" lon="7.3072">
        <ele>408.076416</ele>
        <time>2010-06-19T13:42:47Z</time>
      </trkpt>
      <trkpt lat="48.68452" lon="7.30739">
        <ele>407.037354</ele>
        <time>2010-06-19T13:42:55Z</time>
      </trkpt>
      <trkpt lat="48.68438" lon="7.30747">
        <ele>406.927979</ele>
        <time>2010-06-19T13:43:02Z</time>
      </trkpt>
      <trkpt lat="48.68424" lon="7.30754">
        <ele>408.131104</ele>
        <time>2010-06-19T13:43:09Z</time>
      </trkpt>
      <trkpt lat="48.68411" lon="7.30761">
        <ele>409.326416</ele>
        <time>2010-06-19T13:43:16Z</time>
      </trkpt>
      <trkpt lat="48.68399" lon="7.30773">
        <ele>410.615479</ele>
        <time>2010-06-19T13:43:25Z</time>
      </trkpt>
      <trkpt lat="48.68386" lon="7.30775">
        <ele>412.373291</ele>
        <time>2010-06-19T13:43:34Z</time>
      </trkpt>
      <trkpt lat="48.68372" lon="7.30778">
        <ele>413.904541</ele>
        <time>2010-06-19T13:43:45Z</time>
      </trkpt>
      <trkpt lat="48.68361" lon="7.3079">
        <ele>413.763916</ele>
        <time>2010-06-19T13:43:54Z</time>
      </trkpt>
      <trkpt lat="48.68353" lon="7.30809">
        <ele>416.834229</ele>
        <time>2010-06-19T13:44:03Z</time>
      </trkpt>
      <trkpt lat="48.68351" lon="7.30829">
        <ele>419.935791</ele>
        <time>2010-06-19T13:44:11Z</time>
      </trkpt>
      <trkpt lat="48.68361" lon="7.30841">
        <ele>426.185791</ele>
        <time>2010-06-19T13:44:21Z</time>
      </trkpt>
      <trkpt lat="48.68372" lon="7.30831">
        <ele>428.396729</ele>
        <time>2010-06-19T13:44:32Z</time>
      </trkpt>
      <trkpt lat="48.68385" lon="7.30836">
        <ele>434.467041</ele>
        <time>2010-06-19T13:44:42Z</time>
      </trkpt>
      <trkpt lat="48.68399" lon="7.30833">
        <ele>439.959229</ele>
        <time>2010-06-19T13:44:51Z</time>
      </trkpt>
      <trkpt lat="48.68411" lon="7.30836">
        <ele>448.162354</ele>
        <time>2010-06-19T13:45:00Z</time>
      </trkpt>
      <trkpt lat="48.68423" lon="7.30832">
        <ele>458.084229</ele>
        <time>2010-06-19T13:45:07Z</time>
      </trkpt>
      <trkpt lat="48.68438" lon="7.30835">
        <ele>451.701416</ele>
        <time>2010-06-19T13:45:12Z</time>
      </trkpt>
      <trkpt lat="48.68452" lon="7.30838">
        <ele>457.888916</ele>
        <time>2010-06-19T13:45:19Z</time>
      </trkpt>
      <trkpt lat="48.68461" lon="7.30846">
        <ele>448.146729</ele>
        <time>2010-06-19T13:45:22Z</time>
      </trkpt>
      <trkpt lat="48.68474" lon="7.3085">
        <ele>452.756104</ele>
        <time>2010-06-19T13:45:30Z</time>
      </trkpt>
      <trkpt lat="48.68488" lon="7.30851">
        <ele>460.045166</ele>
        <time>2010-06-19T13:45:38Z</time>
      </trkpt>
      <trkpt lat="48.68502" lon="7.30854">
        <ele>458.412354</ele>
        <time>2010-06-19T13:45:47Z</time>
      </trkpt>
      <trkpt lat="48.68516" lon="7.30857">
        <ele>461.021729</ele>
        <time>2010-06-19T13:45:55Z</time>
      </trkpt>
      <trkpt lat="48.6853" lon="7.30863">
        <ele>462.779541</ele>
        <time>2010-06-19T13:46:03Z</time>
      </trkpt>
      <trkpt lat="48.68543" lon="7.30868">
        <ele>457.943604</ele>
        <time>2010-06-19T13:46:10Z</time>
      </trkpt>
      <trkpt lat="48.68556" lon="7.30873">
        <ele>452.763916</ele>
        <time>2010-06-19T13:46:16Z</time>
      </trkpt>
      <trkpt lat="48.68571" lon="7.30879">
        <ele>452.646729</ele>
        <time>2010-06-19T13:46:25Z</time>
      </trkpt>
      <trkpt lat="48.68582" lon="7.30891">
        <ele>449.029541</ele>
        <time>2010-06-19T13:46:31Z</time>
      </trkpt>
      <trkpt lat="48.68593" lon="7.30901">
        <ele>444.318604</ele>
        <time>2010-06-19T13:46:37Z</time>
      </trkpt>
      <trkpt lat="48.68604" lon="7.30915">
        <ele>436.795166</ele>
        <time>2010-06-19T13:46:43Z</time>
      </trkpt>
      <trkpt lat="48.68614" lon="7.30928">
        <ele>435.474854</ele>
        <time>2010-06-19T13:46:51Z</time>
      </trkpt>
      <trkpt lat="48.68625" lon="7.3094">
        <ele>433.349854</ele>
        <time>2010-06-19T13:46:58Z</time>
      </trkpt>
      <trkpt lat="48.68634" lon="7.30956">
        <ele>430.974854</ele>
        <time>2010-06-19T13:47:05Z</time>
      </trkpt>
      <trkpt lat="48.6864" lon="7.30975">
        <ele>431.381104</ele>
        <time>2010-06-19T13:47:14Z</time>
      </trkpt>
      <trkpt lat="48.6865" lon="7.30991">
        <ele>431.904541</ele>
        <time>2010-06-19T13:47:25Z</time>
      </trkpt>
      <trkpt lat="48.68654" lon="7.31011">
        <ele>431.693604</ele>
        <time>2010-06-19T13:47:33Z</time>
      </trkpt>
      <trkpt lat="48.68661" lon="7.31031">
        <ele>432.709229</ele>
        <time>2010-06-19T13:47:40Z</time>
      </trkpt>
      <trkpt lat="48.68669" lon="7.31047">
        <ele>431.912354</ele>
        <time>2010-06-19T13:47:48Z</time>
      </trkpt>
      <trkpt lat="48.68679" lon="7.3106">
        <ele>431.029541</ele>
        <time>2010-06-19T13:47:54Z</time>
      </trkpt>
      <trkpt lat="48.68683" lon="7.31083">
        <ele>433.842041</ele>
        <time>2010-06-19T13:48:03Z</time>
      </trkpt>
      <trkpt lat="48.68695" lon="7.31094">
        <ele>431.310791</ele>
        <time>2010-06-19T13:48:10Z</time>
      </trkpt>
      <trkpt lat="48.68709" lon="7.31092">
        <ele>430.443604</ele>
        <time>2010-06-19T13:48:21Z</time>
      </trkpt>
      <trkpt lat="48.68721" lon="7.31084">
        <ele>434.826416</ele>
        <time>2010-06-19T13:48:35Z</time>
      </trkpt>
      <trkpt lat="48.68734" lon="7.31082">
        <ele>435.185791</ele>
        <time>2010-06-19T13:48:44Z</time>
      </trkpt>
      <trkpt lat="48.68748" lon="7.31081">
        <ele>433.599854</ele>
        <time>2010-06-19T13:48:53Z</time>
      </trkpt>
      <trkpt lat="48.68762" lon="7.31079">
        <ele>431.685791</ele>
        <time>2010-06-19T13:49:02Z</time>
      </trkpt>
      <trkpt lat="48.68776" lon="7.31077">
        <ele>431.232666</ele>
        <time>2010-06-19T13:49:11Z</time>
      </trkpt>
      <trkpt lat="48.6879" lon="7.31074">
        <ele>434.232666</ele>
        <time>2010-06-19T13:49:23Z</time>
      </trkpt>
      <trkpt lat="48.68803" lon="7.31081">
        <ele>433.318604</ele>
        <time>2010-06-19T13:49:34Z</time>
      </trkpt>
      <trkpt lat="48.68805" lon="7.31074">
        <ele>419.537354</ele>
        <time>2010-06-19T13:54:18Z</time>
      </trkpt>
      <trkpt lat="48.68793" lon="7.31084">
        <ele>417.240479</ele>
        <time>2010-06-19T13:55:54Z</time>
      </trkpt>
      <trkpt lat="48.6878" lon="7.31091">
        <ele>417.365479</ele>
        <time>2010-06-19T13:56:01Z</time>
      </trkpt>
      <trkpt lat="48.68766" lon="7.31096">
        <ele>419.084229</ele>
        <time>2010-06-19T13:56:08Z</time>
      </trkpt>
      <trkpt lat="48.68753" lon="7.31103">
        <ele>420.787354</ele>
        <time>2010-06-19T13:56:15Z</time>
      </trkpt>
      <trkpt lat="48.68742" lon="7.31119">
        <ele>422.638916</ele>
        <time>2010-06-19T13:56:23Z</time>
      </trkpt>
      <trkpt lat="48.68736" lon="7.31139">
        <ele>423.646729</ele>
        <time>2010-06-19T13:56:30Z</time>
      </trkpt>
      <trkpt lat="48.68728" lon="7.3116">
        <ele>425.115479</ele>
        <time>2010-06-19T13:56:36Z</time>
      </trkpt>
      <trkpt lat="48.68723" lon="7.31182">
        <ele>426.951416</ele>
        <time>2010-06-19T13:56:43Z</time>
      </trkpt>
      <trkpt lat="48.68717" lon="7.31201">
        <ele>428.537354</ele>
        <time>2010-06-19T13:56:50Z</time>
      </trkpt>
      <trkpt lat="48.68705" lon="7.31214">
        <ele>431.427979</ele>
        <time>2010-06-19T13:56:58Z</time>
      </trkpt>
      <trkpt lat="48.68691" lon="7.31214">
        <ele>431.482666</ele>
        <time>2010-06-19T13:57:07Z</time>
      </trkpt>
      <trkpt lat="48.68677" lon="7.31206">
        <ele>432.607666</ele>
        <time>2010-06-19T13:57:18Z</time>
      </trkpt>
      <trkpt lat="48.68664" lon="7.31194">
        <ele>435.170166</ele>
        <time>2010-06-19T13:57:30Z</time>
      </trkpt>
      <trkpt lat="48.68652" lon="7.31184">
        <ele>437.185791</ele>
        <time>2010-06-19T13:57:37Z</time>
      </trkpt>
      <trkpt lat="48.68638" lon="7.31174">
        <ele>437.467041</ele>
        <time>2010-06-19T13:57:44Z</time>
      </trkpt>
      <trkpt lat="48.68626" lon="7.31162">
        <ele>436.904541</ele>
        <time>2010-06-19T13:57:51Z</time>
      </trkpt>
      <trkpt lat="48.68613" lon="7.31153">
        <ele>436.545166</ele>
        <time>2010-06-19T13:57:58Z</time>
      </trkpt>
      <trkpt lat="48.686" lon="7.31146">
        <ele>436.427979</ele>
        <time>2010-06-19T13:58:05Z</time>
      </trkpt>
      <trkpt lat="48.68585" lon="7.31138">
        <ele>437.670166</ele>
        <time>2010-06-19T13:58:11Z</time>
      </trkpt>
      <trkpt lat="48.6857" lon="7.3113">
        <ele>438.427979</ele>
        <time>2010-06-19T13:58:16Z</time>
      </trkpt>
      <trkpt lat="48.68555" lon="7.31126">
        <ele>440.263916</ele>
        <time>2010-06-19T13:58:21Z</time>
      </trkpt>
      <trkpt lat="48.6854" lon="7.31119">
        <ele>441.670166</ele>
        <time>2010-06-19T13:58:28Z</time>
      </trkpt>
      <trkpt lat="48.68526" lon="7.31119">
        <ele>441.740479</ele>
        <time>2010-06-19T13:58:35Z</time>
      </trkpt>
      <trkpt lat="48.68513" lon="7.3111">
        <ele>441.537354</ele>
        <time>2010-06-19T13:58:43Z</time>
      </trkpt>
      <trkpt lat="48.68498" lon="7.31103">
        <ele>443.052979</ele>
        <time>2010-06-19T13:58:49Z</time>
      </trkpt>
      <trkpt lat="48.68483" lon="7.311">
        <ele>443.513916</ele>
        <time>2010-06-19T13:58:55Z</time>
      </trkpt>
      <trkpt lat="48.6847" lon="7.31094">
        <ele>445.185791</ele>
        <time>2010-06-19T13:59:00Z</time>
      </trkpt>
      <trkpt lat="48.68457" lon="7.3109">
        <ele>444.560791</ele>
        <time>2010-06-19T13:59:04Z</time>
      </trkpt>
      <trkpt lat="48.68442" lon="7.31087">
        <ele>444.607666</ele>
        <time>2010-06-19T13:59:10Z</time>
      </trkpt>
      <trkpt lat="48.68425" lon="7.31085">
        <ele>444.170166</ele>
        <time>2010-06-19T13:59:15Z</time>
      </trkpt>
      <trkpt lat="48.6841" lon="7.31079">
        <ele>445.334229</ele>
        <time>2010-06-19T13:59:22Z</time>
      </trkpt>
      <trkpt lat="48.68394" lon="7.31077">
        <ele>445.982666</ele>
        <time>2010-06-19T13:59:27Z</time>
      </trkpt>
      <trkpt lat="48.68379" lon="7.3108">
        <ele>447.420166</ele>
        <time>2010-06-19T13:59:36Z</time>
      </trkpt>
      <trkpt lat="48.68364" lon="7.31079">
        <ele>449.521729</ele>
        <time>2010-06-19T13:59:43Z</time>
      </trkpt>
      <trkpt lat="48.6835" lon="7.31081">
        <ele>450.881104</ele>
        <time>2010-06-19T13:59:49Z</time>
      </trkpt>
      <trkpt lat="48.68336" lon="7.31082">
        <ele>453.013916</ele>
        <time>2010-06-19T13:59:54Z</time>
      </trkpt>
      <trkpt lat="48.68322" lon="7.31084">
        <ele>453.763916</ele>
        <time>2010-06-19T13:59:58Z</time>
      </trkpt>
      <trkpt lat="48.68309" lon="7.31092">
        <ele>457.888916</ele>
        <time>2010-06-19T14:00:06Z</time>
      </trkpt>
      <trkpt lat="48.68295" lon="7.31095">
        <ele>458.873291</ele>
        <time>2010-06-19T14:00:13Z</time>
      </trkpt>
      <trkpt lat="48.6828" lon="7.31091">
        <ele>458.646729</ele>
        <time>2010-06-19T14:00:20Z</time>
      </trkpt>
      <trkpt lat="48.68266" lon="7.31088">
        <ele>459.302979</ele>
        <time>2010-06-19T14:00:25Z</time>
      </trkpt>
      <trkpt lat="48.68251" lon="7.31087">
        <ele>458.881104</ele>
        <time>2010-06-19T14:00:30Z</time>
      </trkpt>
      <trkpt lat="48.68237" lon="7.31088">
        <ele>457.599854</ele>
        <time>2010-06-19T14:00:34Z</time>
      </trkpt>
      <trkpt lat="48.68222" lon="7.31092">
        <ele>457.107666</ele>
        <time>2010-06-19T14:00:39Z</time>
      </trkpt>
      <trkpt lat="48.68208" lon="7.31098">
        <ele>456.927979</ele>
        <time>2010-06-19T14:00:43Z</time>
      </trkpt>
      <trkpt lat="48.68193" lon="7.31107">
        <ele>457.631104</ele>
        <time>2010-06-19T14:00:46Z</time>
      </trkpt>
      <trkpt lat="48.68179" lon="7.31112">
        <ele>458.279541</ele>
        <time>2010-06-19T14:00:49Z</time>
      </trkpt>
      <trkpt lat="48.68165" lon="7.31121">
        <ele>459.076416</ele>
        <time>2010-06-19T14:00:52Z</time>
      </trkpt>
      <trkpt lat="48.68153" lon="7.31133">
        <ele>458.724854</ele>
        <time>2010-06-19T14:00:56Z</time>
      </trkpt>
      <trkpt lat="48.68143" lon="7.31144">
        <ele>462.662354</ele>
        <time>2010-06-19T14:02:34Z</time>
      </trkpt>
      <trkpt lat="48.68133" lon="7.31157">
        <ele>468.451416</ele>
        <time>2010-06-19T14:08:20Z</time>
      </trkpt>
      <trkpt lat="48.68133" lon="7.3114">
        <ele>478.037354</ele>
        <time>2010-06-19T14:11:45Z</time>
      </trkpt>
      <trkpt lat="48.68129" lon="7.3112">
        <ele>481.467041</ele>
        <time>2010-06-19T14:11:53Z</time>
      </trkpt>
      <trkpt lat="48.68116" lon="7.31109">
        <ele>482.115479</ele>
        <time>2010-06-19T14:12:00Z</time>
      </trkpt>
      <trkpt lat="48.68103" lon="7.31102">
        <ele>480.131104</ele>
        <time>2010-06-19T14:12:06Z</time>
      </trkpt>
      <trkpt lat="48.6809" lon="7.31093">
        <ele>480.123291</ele>
        <time>2010-06-19T14:12:11Z</time>
      </trkpt>
      <trkpt lat="48.68075" lon="7.31084">
        <ele>478.365479</ele>
        <time>2010-06-19T14:12:16Z</time>
      </trkpt>
      <trkpt lat="48.68068" lon="7.31065">
        <ele>479.967041</ele>
        <time>2010-06-19T14:12:23Z</time>
      </trkpt>
      <trkpt lat="48.68059" lon="7.31051">
        <ele>484.248291</ele>
        <time>2010-06-19T14:12:29Z</time>
      </trkpt>
      <trkpt lat="48.68061" lon="7.31029">
        <ele>484.310791</ele>
        <time>2010-06-19T14:12:35Z</time>
      </trkpt>
      <trkpt lat="48.68057" lon="7.31008">
        <ele>486.177979</ele>
        <time>2010-06-19T14:12:44Z</time>
      </trkpt>
      <trkpt lat="48.68044" lon="7.31">
        <ele>488.568604</ele>
        <time>2010-06-19T14:12:50Z</time>
      </trkpt>
      <trkpt lat="48.68032" lon="7.30988">
        <ele>491.537354</ele>
        <time>2010-06-19T14:12:58Z</time>
      </trkpt>
      <trkpt lat="48.68026" lon="7.3097">
        <ele>495.224854</ele>
        <time>2010-06-19T14:13:08Z</time>
      </trkpt>
      <trkpt lat="48.6803" lon="7.30951">
        <ele>498.740479</ele>
        <time>2010-06-19T14:13:16Z</time>
      </trkpt>
      <trkpt lat="48.68038" lon="7.30931">
        <ele>496.912354</ele>
        <time>2010-06-19T14:13:24Z</time>
      </trkpt>
      <trkpt lat="48.68045" lon="7.30912">
        <ele>496.834229</ele>
        <time>2010-06-19T14:13:29Z</time>
      </trkpt>
      <trkpt lat="48.68049" lon="7.30891">
        <ele>498.529541</ele>
        <time>2010-06-19T14:13:35Z</time>
      </trkpt>
      <trkpt lat="48.68056" lon="7.3087">
        <ele>496.865479</ele>
        <time>2010-06-19T14:13:40Z</time>
      </trkpt>
      <trkpt lat="48.68061" lon="7.30848">
        <ele>495.912354</ele>
        <time>2010-06-19T14:13:45Z</time>
      </trkpt>
      <trkpt lat="48.68066" lon="7.30828">
        <ele>497.342041</ele>
        <time>2010-06-19T14:13:50Z</time>
      </trkpt>
      <trkpt lat="48.68063" lon="7.30805">
        <ele>497.756104</ele>
        <time>2010-06-19T14:13:58Z</time>
      </trkpt>
      <trkpt lat="48.68069" lon="7.30786">
        <ele>498.740479</ele>
        <time>2010-06-19T14:14:03Z</time>
      </trkpt>
      <trkpt lat="48.68074" lon="7.30766">
        <ele>498.334229</ele>
        <time>2010-06-19T14:14:06Z</time>
      </trkpt>
      <trkpt lat="48.68076" lon="7.30745">
        <ele>500.287354</ele>
        <time>2010-06-19T14:14:11Z</time>
      </trkpt>
      <trkpt lat="48.68066" lon="7.3073">
        <ele>502.154541</ele>
        <time>2010-06-19T14:14:17Z</time>
      </trkpt>
      <trkpt lat="48.68069" lon="7.30707">
        <ele>505.068604</ele>
        <time>2010-06-19T14:14:22Z</time>
      </trkpt>
      <trkpt lat="48.68074" lon="7.30684">
        <ele>507.552979</ele>
        <time>2010-06-19T14:14:26Z</time>
      </trkpt>
      <trkpt lat="48.68076" lon="7.30665">
        <ele>511.920166</ele>
        <time>2010-06-19T14:14:30Z</time>
      </trkpt>
      <trkpt lat="48.68071" lon="7.30647">
        <ele>516.230957</ele>
        <time>2010-06-19T14:14:35Z</time>
      </trkpt>
      <trkpt lat="48.68068" lon="7.30625">
        <ele>519.684082</ele>
        <time>2010-06-19T14:14:40Z</time>
      </trkpt>
      <trkpt lat="48.68068" lon="7.30603">
        <ele>521.793457</ele>
        <time>2010-06-19T14:14:44Z</time>
      </trkpt>
      <trkpt lat="48.68073" lon="7.30579">
        <ele>523.746582</ele>
        <time>2010-06-19T14:14:47Z</time>
      </trkpt>
      <trkpt lat="48.68069" lon="7.30559">
        <ele>526.996582</ele>
        <time>2010-06-19T14:14:51Z</time>
      </trkpt>
      <trkpt lat="48.68065" lon="7.30538">
        <ele>527.559082</ele>
        <time>2010-06-19T14:14:55Z</time>
      </trkpt>
      <trkpt lat="48.68068" lon="7.30516">
        <ele>529.340332</ele>
        <time>2010-06-19T14:14:59Z</time>
      </trkpt>
      <trkpt lat="48.68062" lon="7.30495">
        <ele>529.887207</ele>
        <time>2010-06-19T14:15:04Z</time>
      </trkpt>
      <trkpt lat="48.68062" lon="7.30473">
        <ele>533.371582</ele>
        <time>2010-06-19T14:15:09Z</time>
      </trkpt>
      <trkpt lat="48.68065" lon="7.30453">
        <ele>534.277832</ele>
        <time>2010-06-19T14:15:15Z</time>
      </trkpt>
      <trkpt lat="48.68053" lon="7.30432">
        <ele>531.980957</ele>
        <time>2010-06-19T14:15:21Z</time>
      </trkpt>
      <trkpt lat="48.6805" lon="7.30412">
        <ele>532.762207</ele>
        <time>2010-06-19T14:15:28Z</time>
      </trkpt>
      <trkpt lat="48.6804" lon="7.30398">
        <ele>534.262207</ele>
        <time>2010-06-19T14:15:35Z</time>
      </trkpt>
      <trkpt lat="48.68029" lon="7.30381">
        <ele>533.184082</ele>
        <time>2010-06-19T14:15:40Z</time>
      </trkpt>
      <trkpt lat="48.68028" lon="7.30359">
        <ele>533.340332</ele>
        <time>2010-06-19T14:15:47Z</time>
      </trkpt>
      <trkpt lat="48.68029" lon="7.30339">
        <ele>539.840332</ele>
        <time>2010-06-19T14:15:55Z</time>
      </trkpt>
      <trkpt lat="48.68019" lon="7.30321">
        <ele>538.887207</ele>
        <time>2010-06-19T14:15:59Z</time>
      </trkpt>
      <trkpt lat="48.68009" lon="7.30305">
        <ele>538.980957</ele>
        <time>2010-06-19T14:16:03Z</time>
      </trkpt>
      <trkpt lat="48.68002" lon="7.30283">
        <ele>537.746582</ele>
        <time>2010-06-19T14:16:08Z</time>
      </trkpt>
      <trkpt lat="48.67991" lon="7.30264">
        <ele>533.449707</ele>
        <time>2010-06-19T14:16:12Z</time>
      </trkpt>
      <trkpt lat="48.67986" lon="7.30243">
        <ele>531.027832</ele>
        <time>2010-06-19T14:16:16Z</time>
      </trkpt>
      <trkpt lat="48.67981" lon="7.30223">
        <ele>529.574707</ele>
        <time>2010-06-19T14:16:21Z</time>
      </trkpt>
      <trkpt lat="48.6797" lon="7.30205">
        <ele>529.512207</ele>
        <time>2010-06-19T14:16:25Z</time>
      </trkpt>
      <trkpt lat="48.67959" lon="7.30186">
        <ele>529.059082</ele>
        <time>2010-06-19T14:16:29Z</time>
      </trkpt>
      <trkpt lat="48.67946" lon="7.30168">
        <ele>529.559082</ele>
        <time>2010-06-19T14:16:33Z</time>
      </trkpt>
      <trkpt lat="48.67931" lon="7.30156">
        <ele>526.543457</ele>
        <time>2010-06-19T14:16:36Z</time>
      </trkpt>
      <trkpt lat="48.67918" lon="7.30151">
        <ele>525.090332</ele>
        <time>2010-06-19T14:16:38Z</time>
      </trkpt>
      <trkpt lat="48.67905" lon="7.30137">
        <ele>526.012207</ele>
        <time>2010-06-19T14:16:41Z</time>
      </trkpt>
      <trkpt lat="48.67901" lon="7.3011">
        <ele>528.215332</ele>
        <time>2010-06-19T14:16:44Z</time>
      </trkpt>
      <trkpt lat="48.67897" lon="7.30084">
        <ele>529.402832</ele>
        <time>2010-06-19T14:16:47Z</time>
      </trkpt>
      <trkpt lat="48.67894" lon="7.30062">
        <ele>531.027832</ele>
        <time>2010-06-19T14:16:51Z</time>
      </trkpt>
      <trkpt lat="48.6788" lon="7.30057">
        <ele>532.559082</ele>
        <time>2010-06-19T14:18:00Z</time>
      </trkpt>
      <trkpt lat="48.67868" lon="7.30042">
        <ele>530.434082</ele>
        <time>2010-06-19T14:18:05Z</time>
      </trkpt>
      <trkpt lat="48.67859" lon="7.30023">
        <ele>529.277832</ele>
        <time>2010-06-19T14:18:12Z</time>
      </trkpt>
      <trkpt lat="48.67855" lon="7.29997">
        <ele>531.121582</ele>
        <time>2010-06-19T14:18:16Z</time>
      </trkpt>
      <trkpt lat="48.67846" lon="7.29975">
        <ele>530.590332</ele>
        <time>2010-06-19T14:18:20Z</time>
      </trkpt>
      <trkpt lat="48.6784" lon="7.29955">
        <ele>531.934082</ele>
        <time>2010-06-19T14:18:23Z</time>
      </trkpt>
      <trkpt lat="48.67833" lon="7.29933">
        <ele>533.355957</ele>
        <time>2010-06-19T14:18:27Z</time>
      </trkpt>
      <trkpt lat="48.67823" lon="7.29916">
        <ele>533.762207</ele>
        <time>2010-06-19T14:18:31Z</time>
      </trkpt>
      <trkpt lat="48.67812" lon="7.29905">
        <ele>530.074707</ele>
        <time>2010-06-19T14:18:35Z</time>
      </trkpt>
      <trkpt lat="48.67804" lon="7.29888">
        <ele>528.465332</ele>
        <time>2010-06-19T14:18:39Z</time>
      </trkpt>
      <trkpt lat="48.67793" lon="7.29872">
        <ele>529.465332</ele>
        <time>2010-06-19T14:18:43Z</time>
      </trkpt>
      <trkpt lat="48.67785" lon="7.29852">
        <ele>529.074707</ele>
        <time>2010-06-19T14:18:48Z</time>
      </trkpt>
      <trkpt lat="48.67778" lon="7.29834">
        <ele>530.668457</ele>
        <time>2010-06-19T14:18:52Z</time>
      </trkpt>
      <trkpt lat="48.67769" lon="7.29814">
        <ele>529.699707</ele>
        <time>2010-06-19T14:18:55Z</time>
      </trkpt>
      <trkpt lat="48.6776" lon="7.29792">
        <ele>530.496582</ele>
        <time>2010-06-19T14:18:57Z</time>
      </trkpt>
      <trkpt lat="48.67749" lon="7.2977">
        <ele>531.840332</ele>
        <time>2010-06-19T14:19:00Z</time>
      </trkpt>
      <trkpt lat="48.67741" lon="7.29752">
        <ele>532.293457</ele>
        <time>2010-06-19T14:19:03Z</time>
      </trkpt>
      <trkpt lat="48.67735" lon="7.29731">
        <ele>532.418457</ele>
        <time>2010-06-19T14:19:07Z</time>
      </trkpt>
      <trkpt lat="48.67726" lon="7.29714">
        <ele>531.918457</ele>
        <time>2010-06-19T14:19:10Z</time>
      </trkpt>
      <trkpt lat="48.6772" lon="7.29689">
        <ele>531.246582</ele>
        <time>2010-06-19T14:19:14Z</time>
      </trkpt>
      <trkpt lat="48.6771" lon="7.29676">
        <ele>535.590332</ele>
        <time>2010-06-19T14:19:17Z</time>
      </trkpt>
      <trkpt lat="48.67703" lon="7.29658">
        <ele>538.996582</ele>
        <time>2010-06-19T14:19:21Z</time>
      </trkpt>
      <trkpt lat="48.67698" lon="7.29637">
        <ele>542.855957</ele>
        <time>2010-06-19T14:19:25Z</time>
      </trkpt>
      <trkpt lat="48.67692" lon="7.29617">
        <ele>547.746582</ele>
        <time>2010-06-19T14:19:29Z</time>
      </trkpt>
      <trkpt lat="48.67688" lon="7.29596">
        <ele>549.184082</ele>
        <time>2010-06-19T14:19:35Z</time>
      </trkpt>
      <trkpt lat="48.67691" lon="7.2957">
        <ele>547.762207</ele>
        <time>2010-06-19T14:19:47Z</time>
      </trkpt>
      <trkpt lat="48.67693" lon="7.2955">
        <ele>544.605957</ele>
        <time>2010-06-19T14:19:54Z</time>
      </trkpt>
      <trkpt lat="48.67697" lon="7.29526">
        <ele>540.887207</ele>
        <time>2010-06-19T14:20:00Z</time>
      </trkpt>
      <trkpt lat="48.67699" lon="7.29504">
        <ele>538.121582</ele>
        <time>2010-06-19T14:20:09Z</time>
      </trkpt>
      <trkpt lat="48.67707" lon="7.29486">
        <ele>533.168457</ele>
        <time>2010-06-19T14:20:20Z</time>
      </trkpt>
      <trkpt lat="48.67711" lon="7.29466">
        <ele>529.184082</ele>
        <time>2010-06-19T14:20:28Z</time>
      </trkpt>
      <trkpt lat="48.67716" lon="7.29447">
        <ele>526.309082</ele>
        <time>2010-06-19T14:20:46Z</time>
      </trkpt>
      <trkpt lat="48.67721" lon="7.29427">
        <ele>523.699707</ele>
        <time>2010-06-19T14:20:56Z</time>
      </trkpt>
      <trkpt lat="48.67727" lon="7.29409">
        <ele>520.637207</ele>
        <time>2010-06-19T14:21:26Z</time>
      </trkpt>
      <trkpt lat="48.67733" lon="7.29389">
        <ele>520.902832</ele>
        <time>2010-06-19T14:21:43Z</time>
      </trkpt>
      <trkpt lat="48.67738" lon="7.29368">
        <ele>520.262207</ele>
        <time>2010-06-19T14:21:56Z</time>
      </trkpt>
      <trkpt lat="48.67744" lon="7.2935">
        <ele>520.730957</ele>
        <time>2010-06-19T14:22:05Z</time>
      </trkpt>
      <trkpt lat="48.67753" lon="7.29332">
        <ele>522.652832</ele>
        <time>2010-06-19T14:22:34Z</time>
      </trkpt>
      <trkpt lat="48.67763" lon="7.29311">
        <ele>523.746582</ele>
        <time>2010-06-19T14:22:46Z</time>
      </trkpt>
      <trkpt lat="48.6777" lon="7.29292">
        <ele>523.402832</ele>
        <time>2010-06-19T14:22:57Z</time>
      </trkpt>
      <trkpt lat="48.67773" lon="7.2927">
        <ele>524.418457</ele>
        <time>2010-06-19T14:23:11Z</time>
      </trkpt>
      <trkpt lat="48.67778" lon="7.29251">
        <ele>525.543457</ele>
        <time>2010-06-19T14:23:29Z</time>
      </trkpt>
      <trkpt lat="48.67779" lon="7.29231">
        <ele>523.543457</ele>
        <time>2010-06-19T14:23:41Z</time>
      </trkpt>
      <trkpt lat="48.67781" lon="7.2921">
        <ele>524.793457</ele>
        <time>2010-06-19T14:23:57Z</time>
      </trkpt>
      <trkpt lat="48.67773" lon="7.29192">
        <ele>526.715332</ele>
        <time>2010-06-19T14:24:07Z</time>
      </trkpt>
      <trkpt lat="48.67778" lon="7.29172">
        <ele>526.824707</ele>
        <time>2010-06-19T14:24:13Z</time>
      </trkpt>
      <trkpt lat="48.6778" lon="7.29149">
        <ele>528.074707</ele>
        <time>2010-06-19T14:24:20Z</time>
      </trkpt>
      <trkpt lat="48.6777" lon="7.29136">
        <ele>525.793457</ele>
        <time>2010-06-19T14:24:26Z</time>
      </trkpt>
      <trkpt lat="48.67758" lon="7.29123">
        <ele>526.074707</ele>
        <time>2010-06-19T14:24:34Z</time>
      </trkpt>
      <trkpt lat="48.67746" lon="7.29113">
        <ele>525.277832</ele>
        <time>2010-06-19T14:24:40Z</time>
      </trkpt>
      <trkpt lat="48.67732" lon="7.29108">
        <ele>523.293457</ele>
        <time>2010-06-19T14:24:43Z</time>
      </trkpt>
      <trkpt lat="48.67719" lon="7.29097">
        <ele>521.684082</ele>
        <time>2010-06-19T14:24:48Z</time>
      </trkpt>
      <trkpt lat="48.67706" lon="7.29089">
        <ele>519.512207</ele>
        <time>2010-06-19T14:24:52Z</time>
      </trkpt>
      <trkpt lat="48.67692" lon="7.29081">
        <ele>518.855957</ele>
        <time>2010-06-19T14:24:56Z</time>
      </trkpt>
      <trkpt lat="48.67679" lon="7.29078">
        <ele>519.168457</ele>
        <time>2010-06-19T14:24:59Z</time>
      </trkpt>
      <trkpt lat="48.67665" lon="7.29073">
        <ele>517.012207</ele>
        <time>2010-06-19T14:25:03Z</time>
      </trkpt>
      <trkpt lat="48.6765" lon="7.2907">
        <ele>515.137207</ele>
        <time>2010-06-19T14:25:07Z</time>
      </trkpt>
      <trkpt lat="48.67632" lon="7.29071">
        <ele>513.059082</ele>
        <time>2010-06-19T14:25:10Z</time>
      </trkpt>
      <trkpt lat="48.67612" lon="7.29072">
        <ele>510.935791</ele>
        <time>2010-06-19T14:25:13Z</time>
      </trkpt>
      <trkpt lat="48.67593" lon="7.29073">
        <ele>509.373291</ele>
        <time>2010-06-19T14:25:16Z</time>
      </trkpt>
      <trkpt lat="48.67578" lon="7.29077">
        <ele>508.467041</ele>
        <time>2010-06-19T14:25:19Z</time>
      </trkpt>
      <trkpt lat="48.67562" lon="7.29082">
        <ele>507.576416</ele>
        <time>2010-06-19T14:25:21Z</time>
      </trkpt>
      <trkpt lat="48.67542" lon="7.2908">
        <ele>506.068604</ele>
        <time>2010-06-19T14:25:24Z</time>
      </trkpt>
      <trkpt lat="48.67529" lon="7.29083">
        <ele>507.396729</ele>
        <time>2010-06-19T14:25:28Z</time>
      </trkpt>
      <trkpt lat="48.67513" lon="7.29085">
        <ele>508.810791</ele>
        <time>2010-06-19T14:25:36Z</time>
      </trkpt>
      <trkpt lat="48.67497" lon="7.29081">
        <ele>509.599854</ele>
        <time>2010-06-19T14:25:40Z</time>
      </trkpt>
      <trkpt lat="48.67483" lon="7.2907">
        <ele>510.568604</ele>
        <time>2010-06-19T14:25:45Z</time>
      </trkpt>
      <trkpt lat="48.67471" lon="7.29064">
        <ele>511.592041</ele>
        <time>2010-06-19T14:25:49Z</time>
      </trkpt>
      <trkpt lat="48.67456" lon="7.29056">
        <ele>512.012207</ele>
        <time>2010-06-19T14:25:54Z</time>
      </trkpt>
      <trkpt lat="48.67447" lon="7.29038">
        <ele>512.762207</ele>
        <time>2010-06-19T14:26:00Z</time>
      </trkpt>
      <trkpt lat="48.67439" lon="7.29023">
        <ele>517.512207</ele>
        <time>2010-06-19T14:26:05Z</time>
      </trkpt>
      <trkpt lat="48.67436" lon="7.29002">
        <ele>523.418457</ele>
        <time>2010-06-19T14:26:10Z</time>
      </trkpt>
      <trkpt lat="48.67429" lon="7.28985">
        <ele>528.012207</ele>
        <time>2010-06-19T14:26:15Z</time>
      </trkpt>
      <trkpt lat="48.67429" lon="7.28966">
        <ele>534.059082</ele>
        <time>2010-06-19T14:26:19Z</time>
      </trkpt>
      <trkpt lat="48.67432" lon="7.28942">
        <ele>536.621582</ele>
        <time>2010-06-19T14:26:24Z</time>
      </trkpt>
      <trkpt lat="48.67427" lon="7.28921">
        <ele>535.980957</ele>
        <time>2010-06-19T14:26:29Z</time>
      </trkpt>
      <trkpt lat="48.67421" lon="7.28901">
        <ele>536.855957</ele>
        <time>2010-06-19T14:26:34Z</time>
      </trkpt>
      <trkpt lat="48.6741" lon="7.28879">
        <ele>535.887207</ele>
        <time>2010-06-19T14:26:39Z</time>
      </trkpt>
      <trkpt lat="48.67399" lon="7.28866">
        <ele>534.840332</ele>
        <time>2010-06-19T14:26:43Z</time>
      </trkpt>
      <trkpt lat="48.67382" lon="7.28859">
        <ele>530.934082</ele>
        <time>2010-06-19T14:26:46Z</time>
      </trkpt>
      <trkpt lat="48.67366" lon="7.28851">
        <ele>527.637207</ele>
        <time>2010-06-19T14:26:50Z</time>
      </trkpt>
      <trkpt lat="48.67353" lon="7.28849">
        <ele>524.715332</ele>
        <time>2010-06-19T14:26:53Z</time>
      </trkpt>
      <trkpt lat="48.67337" lon="7.28848">
        <ele>523.105957</ele>
        <time>2010-06-19T14:26:58Z</time>
      </trkpt>
      <trkpt lat="48.67321" lon="7.28843">
        <ele>523.184082</ele>
        <time>2010-06-19T14:27:02Z</time>
      </trkpt>
      <trkpt lat="48.67303" lon="7.28844">
        <ele>521.340332</ele>
        <time>2010-06-19T14:27:07Z</time>
      </trkpt>
      <trkpt lat="48.67289" lon="7.28834">
        <ele>521.121582</ele>
        <time>2010-06-19T14:27:11Z</time>
      </trkpt>
      <trkpt lat="48.67275" lon="7.28824">
        <ele>521.934082</ele>
        <time>2010-06-19T14:27:16Z</time>
      </trkpt>
      <trkpt lat="48.67265" lon="7.2881">
        <ele>524.184082</ele>
        <time>2010-06-19T14:27:20Z</time>
      </trkpt>
      <trkpt lat="48.67249" lon="7.28799">
        <ele>522.715332</ele>
        <time>2010-06-19T14:27:24Z</time>
      </trkpt>
      <trkpt lat="48.67232" lon="7.28795">
        <ele>526.012207</ele>
        <time>2010-06-19T14:27:31Z</time>
      </trkpt>
      <trkpt lat="48.67218" lon="7.28786">
        <ele>526.262207</ele>
        <time>2010-06-19T14:27:34Z</time>
      </trkpt>
      <trkpt lat="48.67205" lon="7.28775">
        <ele>526.184082</ele>
        <time>2010-06-19T14:27:38Z</time>
      </trkpt>
      <trkpt lat="48.67193" lon="7.28761">
        <ele>528.590332</ele>
        <time>2010-06-19T14:27:41Z</time>
      </trkpt>
      <trkpt lat="48.6718" lon="7.28751">
        <ele>531.543457</ele>
        <time>2010-06-19T14:27:46Z</time>
      </trkpt>
      <trkpt lat="48.67163" lon="7.28751">
        <ele>533.090332</ele>
        <time>2010-06-19T14:27:50Z</time>
      </trkpt>
      <trkpt lat="48.67147" lon="7.28747">
        <ele>532.574707</ele>
        <time>2010-06-19T14:27:53Z</time>
      </trkpt>
      <trkpt lat="48.6713" lon="7.28741">
        <ele>532.105957</ele>
        <time>2010-06-19T14:27:58Z</time>
      </trkpt>
      <trkpt lat="48.67114" lon="7.28734">
        <ele>532.418457</ele>
        <time>2010-06-19T14:28:02Z</time>
      </trkpt>
      <trkpt lat="48.67098" lon="7.28731">
        <ele>532.105957</ele>
        <time>2010-06-19T14:28:06Z</time>
      </trkpt>
      <trkpt lat="48.67082" lon="7.28727">
        <ele>532.371582</ele>
        <time>2010-06-19T14:28:10Z</time>
      </trkpt>
      <trkpt lat="48.67069" lon="7.28724">
        <ele>529.027832</ele>
        <time>2010-06-19T14:28:12Z</time>
      </trkpt>
      <trkpt lat="48.67055" lon="7.28724">
        <ele>528.543457</ele>
        <time>2010-06-19T14:28:15Z</time>
      </trkpt>
      <trkpt lat="48.67041" lon="7.28721">
        <ele>533.074707</ele>
        <time>2010-06-19T14:28:20Z</time>
      </trkpt>
      <trkpt lat="48.6703" lon="7.28733">
        <ele>534.668457</ele>
        <time>2010-06-19T14:29:29Z</time>
      </trkpt>
      <trkpt lat="48.67018" lon="7.28745">
        <ele>532.340332</ele>
        <time>2010-06-19T14:30:20Z</time>
      </trkpt>
      <trkpt lat="48.67001" lon="7.28754">
        <ele>531.355957</ele>
        <time>2010-06-19T14:30:29Z</time>
      </trkpt>
      <trkpt lat="48.66987" lon="7.28757">
        <ele>534.465332</ele>
        <time>2010-06-19T14:30:34Z</time>
      </trkpt>
      <trkpt lat="48.66973" lon="7.28763">
        <ele>540.027832</ele>
        <time>2010-06-19T14:30:39Z</time>
      </trkpt>
      <trkpt lat="48.66958" lon="7.28768">
        <ele>541.699707</ele>
        <time>2010-06-19T14:30:44Z</time>
      </trkpt>
      <trkpt lat="48.66946" lon="7.28778">
        <ele>548.512207</ele>
        <time>2010-06-19T14:30:49Z</time>
      </trkpt>
      <trkpt lat="48.66934" lon="7.28789">
        <ele>550.809082</ele>
        <time>2010-06-19T14:30:53Z</time>
      </trkpt>
      <trkpt lat="48.66921" lon="7.28803">
        <ele>554.809082</ele>
        <time>2010-06-19T14:30:58Z</time>
      </trkpt>
      <trkpt lat="48.66908" lon="7.28818">
        <ele>555.090332</ele>
        <time>2010-06-19T14:31:03Z</time>
      </trkpt>
      <trkpt lat="48.66901" lon="7.28837">
        <ele>553.543457</ele>
        <time>2010-06-19T14:31:08Z</time>
      </trkpt>
      <trkpt lat="48.66897" lon="7.28861">
        <ele>548.902832</ele>
        <time>2010-06-19T14:31:12Z</time>
      </trkpt>
      <trkpt lat="48.66898" lon="7.28884">
        <ele>546.449707</ele>
        <time>2010-06-19T14:31:17Z</time>
      </trkpt>
      <trkpt lat="48.66895" lon="7.28905">
        <ele>541.449707</ele>
        <time>2010-06-19T14:31:21Z</time>
      </trkpt>
      <trkpt lat="48.66895" lon="7.28928">
        <ele>541.652832</ele>
        <time>2010-06-19T14:31:26Z</time>
      </trkpt>
      <trkpt lat="48.66894" lon="7.28949">
        <ele>539.340332</ele>
        <time>2010-06-19T14:31:30Z</time>
      </trkpt>
      <trkpt lat="48.6689" lon="7.28969">
        <ele>537.965332</ele>
        <time>2010-06-19T14:31:34Z</time>
      </trkpt>
      <trkpt lat="48.66892" lon="7.28992">
        <ele>536.512207</ele>
        <time>2010-06-19T14:31:39Z</time>
      </trkpt>
      <trkpt lat="48.66891" lon="7.29015">
        <ele>535.324707</ele>
        <time>2010-06-19T14:31:44Z</time>
      </trkpt>
      <trkpt lat="48.66892" lon="7.29036">
        <ele>536.371582</ele>
        <time>2010-06-19T14:31:49Z</time>
      </trkpt>
      <trkpt lat="48.66895" lon="7.29058">
        <ele>537.402832</ele>
        <time>2010-06-19T14:31:56Z</time>
      </trkpt>
      <trkpt lat="48.669" lon="7.29078">
        <ele>537.965332</ele>
        <time>2010-06-19T14:32:01Z</time>
      </trkpt>
      <trkpt lat="48.66905" lon="7.29102">
        <ele>537.105957</ele>
        <time>2010-06-19T14:32:06Z</time>
      </trkpt>
      <trkpt lat="48.66908" lon="7.29123">
        <ele>536.793457</ele>
        <time>2010-06-19T14:32:10Z</time>
      </trkpt>
      <trkpt lat="48.66913" lon="7.29148">
        <ele>538.012207</ele>
        <time>2010-06-19T14:32:14Z</time>
      </trkpt>
      <trkpt lat="48.66917" lon="7.29169">
        <ele>538.059082</ele>
        <time>2010-06-19T14:32:17Z</time>
      </trkpt>
      <trkpt lat="48.66924" lon="7.29191">
        <ele>535.684082</ele>
        <time>2010-06-19T14:32:20Z</time>
      </trkpt>
      <trkpt lat="48.66933" lon="7.29211">
        <ele>534.902832</ele>
        <time>2010-06-19T14:32:23Z</time>
      </trkpt>
      <trkpt lat="48.66941" lon="7.29229">
        <ele>534.621582</ele>
        <time>2010-06-19T14:32:26Z</time>
      </trkpt>
      <trkpt lat="48.66945" lon="7.29251">
        <ele>530.512207</ele>
        <time>2010-06-19T14:32:28Z</time>
      </trkpt>
      <trkpt lat="48.6695" lon="7.29275">
        <ele>529.809082</ele>
        <time>2010-06-19T14:32:31Z</time>
      </trkpt>
      <trkpt lat="48.66959" lon="7.29296">
        <ele>529.668457</ele>
        <time>2010-06-19T14:32:34Z</time>
      </trkpt>
      <trkpt lat="48.66967" lon="7.29318">
        <ele>529.402832</ele>
        <time>2010-06-19T14:32:37Z</time>
      </trkpt>
      <trkpt lat="48.66975" lon="7.29341">
        <ele>529.887207</ele>
        <time>2010-06-19T14:32:40Z</time>
      </trkpt>
      <trkpt lat="48.66987" lon="7.29364">
        <ele>528.809082</ele>
        <time>2010-06-19T14:32:43Z</time>
      </trkpt>
      <trkpt lat="48.66997" lon="7.29384">
        <ele>529.168457</ele>
        <time>2010-06-19T14:32:46Z</time>
      </trkpt>
      <trkpt lat="48.67008" lon="7.29408">
        <ele>528.090332</ele>
        <time>2010-06-19T14:32:49Z</time>
      </trkpt>
      <trkpt lat="48.6702" lon="7.29427">
        <ele>528.371582</ele>
        <time>2010-06-19T14:32:52Z</time>
      </trkpt>
      <trkpt lat="48.67028" lon="7.2945">
        <ele>528.246582</ele>
        <time>2010-06-19T14:32:55Z</time>
      </trkpt>
      <trkpt lat="48.67042" lon="7.29472">
        <ele>528.152832</ele>
        <time>2010-06-19T14:32:58Z</time>
      </trkpt>
      <trkpt lat="48.67054" lon="7.29488">
        <ele>528.215332</ele>
        <time>2010-06-19T14:33:01Z</time>
      </trkpt>
      <trkpt lat="48.67068" lon="7.29504">
        <ele>527.715332</ele>
        <time>2010-06-19T14:33:04Z</time>
      </trkpt>
      <trkpt lat="48.67082" lon="7.29519">
        <ele>528.043457</ele>
        <time>2010-06-19T14:33:07Z</time>
      </trkpt>
      <trkpt lat="48.67095" lon="7.29529">
        <ele>528.152832</ele>
        <time>2010-06-19T14:33:10Z</time>
      </trkpt>
      <trkpt lat="48.67111" lon="7.29538">
        <ele>527.809082</ele>
        <time>2010-06-19T14:33:13Z</time>
      </trkpt>
      <trkpt lat="48.67126" lon="7.29541">
        <ele>528.840332</ele>
        <time>2010-06-19T14:33:16Z</time>
      </trkpt>
      <trkpt lat="48.67142" lon="7.29541">
        <ele>530.293457</ele>
        <time>2010-06-19T14:33:19Z</time>
      </trkpt>
      <trkpt lat="48.67159" lon="7.29543">
        <ele>533.543457</ele>
        <time>2010-06-19T14:33:23Z</time>
      </trkpt>
      <trkpt lat="48.67173" lon="7.29549">
        <ele>538.027832</ele>
        <time>2010-06-19T14:33:28Z</time>
      </trkpt>
      <trkpt lat="48.67186" lon="7.29562">
        <ele>541.949707</ele>
        <time>2010-06-19T14:33:32Z</time>
      </trkpt>
      <trkpt lat="48.67197" lon="7.29578">
        <ele>546.027832</ele>
        <time>2010-06-19T14:33:36Z</time>
      </trkpt>
      <trkpt lat="48.67205" lon="7.29604">
        <ele>548.590332</ele>
        <time>2010-06-19T14:33:39Z</time>
      </trkpt>
      <trkpt lat="48.6721" lon="7.29625">
        <ele>551.934082</ele>
        <time>2010-06-19T14:33:42Z</time>
      </trkpt>
      <trkpt lat="48.67216" lon="7.29646">
        <ele>556.340332</ele>
        <time>2010-06-19T14:33:45Z</time>
      </trkpt>
      <trkpt lat="48.67223" lon="7.29664">
        <ele>559.855957</ele>
        <time>2010-06-19T14:33:48Z</time>
      </trkpt>
      <trkpt lat="48.67227" lon="7.2969">
        <ele>562.480957</ele>
        <time>2010-06-19T14:33:52Z</time>
      </trkpt>
      <trkpt lat="48.67225" lon="7.29712">
        <ele>565.059082</ele>
        <time>2010-06-19T14:33:55Z</time>
      </trkpt>
      <trkpt lat="48.67218" lon="7.29732">
        <ele>566.246582</ele>
        <time>2010-06-19T14:33:58Z</time>
      </trkpt>
      <trkpt lat="48.67212" lon="7.29753">
        <ele>564.293457</ele>
        <time>2010-06-19T14:34:01Z</time>
      </trkpt>
      <trkpt lat="48.67209" lon="7.29777">
        <ele>563.840332</ele>
        <time>2010-06-19T14:34:04Z</time>
      </trkpt>
      <trkpt lat="48.67206" lon="7.29798">
        <ele>561.980957</ele>
        <time>2010-06-19T14:34:07Z</time>
      </trkpt>
      <trkpt lat="48.67208" lon="7.2982">
        <ele>552.621582</ele>
        <time>2010-06-19T14:34:11Z</time>
      </trkpt>
      <trkpt lat="48.67208" lon="7.2984">
        <ele>543.121582</ele>
        <time>2010-06-19T14:34:14Z</time>
      </trkpt>
      <trkpt lat="48.67203" lon="7.29865">
        <ele>536.199707</ele>
        <time>2010-06-19T14:34:17Z</time>
      </trkpt>
      <trkpt lat="48.672" lon="7.29892">
        <ele>530.043457</ele>
        <time>2010-06-19T14:34:20Z</time>
      </trkpt>
      <trkpt lat="48.67199" lon="7.29917">
        <ele>524.512207</ele>
        <time>2010-06-19T14:34:23Z</time>
      </trkpt>
      <trkpt lat="48.672" lon="7.29944">
        <ele>521.434082</ele>
        <time>2010-06-19T14:34:26Z</time>
      </trkpt>
      <trkpt lat="48.67199" lon="7.29967">
        <ele>518.996582</ele>
        <time>2010-06-19T14:34:29Z</time>
      </trkpt>
      <trkpt lat="48.67197" lon="7.29991">
        <ele>513.496582</ele>
        <time>2010-06-19T14:34:32Z</time>
      </trkpt>
      <trkpt lat="48.67199" lon="7.30015">
        <ele>510.342041</ele>
        <time>2010-06-19T14:34:35Z</time>
      </trkpt>
      <trkpt lat="48.67202" lon="7.3004">
        <ele>508.451416</ele>
        <time>2010-06-19T14:34:38Z</time>
      </trkpt>
      <trkpt lat="48.67207" lon="7.30062">
        <ele>503.967041</ele>
        <time>2010-06-19T14:34:40Z</time>
      </trkpt>
      <trkpt lat="48.67218" lon="7.30085">
        <ele>502.795166</ele>
        <time>2010-06-19T14:34:43Z</time>
      </trkpt>
      <trkpt lat="48.67228" lon="7.30107">
        <ele>501.396729</ele>
        <time>2010-06-19T14:34:46Z</time>
      </trkpt>
      <trkpt lat="48.67238" lon="7.30128">
        <ele>500.920166</ele>
        <time>2010-06-19T14:34:49Z</time>
      </trkpt>
      <trkpt lat="48.67251" lon="7.30145">
        <ele>500.732666</ele>
        <time>2010-06-19T14:34:52Z</time>
      </trkpt>
      <trkpt lat="48.67262" lon="7.3016">
        <ele>501.357666</ele>
        <time>2010-06-19T14:34:55Z</time>
      </trkpt>
      <trkpt lat="48.67274" lon="7.30179">
        <ele>501.045166</ele>
        <time>2010-06-19T14:34:58Z</time>
      </trkpt>
      <trkpt lat="48.67288" lon="7.30194">
        <ele>501.584229</ele>
        <time>2010-06-19T14:35:01Z</time>
      </trkpt>
      <trkpt lat="48.67301" lon="7.30207">
        <ele>502.552979</ele>
        <time>2010-06-19T14:35:04Z</time>
      </trkpt>
      <trkpt lat="48.67313" lon="7.30222">
        <ele>503.685791</ele>
        <time>2010-06-19T14:35:07Z</time>
      </trkpt>
      <trkpt lat="48.67326" lon="7.30235">
        <ele>504.521729</ele>
        <time>2010-06-19T14:35:10Z</time>
      </trkpt>
      <trkpt lat="48.67341" lon="7.30253">
        <ele>504.084229</ele>
        <time>2010-06-19T14:35:13Z</time>
      </trkpt>
      <trkpt lat="48.67353" lon="7.30267">
        <ele>504.802979</ele>
        <time>2010-06-19T14:35:16Z</time>
      </trkpt>
      <trkpt lat="48.67366" lon="7.30281">
        <ele>506.404541</ele>
        <time>2010-06-19T14:35:19Z</time>
      </trkpt>
      <trkpt lat="48.67379" lon="7.30299">
        <ele>507.935791</ele>
        <time>2010-06-19T14:35:22Z</time>
      </trkpt>
      <trkpt lat="48.67389" lon="7.30317">
        <ele>509.092041</ele>
        <time>2010-06-19T14:35:25Z</time>
      </trkpt>
      <trkpt lat="48.67395" lon="7.3034">
        <ele>510.670166</ele>
        <time>2010-06-19T14:35:28Z</time>
      </trkpt>
      <trkpt lat="48.67399" lon="7.30364">
        <ele>512.340332</ele>
        <time>2010-06-19T14:35:31Z</time>
      </trkpt>
      <trkpt lat="48.67404" lon="7.3039">
        <ele>514.152832</ele>
        <time>2010-06-19T14:35:34Z</time>
      </trkpt>
      <trkpt lat="48.67406" lon="7.30417">
        <ele>515.387207</ele>
        <time>2010-06-19T14:35:37Z</time>
      </trkpt>
      <trkpt lat="48.67399" lon="7.30442">
        <ele>515.215332</ele>
        <time>2010-06-19T14:35:40Z</time>
      </trkpt>
      <trkpt lat="48.67386" lon="7.30463">
        <ele>514.105957</ele>
        <time>2010-06-19T14:35:43Z</time>
      </trkpt>
      <trkpt lat="48.67378" lon="7.30479">
        <ele>510.982666</ele>
        <time>2010-06-19T14:35:46Z</time>
      </trkpt>
      <trkpt lat="48.67366" lon="7.30497">
        <ele>508.693604</ele>
        <time>2010-06-19T14:35:49Z</time>
      </trkpt>
      <trkpt lat="48.67359" lon="7.30518">
        <ele>505.490479</ele>
        <time>2010-06-19T14:35:52Z</time>
      </trkpt>
      <trkpt lat="48.67359" lon="7.30547">
        <ele>502.599854</ele>
        <time>2010-06-19T14:35:55Z</time>
      </trkpt>
      <trkpt lat="48.67368" lon="7.30569">
        <ele>495.287354</ele>
        <time>2010-06-19T14:35:57Z</time>
      </trkpt>
      <trkpt lat="48.67374" lon="7.30589">
        <ele>492.482666</ele>
        <time>2010-06-19T14:35:59Z</time>
      </trkpt>
      <trkpt lat="48.67384" lon="7.30615">
        <ele>490.443604</ele>
        <time>2010-06-19T14:36:02Z</time>
      </trkpt>
      <trkpt lat="48.67393" lon="7.30637">
        <ele>493.310791</ele>
        <time>2010-06-19T14:36:05Z</time>
      </trkpt>
      <trkpt lat="48.67401" lon="7.30661">
        <ele>493.373291</ele>
        <time>2010-06-19T14:36:08Z</time>
      </trkpt>
      <trkpt lat="48.67409" lon="7.30678">
        <ele>492.826416</ele>
        <time>2010-06-19T14:36:10Z</time>
      </trkpt>
      <trkpt lat="48.6742" lon="7.30703">
        <ele>491.599854</ele>
        <time>2010-06-19T14:36:13Z</time>
      </trkpt>
      <trkpt lat="48.6743" lon="7.30727">
        <ele>489.756104</ele>
        <time>2010-06-19T14:36:16Z</time>
      </trkpt>
      <trkpt lat="48.67439" lon="7.30752">
        <ele>488.209229</ele>
        <time>2010-06-19T14:36:19Z</time>
      </trkpt>
      <trkpt lat="48.67448" lon="7.30776">
        <ele>487.568604</ele>
        <time>2010-06-19T14:36:22Z</time>
      </trkpt>
      <trkpt lat="48.67456" lon="7.30799">
        <ele>487.560791</ele>
        <time>2010-06-19T14:36:25Z</time>
      </trkpt>
      <trkpt lat="48.67464" lon="7.30823">
        <ele>487.599854</ele>
        <time>2010-06-19T14:36:28Z</time>
      </trkpt>
      <trkpt lat="48.67473" lon="7.30844">
        <ele>487.857666</ele>
        <time>2010-06-19T14:36:31Z</time>
      </trkpt>
      <trkpt lat="48.6748" lon="7.30868">
        <ele>488.521729</ele>
        <time>2010-06-19T14:36:34Z</time>
      </trkpt>
      <trkpt lat="48.67486" lon="7.30892">
        <ele>488.623291</ele>
        <time>2010-06-19T14:36:37Z</time>
      </trkpt>
      <trkpt lat="48.6749" lon="7.30918">
        <ele>487.748291</ele>
        <time>2010-06-19T14:36:40Z</time>
      </trkpt>
      <trkpt lat="48.67494" lon="7.30943">
        <ele>486.654541</ele>
        <time>2010-06-19T14:36:43Z</time>
      </trkpt>
      <trkpt lat="48.67499" lon="7.30969">
        <ele>484.217041</ele>
        <time>2010-06-19T14:36:46Z</time>
      </trkpt>
      <trkpt lat="48.67503" lon="7.30994">
        <ele>481.717041</ele>
        <time>2010-06-19T14:36:49Z</time>
      </trkpt>
      <trkpt lat="48.67503" lon="7.31021">
        <ele>479.576416</ele>
        <time>2010-06-19T14:36:52Z</time>
      </trkpt>
      <trkpt lat="48.67501" lon="7.31048">
        <ele>476.099854</ele>
        <time>2010-06-19T14:36:55Z</time>
      </trkpt>
      <trkpt lat="48.67499" lon="7.31075">
        <ele>474.123291</ele>
        <time>2010-06-19T14:36:58Z</time>
      </trkpt>
      <trkpt lat="48.67498" lon="7.31102">
        <ele>472.084229</ele>
        <time>2010-06-19T14:37:01Z</time>
      </trkpt>
      <trkpt lat="48.67497" lon="7.31128">
        <ele>471.334229</ele>
        <time>2010-06-19T14:37:04Z</time>
      </trkpt>
      <trkpt lat="48.67498" lon="7.31153">
        <ele>472.217041</ele>
        <time>2010-06-19T14:37:07Z</time>
      </trkpt>
      <trkpt lat="48.67503" lon="7.3118">
        <ele>471.927979</ele>
        <time>2010-06-19T14:37:10Z</time>
      </trkpt>
      <trkpt lat="48.67512" lon="7.31205">
        <ele>469.342041</ele>
        <time>2010-06-19T14:37:13Z</time>
      </trkpt>
      <trkpt lat="48.67519" lon="7.3123">
        <ele>468.154541</ele>
        <time>2010-06-19T14:37:16Z</time>
      </trkpt>
      <trkpt lat="48.67527" lon="7.31251">
        <ele>467.584229</ele>
        <time>2010-06-19T14:37:19Z</time>
      </trkpt>
      <trkpt lat="48.67539" lon="7.31268">
        <ele>467.052979</ele>
        <time>2010-06-19T14:37:22Z</time>
      </trkpt>
      <trkpt lat="48.67552" lon="7.3128">
        <ele>466.123291</ele>
        <time>2010-06-19T14:37:25Z</time>
      </trkpt>
      <trkpt lat="48.67566" lon="7.31287">
        <ele>465.974854</ele>
        <time>2010-06-19T14:37:28Z</time>
      </trkpt>
      <trkpt lat="48.67583" lon="7.31291">
        <ele>466.513916</ele>
        <time>2010-06-19T14:37:32Z</time>
      </trkpt>
      <trkpt lat="48.67597" lon="7.3129">
        <ele>466.677979</ele>
        <time>2010-06-19T14:37:35Z</time>
      </trkpt>
      <trkpt lat="48.67614" lon="7.31293">
        <ele>465.209229</ele>
        <time>2010-06-19T14:37:38Z</time>
      </trkpt>
      <trkpt lat="48.6763" lon="7.31293">
        <ele>464.623291</ele>
        <time>2010-06-19T14:37:41Z</time>
      </trkpt>
      <trkpt lat="48.67644" lon="7.31287">
        <ele>464.787354</ele>
        <time>2010-06-19T14:37:44Z</time>
      </trkpt>
      <trkpt lat="48.67661" lon="7.31273">
        <ele>464.506104</ele>
        <time>2010-06-19T14:37:47Z</time>
      </trkpt>
      <trkpt lat="48.67674" lon="7.31265">
        <ele>464.099854</ele>
        <time>2010-06-19T14:37:50Z</time>
      </trkpt>
      <trkpt lat="48.67688" lon="7.3126">
        <ele>463.865479</ele>
        <time>2010-06-19T14:37:53Z</time>
      </trkpt>
      <trkpt lat="48.67704" lon="7.31259">
        <ele>463.927979</ele>
        <time>2010-06-19T14:37:56Z</time>
      </trkpt>
      <trkpt lat="48.67721" lon="7.31259">
        <ele>463.506104</ele>
        <time>2010-06-19T14:37:59Z</time>
      </trkpt>
      <trkpt lat="48.67739" lon="7.31262">
        <ele>463.146729</ele>
        <time>2010-06-19T14:38:02Z</time>
      </trkpt>
      <trkpt lat="48.67756" lon="7.31266">
        <ele>462.724854</ele>
        <time>2010-06-19T14:38:05Z</time>
      </trkpt>
      <trkpt lat="48.67774" lon="7.31271">
        <ele>461.748291</ele>
        <time>2010-06-19T14:38:08Z</time>
      </trkpt>
      <trkpt lat="48.67791" lon="7.31269">
        <ele>461.748291</ele>
        <time>2010-06-19T14:38:11Z</time>
      </trkpt>
      <trkpt lat="48.67807" lon="7.31261">
        <ele>461.365479</ele>
        <time>2010-06-19T14:38:14Z</time>
      </trkpt>
      <trkpt lat="48.67823" lon="7.31253">
        <ele>461.857666</ele>
        <time>2010-06-19T14:38:17Z</time>
      </trkpt>
      <trkpt lat="48.67839" lon="7.31246">
        <ele>461.951416</ele>
        <time>2010-06-19T14:38:20Z</time>
      </trkpt>
      <trkpt lat="48.67857" lon="7.3124">
        <ele>462.060791</ele>
        <time>2010-06-19T14:38:23Z</time>
      </trkpt>
      <trkpt lat="48.67875" lon="7.31238">
        <ele>462.248291</ele>
        <time>2010-06-19T14:38:26Z</time>
      </trkpt>
      <trkpt lat="48.67893" lon="7.31239">
        <ele>462.131104</ele>
        <time>2010-06-19T14:38:29Z</time>
      </trkpt>
      <trkpt lat="48.67912" lon="7.31241">
        <ele>461.170166</ele>
        <time>2010-06-19T14:38:32Z</time>
      </trkpt>
      <trkpt lat="48.67925" lon="7.31247">
        <ele>458.240479</ele>
        <time>2010-06-19T14:38:34Z</time>
      </trkpt>
      <trkpt lat="48.67942" lon="7.3126">
        <ele>458.357666</ele>
        <time>2010-06-19T14:38:37Z</time>
      </trkpt>
      <trkpt lat="48.67953" lon="7.31273">
        <ele>458.131104</ele>
        <time>2010-06-19T14:38:39Z</time>
      </trkpt>
      <trkpt lat="48.67964" lon="7.31287">
        <ele>457.927979</ele>
        <time>2010-06-19T14:38:41Z</time>
      </trkpt>
      <trkpt lat="48.67977" lon="7.31298">
        <ele>457.623291</ele>
        <time>2010-06-19T14:38:43Z</time>
      </trkpt>
      <trkpt lat="48.67996" lon="7.31309">
        <ele>457.412354</ele>
        <time>2010-06-19T14:38:46Z</time>
      </trkpt>
      <trkpt lat="48.68015" lon="7.31312">
        <ele>458.170166</ele>
        <time>2010-06-19T14:38:49Z</time>
      </trkpt>
      <trkpt lat="48.68033" lon="7.31316">
        <ele>460.443604</ele>
        <time>2010-06-19T14:38:52Z</time>
      </trkpt>
      <trkpt lat="48.68048" lon="7.31316">
        <ele>465.334229</ele>
        <time>2010-06-19T14:38:55Z</time>
      </trkpt>
      <trkpt lat="48.6806" lon="7.31305">
        <ele>473.943604</ele>
        <time>2010-06-19T14:38:58Z</time>
      </trkpt>
      <trkpt lat="48.68068" lon="7.31289">
        <ele>484.584229</ele>
        <time>2010-06-19T14:39:03Z</time>
      </trkpt>
      <trkpt lat="48.68079" lon="7.31269">
        <ele>485.912354</ele>
        <time>2010-06-19T14:39:07Z</time>
      </trkpt>
      <trkpt lat="48.68089" lon="7.31252">
        <ele>489.396729</ele>
        <time>2010-06-19T14:39:12Z</time>
      </trkpt>
      <trkpt lat="48.681" lon="7.31233">
        <ele>491.959229</ele>
        <time>2010-06-19T14:39:20Z</time>
      </trkpt>
      <trkpt lat="48.6811" lon="7.31216">
        <ele>493.756104</ele>
        <time>2010-06-19T14:39:26Z</time>
      </trkpt>
      <trkpt lat="48.68122" lon="7.31207">
        <ele>499.287354</ele>
        <time>2010-06-19T14:39:31Z</time>
      </trkpt>
      <trkpt lat="48.68136" lon="7.31196">
        <ele>499.560791</ele>
        <time>2010-06-19T14:39:39Z</time>
      </trkpt>
      <trkpt lat="48.68144" lon="7.31179">
        <ele>498.170166</ele>
        <time>2010-06-19T14:39:52Z</time>
      </trkpt>
      <trkpt lat="48.68146" lon="7.31161">
        <ele>491.560791</ele>
        <time>2010-06-19T14:41:29Z</time>
      </trkpt>
      <trkpt lat="48.68153" lon="7.31163">
        <ele>479.076416</ele>
        <time>2010-06-19T14:41:44Z</time>
      </trkpt>
      <trkpt lat="48.68163" lon="7.31181">
        <ele>477.615479</ele>
        <time>2010-06-19T14:43:09Z</time>
      </trkpt>
      <trkpt lat="48.68173" lon="7.31198">
        <ele>474.506104</ele>
        <time>2010-06-19T14:43:13Z</time>
      </trkpt>
      <trkpt lat="48.68182" lon="7.31216">
        <ele>471.998291</ele>
        <time>2010-06-19T14:43:17Z</time>
      </trkpt>
      <trkpt lat="48.68192" lon="7.3123">
        <ele>470.552979</ele>
        <time>2010-06-19T14:43:21Z</time>
      </trkpt>
      <trkpt lat="48.68201" lon="7.31248">
        <ele>470.545166</ele>
        <time>2010-06-19T14:43:25Z</time>
      </trkpt>
      <trkpt lat="48.6821" lon="7.31266">
        <ele>470.849854</ele>
        <time>2010-06-19T14:43:29Z</time>
      </trkpt>
      <trkpt lat="48.68219" lon="7.31287">
        <ele>466.717041</ele>
        <time>2010-06-19T14:43:34Z</time>
      </trkpt>
      <trkpt lat="48.68229" lon="7.31304">
        <ele>462.810791</ele>
        <time>2010-06-19T14:43:38Z</time>
      </trkpt>
      <trkpt lat="48.68237" lon="7.31321">
        <ele>463.592041</ele>
        <time>2010-06-19T14:43:42Z</time>
      </trkpt>
      <trkpt lat="48.6825" lon="7.31333">
        <ele>463.881104</ele>
        <time>2010-06-19T14:43:47Z</time>
      </trkpt>
      <trkpt lat="48.68263" lon="7.31344">
        <ele>465.568604</ele>
        <time>2010-06-19T14:43:52Z</time>
      </trkpt>
      <trkpt lat="48.68276" lon="7.31357">
        <ele>467.654541</ele>
        <time>2010-06-19T14:43:57Z</time>
      </trkpt>
      <trkpt lat="48.6829" lon="7.31368">
        <ele>469.513916</ele>
        <time>2010-06-19T14:44:02Z</time>
      </trkpt>
      <trkpt lat="48.68303" lon="7.31379">
        <ele>471.818604</ele>
        <time>2010-06-19T14:44:07Z</time>
      </trkpt>
      <trkpt lat="48.68315" lon="7.31394">
        <ele>474.662354</ele>
        <time>2010-06-19T14:44:11Z</time>
      </trkpt>
      <trkpt lat="48.68325" lon="7.31413">
        <ele>477.021729</ele>
        <time>2010-06-19T14:44:14Z</time>
      </trkpt>
      <trkpt lat="48.68339" lon="7.31421">
        <ele>481.279541</ele>
        <time>2010-06-19T14:44:20Z</time>
      </trkpt>
      <trkpt lat="48.68353" lon="7.31433">
        <ele>481.092041</ele>
        <time>2010-06-19T14:44:24Z</time>
      </trkpt>
      <trkpt lat="48.68365" lon="7.31446">
        <ele>478.217041</ele>
        <time>2010-06-19T14:44:27Z</time>
      </trkpt>
      <trkpt lat="48.68379" lon="7.31449">
        <ele>476.310791</ele>
        <time>2010-06-19T14:44:30Z</time>
      </trkpt>
      <trkpt lat="48.68393" lon="7.31459">
        <ele>475.943604</ele>
        <time>2010-06-19T14:44:33Z</time>
      </trkpt>
      <trkpt lat="48.68408" lon="7.3147">
        <ele>475.709229</ele>
        <time>2010-06-19T14:44:37Z</time>
      </trkpt>
      <trkpt lat="48.68424" lon="7.3148">
        <ele>474.927979</ele>
        <time>2010-06-19T14:44:41Z</time>
      </trkpt>
      <trkpt lat="48.68435" lon="7.31491">
        <ele>472.209229</ele>
        <time>2010-06-19T14:44:43Z</time>
      </trkpt>
      <trkpt lat="48.68447" lon="7.31502">
        <ele>473.006104</ele>
        <time>2010-06-19T14:44:46Z</time>
      </trkpt>
      <trkpt lat="48.68465" lon="7.31513">
        <ele>470.076416</ele>
        <time>2010-06-19T14:44:50Z</time>
      </trkpt>
      <trkpt lat="48.68479" lon="7.31516">
        <ele>469.381104</ele>
        <time>2010-06-19T14:44:53Z</time>
      </trkpt>
      <trkpt lat="48.68496" lon="7.31518">
        <ele>468.529541</ele>
        <time>2010-06-19T14:44:58Z</time>
      </trkpt>
      <trkpt lat="48.6851" lon="7.31524">
        <ele>467.795166</ele>
        <time>2010-06-19T14:45:01Z</time>
      </trkpt>
      <trkpt lat="48.68525" lon="7.3153">
        <ele>465.951416</ele>
        <time>2010-06-19T14:45:04Z</time>
      </trkpt>
      <trkpt lat="48.68542" lon="7.31536">
        <ele>461.787354</ele>
        <time>2010-06-19T14:45:08Z</time>
      </trkpt>
      <trkpt lat="48.68557" lon="7.31542">
        <ele>460.896729</ele>
        <time>2010-06-19T14:45:12Z</time>
      </trkpt>
      <trkpt lat="48.68573" lon="7.31549">
        <ele>465.756104</ele>
        <time>2010-06-19T14:45:17Z</time>
      </trkpt>
      <trkpt lat="48.68588" lon="7.31557">
        <ele>466.435791</ele>
        <time>2010-06-19T14:45:20Z</time>
      </trkpt>
      <trkpt lat="48.68599" lon="7.31568">
        <ele>465.482666</ele>
        <time>2010-06-19T14:45:23Z</time>
      </trkpt>
      <trkpt lat="48.68612" lon="7.31578">
        <ele>466.209229</ele>
        <time>2010-06-19T14:45:26Z</time>
      </trkpt>
      <trkpt lat="48.68624" lon="7.3159">
        <ele>467.810791</ele>
        <time>2010-06-19T14:45:51Z</time>
      </trkpt>
      <trkpt lat="48.6863" lon="7.31609">
        <ele>464.076416</ele>
        <time>2010-06-19T14:45:54Z</time>
      </trkpt>
      <trkpt lat="48.68638" lon="7.3163">
        <ele>459.935791</ele>
        <time>2010-06-19T14:45:58Z</time>
      </trkpt>
      <trkpt lat="48.68651" lon="7.31644">
        <ele>459.842041</ele>
        <time>2010-06-19T14:46:02Z</time>
      </trkpt>
      <trkpt lat="48.68661" lon="7.3166">
        <ele>460.217041</ele>
        <time>2010-06-19T14:46:05Z</time>
      </trkpt>
      <trkpt lat="48.6867" lon="7.31681">
        <ele>460.287354</ele>
        <time>2010-06-19T14:46:09Z</time>
      </trkpt>
      <trkpt lat="48.68672" lon="7.31701">
        <ele>460.021729</ele>
        <time>2010-06-19T14:46:11Z</time>
      </trkpt>
      <trkpt lat="48.68676" lon="7.31724">
        <ele>458.568604</ele>
        <time>2010-06-19T14:46:13Z</time>
      </trkpt>
      <trkpt lat="48.68682" lon="7.31744">
        <ele>458.365479</ele>
        <time>2010-06-19T14:46:15Z</time>
      </trkpt>
      <trkpt lat="48.68688" lon="7.31769">
        <ele>459.060791</ele>
        <time>2010-06-19T14:46:18Z</time>
      </trkpt>
      <trkpt lat="48.68697" lon="7.31791">
        <ele>458.271729</ele>
        <time>2010-06-19T14:46:21Z</time>
      </trkpt>
      <trkpt lat="48.68706" lon="7.31814">
        <ele>457.154541</ele>
        <time>2010-06-19T14:46:24Z</time>
      </trkpt>
      <trkpt lat="48.68716" lon="7.31834">
        <ele>457.654541</ele>
        <time>2010-06-19T14:46:27Z</time>
      </trkpt>
      <trkpt lat="48.68728" lon="7.31854">
        <ele>457.545166</ele>
        <time>2010-06-19T14:46:30Z</time>
      </trkpt>
      <trkpt lat="48.68738" lon="7.31875">
        <ele>455.646729</ele>
        <time>2010-06-19T14:46:34Z</time>
      </trkpt>
      <trkpt lat="48.6875" lon="7.3189">
        <ele>456.146729</ele>
        <time>2010-06-19T14:46:38Z</time>
      </trkpt>
      <trkpt lat="48.68762" lon="7.31906">
        <ele>456.217041</ele>
        <time>2010-06-19T14:46:42Z</time>
      </trkpt>
      <trkpt lat="48.68773" lon="7.3192">
        <ele>456.740479</ele>
        <time>2010-06-19T14:46:45Z</time>
      </trkpt>
      <trkpt lat="48.68782" lon="7.31937">
        <ele>455.943604</ele>
        <time>2010-06-19T14:46:48Z</time>
      </trkpt>
      <trkpt lat="48.6879" lon="7.31954">
        <ele>455.842041</ele>
        <time>2010-06-19T14:46:50Z</time>
      </trkpt>
      <trkpt lat="48.68797" lon="7.31976">
        <ele>455.373291</ele>
        <time>2010-06-19T14:46:52Z</time>
      </trkpt>
      <trkpt lat="48.68808" lon="7.31995">
        <ele>454.396729</ele>
        <time>2010-06-19T14:46:54Z</time>
      </trkpt>
      <trkpt lat="48.68819" lon="7.32013">
        <ele>455.099854</ele>
        <time>2010-06-19T14:46:57Z</time>
      </trkpt>
      <trkpt lat="48.68831" lon="7.32035">
        <ele>453.670166</ele>
        <time>2010-06-19T14:47:00Z</time>
      </trkpt>
      <trkpt lat="48.68844" lon="7.32051">
        <ele>454.381104</ele>
        <time>2010-06-19T14:47:03Z</time>
      </trkpt>
      <trkpt lat="48.68856" lon="7.3206">
        <ele>453.232666</ele>
        <time>2010-06-19T14:47:05Z</time>
      </trkpt>
      <trkpt lat="48.68865" lon="7.32079">
        <ele>450.912354</ele>
        <time>2010-06-19T14:47:07Z</time>
      </trkpt>
      <trkpt lat="48.68876" lon="7.32095">
        <ele>449.162354</ele>
        <time>2010-06-19T14:47:10Z</time>
      </trkpt>
      <trkpt lat="48.68886" lon="7.32112">
        <ele>450.615479</ele>
        <time>2010-06-19T14:47:13Z</time>
      </trkpt>
      <trkpt lat="48.68897" lon="7.32132">
        <ele>449.568604</ele>
        <time>2010-06-19T14:47:16Z</time>
      </trkpt>
      <trkpt lat="48.68912" lon="7.32154">
        <ele>446.021729</ele>
        <time>2010-06-19T14:47:20Z</time>
      </trkpt>
      <trkpt lat="48.68925" lon="7.32169">
        <ele>445.748291</ele>
        <time>2010-06-19T14:47:23Z</time>
      </trkpt>
      <trkpt lat="48.68938" lon="7.32179">
        <ele>446.302979</ele>
        <time>2010-06-19T14:47:26Z</time>
      </trkpt>
      <trkpt lat="48.68955" lon="7.32188">
        <ele>446.279541</ele>
        <time>2010-06-19T14:47:30Z</time>
      </trkpt>
      <trkpt lat="48.68971" lon="7.32205">
        <ele>444.506104</ele>
        <time>2010-06-19T14:47:33Z</time>
      </trkpt>
      <trkpt lat="48.6898" lon="7.3222">
        <ele>445.099854</ele>
        <time>2010-06-19T14:47:35Z</time>
      </trkpt>
      <trkpt lat="48.68997" lon="7.32232">
        <ele>444.006104</ele>
        <time>2010-06-19T14:47:38Z</time>
      </trkpt>
      <trkpt lat="48.69009" lon="7.32246">
        <ele>439.631104</ele>
        <time>2010-06-19T14:47:40Z</time>
      </trkpt>
      <trkpt lat="48.69021" lon="7.32266">
        <ele>437.193604</ele>
        <time>2010-06-19T14:47:43Z</time>
      </trkpt>
      <trkpt lat="48.69037" lon="7.32283">
        <ele>434.998291</ele>
        <time>2010-06-19T14:47:46Z</time>
      </trkpt>
      <trkpt lat="48.69051" lon="7.32295">
        <ele>434.724854</ele>
        <time>2010-06-19T14:47:49Z</time>
      </trkpt>
      <trkpt lat="48.69065" lon="7.32301">
        <ele>430.834229</ele>
        <time>2010-06-19T14:47:51Z</time>
      </trkpt>
      <trkpt lat="48.6908" lon="7.32318">
        <ele>431.435791</ele>
        <time>2010-06-19T14:47:54Z</time>
      </trkpt>
      <trkpt lat="48.69091" lon="7.32331">
        <ele>428.724854</ele>
        <time>2010-06-19T14:47:56Z</time>
      </trkpt>
      <trkpt lat="48.69103" lon="7.32339">
        <ele>427.037354</ele>
        <time>2010-06-19T14:47:58Z</time>
      </trkpt>
      <trkpt lat="48.69122" lon="7.32352">
        <ele>426.982666</ele>
        <time>2010-06-19T14:48:01Z</time>
      </trkpt>
      <trkpt lat="48.69136" lon="7.32367">
        <ele>422.427979</ele>
        <time>2010-06-19T14:48:03Z</time>
      </trkpt>
      <trkpt lat="48.6915" lon="7.32383">
        <ele>420.052979</ele>
        <time>2010-06-19T14:48:06Z</time>
      </trkpt>
      <trkpt lat="48.69165" lon="7.32403">
        <ele>420.599854</ele>
        <time>2010-06-19T14:48:09Z</time>
      </trkpt>
      <trkpt lat="48.6918" lon="7.32419">
        <ele>418.592041</ele>
        <time>2010-06-19T14:48:12Z</time>
      </trkpt>
      <trkpt lat="48.69186" lon="7.32444">
        <ele>421.084229</ele>
        <time>2010-06-19T14:48:15Z</time>
      </trkpt>
      <trkpt lat="48.69197" lon="7.32462">
        <ele>420.404541</ele>
        <time>2010-06-19T14:48:18Z</time>
      </trkpt>
      <trkpt lat="48.69208" lon="7.32478">
        <ele>419.717041</ele>
        <time>2010-06-19T14:48:21Z</time>
      </trkpt>
      <trkpt lat="48.69221" lon="7.32497">
        <ele>418.888916</ele>
        <time>2010-06-19T14:48:24Z</time>
      </trkpt>
      <trkpt lat="48.69235" lon="7.32516">
        <ele>422.302979</ele>
        <time>2010-06-19T14:48:27Z</time>
      </trkpt>
      <trkpt lat="48.69244" lon="7.3253">
        <ele>419.256104</ele>
        <time>2010-06-19T14:48:29Z</time>
      </trkpt>
      <trkpt lat="48.69256" lon="7.3255">
        <ele>417.951416</ele>
        <time>2010-06-19T14:48:32Z</time>
      </trkpt>
      <trkpt lat="48.69271" lon="7.32564">
        <ele>415.092041</ele>
        <time>2010-06-19T14:48:36Z</time>
      </trkpt>
      <trkpt lat="48.69283" lon="7.32578">
        <ele>413.724854</ele>
        <time>2010-06-19T14:48:39Z</time>
      </trkpt>
      <trkpt lat="48.69296" lon="7.32592">
        <ele>411.537354</ele>
        <time>2010-06-19T14:48:42Z</time>
      </trkpt>
      <trkpt lat="48.69312" lon="7.32602">
        <ele>408.943604</ele>
        <time>2010-06-19T14:48:45Z</time>
      </trkpt>
      <trkpt lat="48.69331" lon="7.32612">
        <ele>409.568604</ele>
        <time>2010-06-19T14:48:48Z</time>
      </trkpt>
      <trkpt lat="48.69344" lon="7.32621">
        <ele>406.849854</ele>
        <time>2010-06-19T14:48:50Z</time>
      </trkpt>
      <trkpt lat="48.69358" lon="7.32617">
        <ele>404.412354</ele>
        <time>2010-06-19T14:48:53Z</time>
      </trkpt>
      <trkpt lat="48.69375" lon="7.32619">
        <ele>405.724854</ele>
        <time>2010-06-19T14:48:56Z</time>
      </trkpt>
      <trkpt lat="48.69388" lon="7.32626">
        <ele>403.287354</ele>
        <time>2010-06-19T14:48:58Z</time>
      </trkpt>
      <trkpt lat="48.69401" lon="7.32634">
        <ele>401.068604</ele>
        <time>2010-06-19T14:49:00Z</time>
      </trkpt>
      <trkpt lat="48.69416" lon="7.3263">
        <ele>396.552979</ele>
        <time>2010-06-19T14:49:03Z</time>
      </trkpt>
      <trkpt lat="48.69431" lon="7.32624">
        <ele>396.193604</ele>
        <time>2010-06-19T14:49:06Z</time>
      </trkpt>
      <trkpt lat="48.69447" lon="7.32619">
        <ele>396.412354</ele>
        <time>2010-06-19T14:49:09Z</time>
      </trkpt>
      <trkpt lat="48.69461" lon="7.32619">
        <ele>394.506104</ele>
        <time>2010-06-19T14:49:12Z</time>
      </trkpt>
      <trkpt lat="48.69474" lon="7.32619">
        <ele>391.427979</ele>
        <time>2010-06-19T14:49:18Z</time>
      </trkpt>
      <trkpt lat="48.69489" lon="7.32629">
        <ele>394.443604</ele>
        <time>2010-06-19T14:49:23Z</time>
      </trkpt>
      <trkpt lat="48.69503" lon="7.32636">
        <ele>392.654541</ele>
        <time>2010-06-19T14:49:27Z</time>
      </trkpt>
      <trkpt lat="48.69518" lon="7.32642">
        <ele>391.943604</ele>
        <time>2010-06-19T14:49:31Z</time>
      </trkpt>
      <trkpt lat="48.69532" lon="7.32645">
        <ele>393.365479</ele>
        <time>2010-06-19T14:49:35Z</time>
      </trkpt>
      <trkpt lat="48.69546" lon="7.3264">
        <ele>393.240479</ele>
        <time>2010-06-19T14:49:41Z</time>
      </trkpt>
      <trkpt lat="48.69559" lon="7.32632">
        <ele>391.076416</ele>
        <time>2010-06-19T14:49:48Z</time>
      </trkpt>
      <trkpt lat="48.69572" lon="7.32627">
        <ele>388.638916</ele>
        <time>2010-06-19T14:49:53Z</time>
      </trkpt>
      <trkpt lat="48.69581" lon="7.32644">
        <ele>386.467041</ele>
        <time>2010-06-19T14:49:59Z</time>
      </trkpt>
      <trkpt lat="48.69594" lon="7.32644">
        <ele>385.857666</ele>
        <time>2010-06-19T14:50:07Z</time>
      </trkpt>
      <trkpt lat="48.6961" lon="7.32648">
        <ele>384.240479</ele>
        <time>2010-06-19T14:50:29Z</time>
      </trkpt>
      <trkpt lat="48.69625" lon="7.32645">
        <ele>383.662354</ele>
        <time>2010-06-19T14:50:33Z</time>
      </trkpt>
      <trkpt lat="48.69642" lon="7.32641">
        <ele>383.904541</ele>
        <time>2010-06-19T14:50:37Z</time>
      </trkpt>
      <trkpt lat="48.69659" lon="7.32643">
        <ele>384.615479</ele>
        <time>2010-06-19T14:50:41Z</time>
      </trkpt>
      <trkpt lat="48.69669" lon="7.3266">
        <ele>386.326416</ele>
        <time>2010-06-19T14:50:45Z</time>
      </trkpt>
      <trkpt lat="48.69674" lon="7.32683">
        <ele>386.326416</ele>
        <time>2010-06-19T14:50:50Z</time>
      </trkpt>
      <trkpt lat="48.69685" lon="7.32697">
        <ele>385.810791</ele>
        <time>2010-06-19T14:51:02Z</time>
      </trkpt>
      <trkpt lat="48.69697" lon="7.32708">
        <ele>388.826416</ele>
        <time>2010-06-19T14:51:18Z</time>
      </trkpt>
      <trkpt lat="48.69706" lon="7.32724">
        <ele>392.646729</ele>
        <time>2010-06-19T14:51:27Z</time>
      </trkpt>
      <trkpt lat="48.69717" lon="7.3274">
        <ele>395.248291</ele>
        <time>2010-06-19T14:51:34Z</time>
      </trkpt>
      <trkpt lat="48.69721" lon="7.3276">
        <ele>392.373291</ele>
        <time>2010-06-19T14:51:39Z</time>
      </trkpt>
      <trkpt lat="48.69724" lon="7.3278">
        <ele>394.623291</ele>
        <time>2010-06-19T14:51:44Z</time>
      </trkpt>
      <trkpt lat="48.69734" lon="7.32795">
        <ele>395.896729</ele>
        <time>2010-06-19T14:51:49Z</time>
      </trkpt>
      <trkpt lat="48.69745" lon="7.32812">
        <ele>398.396729</ele>
        <time>2010-06-19T14:51:55Z</time>
      </trkpt>
      <trkpt lat="48.69753" lon="7.3283">
        <ele>401.420166</ele>
        <time>2010-06-19T14:52:01Z</time>
      </trkpt>
      <trkpt lat="48.69761" lon="7.32845">
        <ele>405.568604</ele>
        <time>2010-06-19T14:52:07Z</time>
      </trkpt>
      <trkpt lat="48.69772" lon="7.32862">
        <ele>404.974854</ele>
        <time>2010-06-19T14:52:13Z</time>
      </trkpt>
      <trkpt lat="48.69782" lon="7.32878">
        <ele>407.185791</ele>
        <time>2010-06-19T14:52:19Z</time>
      </trkpt>
      <trkpt lat="48.6979" lon="7.32899">
        <ele>408.646729</ele>
        <time>2010-06-19T14:52:24Z</time>
      </trkpt>
      <trkpt lat="48.69798" lon="7.32918">
        <ele>413.412354</ele>
        <time>2010-06-19T14:52:29Z</time>
      </trkpt>
      <trkpt lat="48.6981" lon="7.32931">
        <ele>419.084229</ele>
        <time>2010-06-19T14:52:35Z</time>
      </trkpt>
      <trkpt lat="48.69822" lon="7.32947">
        <ele>417.849854</ele>
        <time>2010-06-19T14:52:40Z</time>
      </trkpt>
      <trkpt lat="48.69833" lon="7.32965">
        <ele>418.802979</ele>
        <time>2010-06-19T14:52:44Z</time>
      </trkpt>
      <trkpt lat="48.69844" lon="7.32978">
        <ele>416.779541</ele>
        <time>2010-06-19T14:52:48Z</time>
      </trkpt>
      <trkpt lat="48.69858" lon="7.32982">
        <ele>412.982666</ele>
        <time>2010-06-19T14:52:52Z</time>
      </trkpt>
      <trkpt lat="48.69873" lon="7.32988">
        <ele>412.209229</ele>
        <time>2010-06-19T14:52:58Z</time>
      </trkpt>
      <trkpt lat="48.69888" lon="7.32996">
        <ele>412.631104</ele>
        <time>2010-06-19T14:53:05Z</time>
      </trkpt>
      <trkpt lat="48.69903" lon="7.32988">
        <ele>409.170166</ele>
        <time>2010-06-19T14:53:10Z</time>
      </trkpt>
      <trkpt lat="48.69919" lon="7.3299">
        <ele>410.623291</ele>
        <time>2010-06-19T14:53:17Z</time>
      </trkpt>
      <trkpt lat="48.69934" lon="7.32989">
        <ele>409.287354</ele>
        <time>2010-06-19T14:53:24Z</time>
      </trkpt>
      <trkpt lat="48.69949" lon="7.3299">
        <ele>406.560791</ele>
        <time>2010-06-19T14:53:31Z</time>
      </trkpt>
      <trkpt lat="48.69962" lon="7.32992">
        <ele>409.467041</ele>
        <time>2010-06-19T14:53:36Z</time>
      </trkpt>
      <trkpt lat="48.69977" lon="7.32989">
        <ele>408.357666</ele>
        <time>2010-06-19T14:53:43Z</time>
      </trkpt>
      <trkpt lat="48.69991" lon="7.32986">
        <ele>408.185791</ele>
        <time>2010-06-19T14:53:49Z</time>
      </trkpt>
      <trkpt lat="48.70005" lon="7.32978">
        <ele>409.529541</ele>
        <time>2010-06-19T14:53:56Z</time>
      </trkpt>
      <trkpt lat="48.7002" lon="7.3297">
        <ele>409.654541</ele>
        <time>2010-06-19T14:54:03Z</time>
      </trkpt>
      <trkpt lat="48.70034" lon="7.32962">
        <ele>409.592041</ele>
        <time>2010-06-19T14:54:11Z</time>
      </trkpt>
      <trkpt lat="48.70048" lon="7.32956">
        <ele>409.662354</ele>
        <time>2010-06-19T14:54:18Z</time>
      </trkpt>
      <trkpt lat="48.70061" lon="7.32952">
        <ele>411.717041</ele>
        <time>2010-06-19T14:54:25Z</time>
      </trkpt>
      <trkpt lat="48.70076" lon="7.32944">
        <ele>412.513916</ele>
        <time>2010-06-19T14:54:31Z</time>
      </trkpt>
      <trkpt lat="48.70091" lon="7.32938">
        <ele>416.584229</ele>
        <time>2010-06-19T14:54:37Z</time>
      </trkpt>
      <trkpt lat="48.70104" lon="7.32933">
        <ele>419.677979</ele>
        <time>2010-06-19T14:54:45Z</time>
      </trkpt>
      <trkpt lat="48.70119" lon="7.32931">
        <ele>421.240479</ele>
        <time>2010-06-19T14:54:53Z</time>
      </trkpt>
      <trkpt lat="48.70133" lon="7.32928">
        <ele>422.787354</ele>
        <time>2010-06-19T14:55:02Z</time>
      </trkpt>
      <trkpt lat="48.70147" lon="7.32924">
        <ele>423.224854</ele>
        <time>2010-06-19T14:55:10Z</time>
      </trkpt>
      <trkpt lat="48.70162" lon="7.32924">
        <ele>424.615479</ele>
        <time>2010-06-19T14:55:19Z</time>
      </trkpt>
      <trkpt lat="48.70175" lon="7.32923">
        <ele>430.513916</ele>
        <time>2010-06-19T14:55:28Z</time>
      </trkpt>
      <trkpt lat="48.70189" lon="7.32927">
        <ele>432.748291</ele>
        <time>2010-06-19T14:55:34Z</time>
      </trkpt>
      <trkpt lat="48.70203" lon="7.32925">
        <ele>434.388916</ele>
        <time>2010-06-19T14:55:42Z</time>
      </trkpt>
      <trkpt lat="48.70215" lon="7.32916">
        <ele>431.826416</ele>
        <time>2010-06-19T14:55:47Z</time>
      </trkpt>
      <trkpt lat="48.70228" lon="7.32915">
        <ele>429.810791</ele>
        <time>2010-06-19T14:56:10Z</time>
      </trkpt>
      <trkpt lat="48.70242" lon="7.32912">
        <ele>428.677979</ele>
        <time>2010-06-19T14:56:15Z</time>
      </trkpt>
      <trkpt lat="48.70256" lon="7.3291">
        <ele>429.677979</ele>
        <time>2010-06-19T14:56:21Z</time>
      </trkpt>
      <trkpt lat="48.70271" lon="7.32907">
        <ele>432.654541</ele>
        <time>2010-06-19T14:56:28Z</time>
      </trkpt>
      <trkpt lat="48.70284" lon="7.32908">
        <ele>436.052979</ele>
        <time>2010-06-19T14:56:34Z</time>
      </trkpt>
      <trkpt lat="48.70297" lon="7.32899">
        <ele>434.365479</ele>
        <time>2010-06-19T14:56:40Z</time>
      </trkpt>
      <trkpt lat="48.70312" lon="7.329">
        <ele>436.326416</ele>
        <time>2010-06-19T14:56:48Z</time>
      </trkpt>
      <trkpt lat="48.70327" lon="7.32903">
        <ele>438.631104</ele>
        <time>2010-06-19T14:56:54Z</time>
      </trkpt>
      <trkpt lat="48.70341" lon="7.32895">
        <ele>437.865479</ele>
        <time>2010-06-19T14:57:00Z</time>
      </trkpt>
      <trkpt lat="48.70355" lon="7.32894">
        <ele>442.732666</ele>
        <time>2010-06-19T14:57:10Z</time>
      </trkpt>
      <trkpt lat="48.70368" lon="7.32898">
        <ele>441.099854</ele>
        <time>2010-06-19T14:57:16Z</time>
      </trkpt>
      <trkpt lat="48.70383" lon="7.329">
        <ele>441.060791</ele>
        <time>2010-06-19T14:57:23Z</time>
      </trkpt>
      <trkpt lat="48.70399" lon="7.32899">
        <ele>439.896729</ele>
        <time>2010-06-19T14:57:28Z</time>
      </trkpt>
      <trkpt lat="48.70411" lon="7.32907">
        <ele>445.365479</ele>
        <time>2010-06-19T14:57:33Z</time>
      </trkpt>
      <trkpt lat="48.70425" lon="7.32905">
        <ele>448.435791</ele>
        <time>2010-06-19T14:57:39Z</time>
      </trkpt>
      <trkpt lat="48.7044" lon="7.32909">
        <ele>447.232666</ele>
        <time>2010-06-19T14:57:48Z</time>
      </trkpt>
      <trkpt lat="48.70454" lon="7.32914">
        <ele>447.521729</ele>
        <time>2010-06-19T14:57:56Z</time>
      </trkpt>
      <trkpt lat="48.70469" lon="7.32918">
        <ele>447.302979</ele>
        <time>2010-06-19T14:58:03Z</time>
      </trkpt>
      <trkpt lat="48.70483" lon="7.3292">
        <ele>445.388916</ele>
        <time>2010-06-19T14:58:12Z</time>
      </trkpt>
      <trkpt lat="48.70497" lon="7.3292">
        <ele>444.646729</ele>
        <time>2010-06-19T14:58:20Z</time>
      </trkpt>
      <trkpt lat="48.7051" lon="7.32927">
        <ele>447.037354</ele>
        <time>2010-06-19T14:58:25Z</time>
      </trkpt>
      <trkpt lat="48.70524" lon="7.32929">
        <ele>450.654541</ele>
        <time>2010-06-19T14:58:31Z</time>
      </trkpt>
      <trkpt lat="48.70536" lon="7.32937">
        <ele>454.170166</ele>
        <time>2010-06-19T14:58:38Z</time>
      </trkpt>
      <trkpt lat="48.70548" lon="7.32945">
        <ele>455.381104</ele>
        <time>2010-06-19T14:58:45Z</time>
      </trkpt>
      <trkpt lat="48.70563" lon="7.32949">
        <ele>454.506104</ele>
        <time>2010-06-19T14:58:54Z</time>
      </trkpt>
      <trkpt lat="48.70576" lon="7.32956">
        <ele>452.724854</ele>
        <time>2010-06-19T14:59:03Z</time>
      </trkpt>
      <trkpt lat="48.70591" lon="7.32959">
        <ele>454.638916</ele>
        <time>2010-06-19T14:59:13Z</time>
      </trkpt>
      <trkpt lat="48.70606" lon="7.32963">
        <ele>455.646729</ele>
        <time>2010-06-19T14:59:19Z</time>
      </trkpt>
      <trkpt lat="48.70619" lon="7.32968">
        <ele>452.209229</ele>
        <time>2010-06-19T14:59:22Z</time>
      </trkpt>
      <trkpt lat="48.70633" lon="7.32973">
        <ele>450.974854</ele>
        <time>2010-06-19T14:59:25Z</time>
      </trkpt>
      <trkpt lat="48.70647" lon="7.3297">
        <ele>450.138916</ele>
        <time>2010-06-19T14:59:28Z</time>
      </trkpt>
      <trkpt lat="48.70662" lon="7.32979">
        <ele>451.435791</ele>
        <time>2010-06-19T14:59:33Z</time>
      </trkpt>
      <trkpt lat="48.70679" lon="7.32989">
        <ele>450.935791</ele>
        <time>2010-06-19T14:59:36Z</time>
      </trkpt>
      <trkpt lat="48.70693" lon="7.33">
        <ele>449.138916</ele>
        <time>2010-06-19T14:59:39Z</time>
      </trkpt>
      <trkpt lat="48.70704" lon="7.33015">
        <ele>445.748291</ele>
        <time>2010-06-19T14:59:42Z</time>
      </trkpt>
      <trkpt lat="48.70713" lon="7.33033">
        <ele>448.318604</ele>
        <time>2010-06-19T14:59:45Z</time>
      </trkpt>
      <trkpt lat="48.70723" lon="7.33048">
        <ele>448.388916</ele>
        <time>2010-06-19T14:59:48Z</time>
      </trkpt>
      <trkpt lat="48.70735" lon="7.33066">
        <ele>449.990479</ele>
        <time>2010-06-19T14:59:51Z</time>
      </trkpt>
      <trkpt lat="48.70749" lon="7.33082">
        <ele>448.365479</ele>
        <time>2010-06-19T14:59:54Z</time>
      </trkpt>
      <trkpt lat="48.7076" lon="7.33098">
        <ele>449.560791</ele>
        <time>2010-06-19T14:59:57Z</time>
      </trkpt>
      <trkpt lat="48.70775" lon="7.33116">
        <ele>449.802979</ele>
        <time>2010-06-19T15:00:00Z</time>
      </trkpt>
      <trkpt lat="48.70789" lon="7.33133">
        <ele>447.631104</ele>
        <time>2010-06-19T15:00:03Z</time>
      </trkpt>
      <trkpt lat="48.70804" lon="7.33144">
        <ele>447.677979</ele>
        <time>2010-06-19T15:00:06Z</time>
      </trkpt>
      <trkpt lat="48.70818" lon="7.33155">
        <ele>448.412354</ele>
        <time>2010-06-19T15:00:09Z</time>
      </trkpt>
      <trkpt lat="48.70831" lon="7.33163">
        <ele>447.271729</ele>
        <time>2010-06-19T15:00:12Z</time>
      </trkpt>
      <trkpt lat="48.70847" lon="7.33165">
        <ele>446.037354</ele>
        <time>2010-06-19T15:00:15Z</time>
      </trkpt>
      <trkpt lat="48.7086" lon="7.33173">
        <ele>446.959229</ele>
        <time>2010-06-19T15:00:19Z</time>
      </trkpt>
      <trkpt lat="48.70878" lon="7.3318">
        <ele>446.701416</ele>
        <time>2010-06-19T15:00:23Z</time>
      </trkpt>
      <trkpt lat="48.7089" lon="7.3319">
        <ele>447.677979</ele>
        <time>2010-06-19T15:00:26Z</time>
      </trkpt>
      <trkpt lat="48.70905" lon="7.33198">
        <ele>447.920166</ele>
        <time>2010-06-19T15:00:29Z</time>
      </trkpt>
      <trkpt lat="48.70924" lon="7.33207">
        <ele>443.967041</ele>
        <time>2010-06-19T15:00:32Z</time>
      </trkpt>
      <trkpt lat="48.70937" lon="7.33212">
        <ele>441.381104</ele>
        <time>2010-06-19T15:00:34Z</time>
      </trkpt>
      <trkpt lat="48.70954" lon="7.33217">
        <ele>441.177979</ele>
        <time>2010-06-19T15:00:37Z</time>
      </trkpt>
      <trkpt lat="48.70968" lon="7.33221">
        <ele>438.521729</ele>
        <time>2010-06-19T15:00:39Z</time>
      </trkpt>
      <trkpt lat="48.70987" lon="7.33223">
        <ele>436.951416</ele>
        <time>2010-06-19T15:00:42Z</time>
      </trkpt>
      <trkpt lat="48.71005" lon="7.33227">
        <ele>434.670166</ele>
        <time>2010-06-19T15:00:45Z</time>
      </trkpt>
      <trkpt lat="48.71021" lon="7.33227">
        <ele>431.545166</ele>
        <time>2010-06-19T15:00:48Z</time>
      </trkpt>
      <trkpt lat="48.7104" lon="7.33221">
        <ele>430.201416</ele>
        <time>2010-06-19T15:00:51Z</time>
      </trkpt>
      <trkpt lat="48.71055" lon="7.33217">
        <ele>430.107666</ele>
        <time>2010-06-19T15:00:53Z</time>
      </trkpt>
      <trkpt lat="48.71068" lon="7.33213">
        <ele>430.607666</ele>
        <time>2010-06-19T15:00:55Z</time>
      </trkpt>
      <trkpt lat="48.71082" lon="7.33206">
        <ele>430.967041</ele>
        <time>2010-06-19T15:00:58Z</time>
      </trkpt>
      <trkpt lat="48.71096" lon="7.33198">
        <ele>428.802979</ele>
        <time>2010-06-19T15:01:01Z</time>
      </trkpt>
      <trkpt lat="48.71109" lon="7.33192">
        <ele>429.138916</ele>
        <time>2010-06-19T15:01:04Z</time>
      </trkpt>
      <trkpt lat="48.71123" lon="7.33185">
        <ele>429.599854</ele>
        <time>2010-06-19T15:01:06Z</time>
      </trkpt>
      <trkpt lat="48.71139" lon="7.33173">
        <ele>430.842041</ele>
        <time>2010-06-19T15:01:09Z</time>
      </trkpt>
      <trkpt lat="48.71156" lon="7.33164">
        <ele>431.052979</ele>
        <time>2010-06-19T15:01:13Z</time>
      </trkpt>
      <trkpt lat="48.7117" lon="7.33161">
        <ele>430.802979</ele>
        <time>2010-06-19T15:01:18Z</time>
      </trkpt>
      <trkpt lat="48.71183" lon="7.33163">
        <ele>425.904541</ele>
        <time>2010-06-19T15:04:40Z</time>
      </trkpt>
      <trkpt lat="48.71196" lon="7.33156">
        <ele>428.920166</ele>
        <time>2010-06-19T15:04:46Z</time>
      </trkpt>
      <trkpt lat="48.7121" lon="7.33153">
        <ele>433.084229</ele>
        <time>2010-06-19T15:04:53Z</time>
      </trkpt>
      <trkpt lat="48.71223" lon="7.33148">
        <ele>434.412354</ele>
        <time>2010-06-19T15:05:02Z</time>
      </trkpt>
      <trkpt lat="48.71238" lon="7.33139">
        <ele>436.467041</ele>
        <time>2010-06-19T15:05:09Z</time>
      </trkpt>
      <trkpt lat="48.7125" lon="7.33128">
        <ele>439.607666</ele>
        <time>2010-06-19T15:05:15Z</time>
      </trkpt>
      <trkpt lat="48.71265" lon="7.33132">
        <ele>437.404541</ele>
        <time>2010-06-19T15:05:24Z</time>
      </trkpt>
      <trkpt lat="48.71279" lon="7.33138">
        <ele>437.459229</ele>
        <time>2010-06-19T15:05:33Z</time>
      </trkpt>
      <trkpt lat="48.71293" lon="7.3314">
        <ele>440.021729</ele>
        <time>2010-06-19T15:05:40Z</time>
      </trkpt>
      <trkpt lat="48.71308" lon="7.33139">
        <ele>444.381104</ele>
        <time>2010-06-19T15:05:46Z</time>
      </trkpt>
      <trkpt lat="48.71321" lon="7.33132">
        <ele>448.412354</ele>
        <time>2010-06-19T15:05:51Z</time>
      </trkpt>
      <trkpt lat="48.71335" lon="7.33124">
        <ele>452.201416</ele>
        <time>2010-06-19T15:05:55Z</time>
      </trkpt>
      <trkpt lat="48.71351" lon="7.33119">
        <ele>457.795166</ele>
        <time>2010-06-19T15:06:00Z</time>
      </trkpt>
      <trkpt lat="48.71365" lon="7.33115">
        <ele>453.537354</ele>
        <time>2010-06-19T15:06:05Z</time>
      </trkpt>
      <trkpt lat="48.71379" lon="7.33111">
        <ele>449.709229</ele>
        <time>2010-06-19T15:06:19Z</time>
      </trkpt>
      <trkpt lat="48.71392" lon="7.33117">
        <ele>447.834229</ele>
        <time>2010-06-19T15:06:28Z</time>
      </trkpt>
      <trkpt lat="48.71408" lon="7.33121">
        <ele>444.834229</ele>
        <time>2010-06-19T15:06:35Z</time>
      </trkpt>
      <trkpt lat="48.71422" lon="7.33119">
        <ele>445.677979</ele>
        <time>2010-06-19T15:06:40Z</time>
      </trkpt>
      <trkpt lat="48.71436" lon="7.33117">
        <ele>452.177979</ele>
        <time>2010-06-19T15:06:47Z</time>
      </trkpt>
      <trkpt lat="48.71449" lon="7.33113">
        <ele>458.287354</ele>
        <time>2010-06-19T15:06:52Z</time>
      </trkpt>
      <trkpt lat="48.71463" lon="7.33112">
        <ele>455.881104</ele>
        <time>2010-06-19T15:06:56Z</time>
      </trkpt>
      <trkpt lat="48.71479" lon="7.3311">
        <ele>455.334229</ele>
        <time>2010-06-19T15:07:01Z</time>
      </trkpt>
      <trkpt lat="48.71497" lon="7.33113">
        <ele>452.240479</ele>
        <time>2010-06-19T15:07:05Z</time>
      </trkpt>
      <trkpt lat="48.71512" lon="7.33126">
        <ele>445.201416</ele>
        <time>2010-06-19T15:07:08Z</time>
      </trkpt>
      <trkpt lat="48.71525" lon="7.33132">
        <ele>441.084229</ele>
        <time>2010-06-19T15:07:11Z</time>
      </trkpt>
      <trkpt lat="48.71541" lon="7.33139">
        <ele>437.217041</ele>
        <time>2010-06-19T15:07:14Z</time>
      </trkpt>
      <trkpt lat="48.71558" lon="7.33148">
        <ele>435.927979</ele>
        <time>2010-06-19T15:07:18Z</time>
      </trkpt>
      <trkpt lat="48.71575" lon="7.33157">
        <ele>434.006104</ele>
        <time>2010-06-19T15:07:21Z</time>
      </trkpt>
      <trkpt lat="48.71588" lon="7.33165">
        <ele>431.029541</ele>
        <time>2010-06-19T15:07:23Z</time>
      </trkpt>
      <trkpt lat="48.71607" lon="7.33179">
        <ele>428.662354</ele>
        <time>2010-06-19T15:07:26Z</time>
      </trkpt>
      <trkpt lat="48.71625" lon="7.33192">
        <ele>428.935791</ele>
        <time>2010-06-19T15:07:29Z</time>
      </trkpt>
      <trkpt lat="48.71639" lon="7.3321">
        <ele>429.537354</ele>
        <time>2010-06-19T15:07:32Z</time>
      </trkpt>
      <trkpt lat="48.7165" lon="7.33224">
        <ele>432.154541</ele>
        <time>2010-06-19T15:07:35Z</time>
      </trkpt>
      <trkpt lat="48.71664" lon="7.3323">
        <ele>434.490479</ele>
        <time>2010-06-19T15:07:41Z</time>
      </trkpt>
      <trkpt lat="48.7167" lon="7.3325">
        <ele>435.162354</ele>
        <time>2010-06-19T15:07:46Z</time>
      </trkpt>
      <trkpt lat="48.71669" lon="7.33272">
        <ele>435.732666</ele>
        <time>2010-06-19T15:07:50Z</time>
      </trkpt>
      <trkpt lat="48.71671" lon="7.33293">
        <ele>433.568604</ele>
        <time>2010-06-19T15:07:56Z</time>
      </trkpt>
      <trkpt lat="48.71686" lon="7.33297">
        <ele>429.677979</ele>
        <time>2010-06-19T15:08:26Z</time>
      </trkpt>
      <trkpt lat="48.71701" lon="7.33303">
        <ele>433.193604</ele>
        <time>2010-06-19T15:08:30Z</time>
      </trkpt>
      <trkpt lat="48.71714" lon="7.33312">
        <ele>434.162354</ele>
        <time>2010-06-19T15:08:33Z</time>
      </trkpt>
      <trkpt lat="48.71725" lon="7.33327">
        <ele>435.709229</ele>
        <time>2010-06-19T15:08:38Z</time>
      </trkpt>
      <trkpt lat="48.71741" lon="7.33339">
        <ele>434.545166</ele>
        <time>2010-06-19T15:08:42Z</time>
      </trkpt>
      <trkpt lat="48.7175" lon="7.33356">
        <ele>432.974854</ele>
        <time>2010-06-19T15:08:45Z</time>
      </trkpt>
      <trkpt lat="48.71763" lon="7.33374">
        <ele>430.373291</ele>
        <time>2010-06-19T15:08:49Z</time>
      </trkpt>
      <trkpt lat="48.71773" lon="7.33388">
        <ele>427.748291</ele>
        <time>2010-06-19T15:08:54Z</time>
      </trkpt>
      <trkpt lat="48.71781" lon="7.33405">
        <ele>421.623291</ele>
        <time>2010-06-19T15:09:00Z</time>
      </trkpt>
      <trkpt lat="48.71785" lon="7.33423">
        <ele>415.537354</ele>
        <time>2010-06-19T15:09:08Z</time>
      </trkpt>
      <trkpt lat="48.71793" lon="7.33441">
        <ele>410.271729</ele>
        <time>2010-06-19T15:09:19Z</time>
      </trkpt>
      <trkpt lat="48.71806" lon="7.33458">
        <ele>408.170166</ele>
        <time>2010-06-19T15:09:23Z</time>
      </trkpt>
      <trkpt lat="48.71819" lon="7.33471">
        <ele>404.420166</ele>
        <time>2010-06-19T15:09:26Z</time>
      </trkpt>
      <trkpt lat="48.71831" lon="7.3348">
        <ele>401.506104</ele>
        <time>2010-06-19T15:09:29Z</time>
      </trkpt>
      <trkpt lat="48.71843" lon="7.33494">
        <ele>398.443604</ele>
        <time>2010-06-19T15:09:32Z</time>
      </trkpt>
      <trkpt lat="48.71856" lon="7.33508">
        <ele>395.123291</ele>
        <time>2010-06-19T15:09:35Z</time>
      </trkpt>
      <trkpt lat="48.71867" lon="7.33526">
        <ele>389.802979</ele>
        <time>2010-06-19T15:09:39Z</time>
      </trkpt>
      <trkpt lat="48.71875" lon="7.33548">
        <ele>387.349854</ele>
        <time>2010-06-19T15:09:43Z</time>
      </trkpt>
      <trkpt lat="48.71886" lon="7.33563">
        <ele>386.240479</ele>
        <time>2010-06-19T15:09:46Z</time>
      </trkpt>
      <trkpt lat="48.71899" lon="7.33583">
        <ele>384.396729</ele>
        <time>2010-06-19T15:09:49Z</time>
      </trkpt>
      <trkpt lat="48.7191" lon="7.33604">
        <ele>383.045166</ele>
        <time>2010-06-19T15:09:52Z</time>
      </trkpt>
      <trkpt lat="48.7192" lon="7.33618">
        <ele>381.068604</ele>
        <time>2010-06-19T15:09:54Z</time>
      </trkpt>
      <trkpt lat="48.71933" lon="7.33634">
        <ele>378.607666</ele>
        <time>2010-06-19T15:09:57Z</time>
      </trkpt>
      <trkpt lat="48.71946" lon="7.33648">
        <ele>375.412354</ele>
        <time>2010-06-19T15:09:59Z</time>
      </trkpt>
      <trkpt lat="48.71957" lon="7.33663">
        <ele>372.927979</ele>
        <time>2010-06-19T15:10:01Z</time>
      </trkpt>
      <trkpt lat="48.71968" lon="7.33675">
        <ele>370.302979</ele>
        <time>2010-06-19T15:10:03Z</time>
      </trkpt>
      <trkpt lat="48.71972" lon="7.33696">
        <ele>368.373291</ele>
        <time>2010-06-19T15:10:05Z</time>
      </trkpt>
      <trkpt lat="48.71985" lon="7.33711">
        <ele>363.740479</ele>
        <time>2010-06-19T15:10:09Z</time>
      </trkpt>
      <trkpt lat="48.71998" lon="7.33726">
        <ele>361.420166</ele>
        <time>2010-06-19T15:10:13Z</time>
      </trkpt>
      <trkpt lat="48.72007" lon="7.33741">
        <ele>362.513916</ele>
        <time>2010-06-19T15:10:16Z</time>
      </trkpt>
      <trkpt lat="48.72017" lon="7.33754">
        <ele>362.646729</ele>
        <time>2010-06-19T15:10:20Z</time>
      </trkpt>
      <trkpt lat="48.72029" lon="7.33774">
        <ele>365.623291</ele>
        <time>2010-06-19T15:10:24Z</time>
      </trkpt>
      <trkpt lat="48.72044" lon="7.33784">
        <ele>365.084229</ele>
        <time>2010-06-19T15:10:27Z</time>
      </trkpt>
      <trkpt lat="48.72059" lon="7.33799">
        <ele>365.990479</ele>
        <time>2010-06-19T15:10:30Z</time>
      </trkpt>
      <trkpt lat="48.72072" lon="7.33811">
        <ele>366.060791</ele>
        <time>2010-06-19T15:10:33Z</time>
      </trkpt>
      <trkpt lat="48.72089" lon="7.33823">
        <ele>362.263916</ele>
        <time>2010-06-19T15:10:35Z</time>
      </trkpt>
      <trkpt lat="48.72101" lon="7.33834">
        <ele>363.006104</ele>
        <time>2010-06-19T15:10:37Z</time>
      </trkpt>
      <trkpt lat="48.72117" lon="7.3385">
        <ele>361.787354</ele>
        <time>2010-06-19T15:10:40Z</time>
      </trkpt>
      <trkpt lat="48.72134" lon="7.3386">
        <ele>361.342041</ele>
        <time>2010-06-19T15:10:43Z</time>
      </trkpt>
      <trkpt lat="48.72152" lon="7.33869">
        <ele>362.631104</ele>
        <time>2010-06-19T15:10:46Z</time>
      </trkpt>
      <trkpt lat="48.72166" lon="7.33879">
        <ele>363.529541</ele>
        <time>2010-06-19T15:10:49Z</time>
      </trkpt>
      <trkpt lat="48.7218" lon="7.33896">
        <ele>364.763916</ele>
        <time>2010-06-19T15:10:52Z</time>
      </trkpt>
      <trkpt lat="48.72194" lon="7.33909">
        <ele>367.748291</ele>
        <time>2010-06-19T15:10:55Z</time>
      </trkpt>
      <trkpt lat="48.72208" lon="7.33922">
        <ele>371.482666</ele>
        <time>2010-06-19T15:10:59Z</time>
      </trkpt>
      <trkpt lat="48.72221" lon="7.33932">
        <ele>374.865479</ele>
        <time>2010-06-19T15:11:02Z</time>
      </trkpt>
      <trkpt lat="48.72234" lon="7.33942">
        <ele>377.654541</ele>
        <time>2010-06-19T15:11:05Z</time>
      </trkpt>
      <trkpt lat="48.72246" lon="7.33957">
        <ele>380.295166</ele>
        <time>2010-06-19T15:11:08Z</time>
      </trkpt>
      <trkpt lat="48.72261" lon="7.33974">
        <ele>384.068604</ele>
        <time>2010-06-19T15:11:12Z</time>
      </trkpt>
      <trkpt lat="48.72274" lon="7.33992">
        <ele>384.920166</ele>
        <time>2010-06-19T15:11:15Z</time>
      </trkpt>
      <trkpt lat="48.72288" lon="7.34015">
        <ele>386.521729</ele>
        <time>2010-06-19T15:11:18Z</time>
      </trkpt>
      <trkpt lat="48.72299" lon="7.34037">
        <ele>387.920166</ele>
        <time>2010-06-19T15:11:21Z</time>
      </trkpt>
      <trkpt lat="48.72311" lon="7.34051">
        <ele>388.763916</ele>
        <time>2010-06-19T15:11:23Z</time>
      </trkpt>
      <trkpt lat="48.72325" lon="7.34065">
        <ele>389.349854</ele>
        <time>2010-06-19T15:11:25Z</time>
      </trkpt>
      <trkpt lat="48.72337" lon="7.3408">
        <ele>390.115479</ele>
        <time>2010-06-19T15:11:27Z</time>
      </trkpt>
      <trkpt lat="48.72347" lon="7.34097">
        <ele>391.092041</ele>
        <time>2010-06-19T15:11:29Z</time>
      </trkpt>
      <trkpt lat="48.72358" lon="7.34114">
        <ele>391.177979</ele>
        <time>2010-06-19T15:11:31Z</time>
      </trkpt>
      <trkpt lat="48.7237" lon="7.34131">
        <ele>391.756104</ele>
        <time>2010-06-19T15:11:33Z</time>
      </trkpt>
      <trkpt lat="48.72383" lon="7.34147">
        <ele>392.068604</ele>
        <time>2010-06-19T15:11:35Z</time>
      </trkpt>
      <trkpt lat="48.72399" lon="7.34166">
        <ele>392.935791</ele>
        <time>2010-06-19T15:11:38Z</time>
      </trkpt>
      <trkpt lat="48.72414" lon="7.34183">
        <ele>393.513916</ele>
        <time>2010-06-19T15:11:41Z</time>
      </trkpt>
      <trkpt lat="48.72428" lon="7.34199">
        <ele>394.271729</ele>
        <time>2010-06-19T15:11:44Z</time>
      </trkpt>
      <trkpt lat="48.72445" lon="7.34213">
        <ele>394.513916</ele>
        <time>2010-06-19T15:11:48Z</time>
      </trkpt>
      <trkpt lat="48.72459" lon="7.34226">
        <ele>395.162354</ele>
        <time>2010-06-19T15:11:51Z</time>
      </trkpt>
      <trkpt lat="48.72471" lon="7.34242">
        <ele>395.560791</ele>
        <time>2010-06-19T15:11:54Z</time>
      </trkpt>
      <trkpt lat="48.72482" lon="7.34256">
        <ele>397.099854</ele>
        <time>2010-06-19T15:11:58Z</time>
      </trkpt>
      <trkpt lat="48.72493" lon="7.34272">
        <ele>399.076416</ele>
        <time>2010-06-19T15:12:02Z</time>
      </trkpt>
      <trkpt lat="48.72505" lon="7.34285">
        <ele>400.287354</ele>
        <time>2010-06-19T15:12:05Z</time>
      </trkpt>
      <trkpt lat="48.72517" lon="7.34299">
        <ele>401.592041</ele>
        <time>2010-06-19T15:12:08Z</time>
      </trkpt>
      <trkpt lat="48.72528" lon="7.34312">
        <ele>402.857666</ele>
        <time>2010-06-19T15:12:11Z</time>
      </trkpt>
      <trkpt lat="48.72537" lon="7.34329">
        <ele>404.099854</ele>
        <time>2010-06-19T15:12:14Z</time>
      </trkpt>
      <trkpt lat="48.72552" lon="7.34348">
        <ele>404.881104</ele>
        <time>2010-06-19T15:12:17Z</time>
      </trkpt>
      <trkpt lat="48.72566" lon="7.34367">
        <ele>405.857666</ele>
        <time>2010-06-19T15:12:20Z</time>
      </trkpt>
      <trkpt lat="48.72581" lon="7.34387">
        <ele>406.842041</ele>
        <time>2010-06-19T15:12:23Z</time>
      </trkpt>
      <trkpt lat="48.72595" lon="7.34404">
        <ele>407.224854</ele>
        <time>2010-06-19T15:12:26Z</time>
      </trkpt>
      <trkpt lat="48.72606" lon="7.3442">
        <ele>407.623291</ele>
        <time>2010-06-19T15:12:29Z</time>
      </trkpt>
      <trkpt lat="48.72618" lon="7.34438">
        <ele>407.881104</ele>
        <time>2010-06-19T15:12:32Z</time>
      </trkpt>
      <trkpt lat="48.7263" lon="7.34454">
        <ele>407.920166</ele>
        <time>2010-06-19T15:12:35Z</time>
      </trkpt>
      <trkpt lat="48.72643" lon="7.34469">
        <ele>408.920166</ele>
        <time>2010-06-19T15:12:38Z</time>
      </trkpt>
      <trkpt lat="48.72655" lon="7.34478">
        <ele>409.381104</ele>
        <time>2010-06-19T15:12:42Z</time>
      </trkpt>
      <trkpt lat="48.72669" lon="7.34488">
        <ele>409.795166</ele>
        <time>2010-06-19T15:12:46Z</time>
      </trkpt>
      <trkpt lat="48.72681" lon="7.34503">
        <ele>409.974854</ele>
        <time>2010-06-19T15:12:49Z</time>
      </trkpt>
      <trkpt lat="48.72694" lon="7.34517">
        <ele>410.154541</ele>
        <time>2010-06-19T15:12:51Z</time>
      </trkpt>
      <trkpt lat="48.72707" lon="7.34535">
        <ele>410.607666</ele>
        <time>2010-06-19T15:12:54Z</time>
      </trkpt>
      <trkpt lat="48.72724" lon="7.34544">
        <ele>410.685791</ele>
        <time>2010-06-19T15:12:57Z</time>
      </trkpt>
      <trkpt lat="48.72741" lon="7.34551">
        <ele>411.240479</ele>
        <time>2010-06-19T15:13:00Z</time>
      </trkpt>
      <trkpt lat="48.72758" lon="7.34558">
        <ele>411.177979</ele>
        <time>2010-06-19T15:13:03Z</time>
      </trkpt>
      <trkpt lat="48.72772" lon="7.34566">
        <ele>410.818604</ele>
        <time>2010-06-19T15:13:06Z</time>
      </trkpt>
      <trkpt lat="48.72789" lon="7.34575">
        <ele>411.146729</ele>
        <time>2010-06-19T15:13:09Z</time>
      </trkpt>
      <trkpt lat="48.72806" lon="7.34587">
        <ele>411.162354</ele>
        <time>2010-06-19T15:13:12Z</time>
      </trkpt>
      <trkpt lat="48.72822" lon="7.34594">
        <ele>411.256104</ele>
        <time>2010-06-19T15:13:15Z</time>
      </trkpt>
      <trkpt lat="48.72833" lon="7.34611">
        <ele>411.248291</ele>
        <time>2010-06-19T15:13:17Z</time>
      </trkpt>
      <trkpt lat="48.72845" lon="7.34634">
        <ele>410.779541</ele>
        <time>2010-06-19T15:13:19Z</time>
      </trkpt>
      <trkpt lat="48.72859" lon="7.34642">
        <ele>410.349854</ele>
        <time>2010-06-19T15:13:21Z</time>
      </trkpt>
      <trkpt lat="48.72874" lon="7.34652">
        <ele>407.545166</ele>
        <time>2010-06-19T15:13:24Z</time>
      </trkpt>
      <trkpt lat="48.72891" lon="7.34662">
        <ele>406.662354</ele>
        <time>2010-06-19T15:13:27Z</time>
      </trkpt>
      <trkpt lat="48.72905" lon="7.34676">
        <ele>405.240479</ele>
        <time>2010-06-19T15:13:29Z</time>
      </trkpt>
      <trkpt lat="48.72919" lon="7.34691">
        <ele>404.951416</ele>
        <time>2010-06-19T15:13:32Z</time>
      </trkpt>
      <trkpt lat="48.72931" lon="7.34707">
        <ele>398.435791</ele>
        <time>2010-06-19T15:13:35Z</time>
      </trkpt>
      <trkpt lat="48.72945" lon="7.34731">
        <ele>395.287354</ele>
        <time>2010-06-19T15:13:38Z</time>
      </trkpt>
      <trkpt lat="48.72952" lon="7.34751">
        <ele>394.451416</ele>
        <time>2010-06-19T15:13:42Z</time>
      </trkpt>
      <trkpt lat="48.72963" lon="7.34772">
        <ele>392.138916</ele>
        <time>2010-06-19T15:13:46Z</time>
      </trkpt>
      <trkpt lat="48.72981" lon="7.34783">
        <ele>390.521729</ele>
        <time>2010-06-19T15:13:49Z</time>
      </trkpt>
      <trkpt lat="48.72997" lon="7.34797">
        <ele>388.131104</ele>
        <time>2010-06-19T15:13:52Z</time>
      </trkpt>
      <trkpt lat="48.73009" lon="7.34808">
        <ele>385.951416</ele>
        <time>2010-06-19T15:13:54Z</time>
      </trkpt>
      <trkpt lat="48.73023" lon="7.34816">
        <ele>381.224854</ele>
        <time>2010-06-19T15:13:56Z</time>
      </trkpt>
      <trkpt lat="48.73039" lon="7.34828">
        <ele>380.232666</ele>
        <time>2010-06-19T15:13:59Z</time>
      </trkpt>
      <trkpt lat="48.73054" lon="7.34838">
        <ele>377.865479</ele>
        <time>2010-06-19T15:14:03Z</time>
      </trkpt>
      <trkpt lat="48.73068" lon="7.34848">
        <ele>376.763916</ele>
        <time>2010-06-19T15:14:07Z</time>
      </trkpt>
      <trkpt lat="48.73082" lon="7.34859">
        <ele>374.959229</ele>
        <time>2010-06-19T15:14:10Z</time>
      </trkpt>
      <trkpt lat="48.73098" lon="7.3487">
        <ele>371.732666</ele>
        <time>2010-06-19T15:14:13Z</time>
      </trkpt>
      <trkpt lat="48.73115" lon="7.3488">
        <ele>369.185791</ele>
        <time>2010-06-19T15:14:16Z</time>
      </trkpt>
      <trkpt lat="48.73133" lon="7.34891">
        <ele>366.927979</ele>
        <time>2010-06-19T15:14:19Z</time>
      </trkpt>
      <trkpt lat="48.73146" lon="7.34903">
        <ele>368.599854</ele>
        <time>2010-06-19T15:14:22Z</time>
      </trkpt>
      <trkpt lat="48.73159" lon="7.34913">
        <ele>367.670166</ele>
        <time>2010-06-19T15:14:24Z</time>
      </trkpt>
      <trkpt lat="48.73173" lon="7.34922">
        <ele>366.951416</ele>
        <time>2010-06-19T15:14:26Z</time>
      </trkpt>
      <trkpt lat="48.73186" lon="7.3493">
        <ele>366.068604</ele>
        <time>2010-06-19T15:14:28Z</time>
      </trkpt>
      <trkpt lat="48.73202" lon="7.34938">
        <ele>364.287354</ele>
        <time>2010-06-19T15:14:31Z</time>
      </trkpt>
      <trkpt lat="48.73259" lon="7.34973">
        <ele>363.342041</ele>
        <time>2010-06-19T15:14:37Z</time>
      </trkpt>
      <trkpt lat="48.73255" lon="7.35004">
        <ele>356.373291</ele>
        <time>2010-06-19T15:14:41Z</time>
      </trkpt>
      <trkpt lat="48.73248" lon="7.3503">
        <ele>353.357666</ele>
        <time>2010-06-19T15:14:44Z</time>
      </trkpt>
      <trkpt lat="48.73238" lon="7.35069">
        <ele>350.763916</ele>
        <time>2010-06-19T15:14:47Z</time>
      </trkpt>
      <trkpt lat="48.73231" lon="7.35088">
        <ele>350.006104</ele>
        <time>2010-06-19T15:14:50Z</time>
      </trkpt>
      <trkpt lat="48.73226" lon="7.35112">
        <ele>344.967041</ele>
        <time>2010-06-19T15:14:53Z</time>
      </trkpt>
      <trkpt lat="48.73219" lon="7.35128">
        <ele>342.685791</ele>
        <time>2010-06-19T15:14:56Z</time>
      </trkpt>
      <trkpt lat="48.73189" lon="7.35118">
        <ele>327.467041</ele>
        <time>2010-06-19T15:15:02Z</time>
      </trkpt>
      <trkpt lat="48.73176" lon="7.35126">
        <ele>317.943604</ele>
        <time>2010-06-19T15:15:08Z</time>
      </trkpt>
      <trkpt lat="48.73166" lon="7.35146">
        <ele>307.623291</ele>
        <time>2010-06-19T15:15:13Z</time>
      </trkpt>
      <trkpt lat="48.73163" lon="7.35162">
        <ele>299.920166</ele>
        <time>2010-06-19T15:15:17Z</time>
      </trkpt>
      <trkpt lat="48.73157" lon="7.35183">
        <ele>296.029541</ele>
        <time>2010-06-19T15:15:20Z</time>
      </trkpt>
      <trkpt lat="48.73155" lon="7.35185">
        <ele>292.443604</ele>
        <time>2010-06-19T15:15:23Z</time>
      </trkpt>
      <trkpt lat="48.73149" lon="7.35194">
        <ele>285.802979</ele>
        <time>2010-06-19T15:15:28Z</time>
      </trkpt>
      <trkpt lat="48.73141" lon="7.35202">
        <ele>277.935791</ele>
        <time>2010-06-19T15:17:10Z</time>
      </trkpt>
      <trkpt lat="48.73138" lon="7.35205">
        <ele>269.959229</ele>
        <time>2010-06-19T15:18:40Z</time>
      </trkpt>
      <trkpt lat="48.73133" lon="7.3521">
        <ele>260.943604</ele>
        <time>2010-06-19T15:23:39Z</time>
      </trkpt>
      <trkpt lat="48.73133" lon="7.35212">
        <ele>246.581177</ele>
        <time>2010-06-19T15:26:58Z</time>
      </trkpt>
      <trkpt lat="48.7313" lon="7.3523">
        <ele>245.483521</ele>
        <time>2010-06-19T15:27:03Z</time>
      </trkpt>
    </trkseg>
  </trk>
</gpx>